PWSweather.com
Personal Weather Stations
Station Observations
BOOMEPH
Weather On The Hill Or Not, Ephrata, PA 17522

Weather On The Hill Or NotEphrata, PA 17522

Lat: 40.17243, Lon: -76.180815

Elevation: 597

Station Type: Ambient WS 1080

High Low Average
Temperature 92.8°F33.8°F 58.8°F14.9°F 74.4°F23.6°F
Dew Point 70.6°F21.4°F 54.4°F12.4°F 63.2°F17.3°F
Winds 5.4 mph ENE8.7 mph ENE Calm Calm 0.6 mph 1.0 mph
Wind Gusts 8.3 mph13.4 mph -- 2.7 mph4.3 mph
Humidity 100% 31% 74%
Pressure 30.56 in1034.90 in 30.45 in1031.20 in -
Precipitation 0.00 in0.00 in - -
Hour Temp Dew Point Humidity Winds Wind Gusts Pressure Precip Precip Rate Daily Precip Total
12:00 AM 67.3°F19.6°C 66.7°F19.3°C 98% Calm Calm -- 30.52 in1033.5 mb 0.00 in0.0 mm 0.00 in/hr0.0 mm/hr 0.00 in0.0 mm
12:01 AM 67.1°F19.5°C 67.1°F19.5°C 100% Calm Calm -- 30.52 in1033.5 mb 0.00 in0.0 mm 0.00 in/hr0.0 mm/hr 0.00 in0.0 mm
12:02 AM 67.1°F19.5°C 67.1°F19.5°C 100% Calm Calm -- 30.52 in1033.5 mb 0.00 in0.0 mm 0.00 in/hr0.0 mm/hr 0.00 in0.0 mm
12:03 AM 66.9°F19.4°C 67.0°F19.4°C 100% Calm Calm -- 30.52 in1033.5 mb 0.00 in0.0 mm 0.00 in/hr0.0 mm/hr 0.00 in0.0 mm
12:04 AM 66.7°F19.3°C 66.8°F19.3°C 100% Calm Calm -- 30.52 in1033.5 mb 0.00 in0.0 mm 0.00 in/hr0.0 mm/hr 0.00 in0.0 mm
12:05 AM 66.7°F19.3°C 66.8°F19.3°C 100% Calm Calm -- 30.52 in1033.5 mb 0.00 in0.0 mm 0.00 in/hr0.0 mm/hr 0.00 in0.0 mm
12:06 AM 66.6°F19.2°C 66.6°F19.2°C 100% Calm Calm -- 30.52 in1033.5 mb 0.00 in0.0 mm 0.00 in/hr0.0 mm/hr 0.00 in0.0 mm
12:07 AM 66.4°F19.1°C 66.4°F19.1°C 100% Calm Calm -- 30.52 in1033.5 mb 0.00 in0.0 mm 0.00 in/hr0.0 mm/hr 0.00 in0.0 mm
12:08 AM 66.4°F19.1°C 66.4°F19.1°C 100% Calm Calm -- 30.52 in1033.5 mb 0.00 in0.0 mm 0.00 in/hr0.0 mm/hr 0.00 in0.0 mm
12:09 AM 66.4°F19.1°C 66.4°F19.1°C 100% Calm Calm -- 30.52 in1033.5 mb 0.00 in0.0 mm 0.00 in/hr0.0 mm/hr 0.00 in0.0 mm
12:10 AM 66.4°F19.1°C 66.4°F19.1°C 100% Calm Calm -- 30.52 in1033.5 mb 0.00 in0.0 mm 0.00 in/hr0.0 mm/hr 0.00 in0.0 mm
12:11 AM 66.2°F19.0°C 66.2°F19.0°C 100% Calm Calm -- 30.52 in1033.5 mb 0.00 in0.0 mm 0.00 in/hr0.0 mm/hr 0.00 in0.0 mm
12:12 AM 66.2°F19.0°C 66.2°F19.0°C 100% Calm Calm -- 30.52 in1033.5 mb 0.00 in0.0 mm 0.00 in/hr0.0 mm/hr 0.00 in0.0 mm
12:13 AM 66.2°F19.0°C 66.2°F19.0°C 100% Calm Calm -- 30.52 in1033.5 mb 0.00 in0.0 mm 0.00 in/hr0.0 mm/hr 0.00 in0.0 mm
12:14 AM 66.0°F18.9°C 66.0°F18.9°C 100% Calm Calm -- 30.52 in1033.5 mb 0.00 in0.0 mm 0.00 in/hr0.0 mm/hr 0.00 in0.0 mm
12:15 AM 66.0°F18.9°C 66.0°F18.9°C 100% Calm Calm -- 30.52 in1033.5 mb 0.00 in0.0 mm 0.00 in/hr0.0 mm/hr 0.00 in0.0 mm
12:16 AM 66.0°F18.9°C 66.0°F18.9°C 100% Calm Calm -- 30.52 in1033.5 mb 0.00 in0.0 mm 0.00 in/hr0.0 mm/hr 0.00 in0.0 mm
12:17 AM 65.8°F18.8°C 65.9°F18.8°C 100% Calm Calm -- 30.52 in1033.5 mb 0.00 in0.0 mm 0.00 in/hr0.0 mm/hr 0.00 in0.0 mm
12:18 AM 65.8°F18.8°C 65.9°F18.8°C 100% Calm Calm -- 30.52 in1033.5 mb 0.00 in0.0 mm 0.00 in/hr0.0 mm/hr 0.00 in0.0 mm
12:19 AM 65.8°F18.8°C 65.9°F18.8°C 100% Calm Calm -- 30.52 in1033.5 mb 0.00 in0.0 mm 0.00 in/hr0.0 mm/hr 0.00 in0.0 mm
12:20 AM 65.8°F18.8°C 65.9°F18.8°C 100% Calm Calm -- 30.52 in1033.5 mb 0.00 in0.0 mm 0.00 in/hr0.0 mm/hr 0.00 in0.0 mm
12:21 AM 65.7°F18.7°C 65.7°F18.7°C 100% Calm Calm -- 30.52 in1033.5 mb 0.00 in0.0 mm 0.00 in/hr0.0 mm/hr 0.00 in0.0 mm
12:22 AM 65.7°F18.7°C 65.7°F18.7°C 100% Calm Calm -- 30.52 in1033.5 mb 0.00 in0.0 mm 0.00 in/hr0.0 mm/hr 0.00 in0.0 mm
12:23 AM 65.7°F18.7°C 65.7°F18.7°C 100% Calm Calm -- 30.52 in1033.5 mb 0.00 in0.0 mm 0.00 in/hr0.0 mm/hr 0.00 in0.0 mm
12:24 AM 65.7°F18.7°C 65.7°F18.7°C 100% Calm Calm -- 30.52 in1033.5 mb 0.00 in0.0 mm 0.00 in/hr0.0 mm/hr 0.00 in0.0 mm
12:25 AM 65.7°F18.7°C 65.7°F18.7°C 100% Calm Calm -- 30.52 in1033.5 mb 0.00 in0.0 mm 0.00 in/hr0.0 mm/hr 0.00 in0.0 mm
12:26 AM 65.7°F18.7°C 65.7°F18.7°C 100% Calm Calm -- 30.52 in1033.5 mb 0.00 in0.0 mm 0.00 in/hr0.0 mm/hr 0.00 in0.0 mm
12:27 AM 65.5°F18.6°C 65.5°F18.6°C 100% Calm Calm -- 30.52 in1033.5 mb 0.00 in0.0 mm 0.00 in/hr0.0 mm/hr 0.00 in0.0 mm
12:28 AM 65.5°F18.6°C 65.5°F18.6°C 100% Calm Calm -- 30.52 in1033.5 mb 0.00 in0.0 mm 0.00 in/hr0.0 mm/hr 0.00 in0.0 mm
12:29 AM 65.5°F18.6°C 65.5°F18.6°C 100% Calm Calm -- 30.52 in1033.5 mb 0.00 in0.0 mm 0.00 in/hr0.0 mm/hr 0.00 in0.0 mm
12:30 AM 65.5°F18.6°C 65.5°F18.6°C 100% Calm Calm -- 30.52 in1033.5 mb 0.00 in0.0 mm 0.00 in/hr0.0 mm/hr 0.00 in0.0 mm
12:31 AM 65.5°F18.6°C 65.5°F18.6°C 100% Calm Calm -- 30.52 in1033.5 mb 0.00 in0.0 mm 0.00 in/hr0.0 mm/hr 0.00 in0.0 mm
12:32 AM 65.5°F18.6°C 65.5°F18.6°C 100% Calm Calm -- 30.52 in1033.5 mb 0.00 in0.0 mm 0.00 in/hr0.0 mm/hr 0.00 in0.0 mm
12:33 AM 65.5°F18.6°C 65.5°F18.6°C 100% Calm Calm -- 30.52 in1033.5 mb 0.00 in0.0 mm 0.00 in/hr0.0 mm/hr 0.00 in0.0 mm
12:34 AM 65.5°F18.6°C 65.5°F18.6°C 100% Calm Calm -- 30.52 in1033.5 mb 0.00 in0.0 mm 0.00 in/hr0.0 mm/hr 0.00 in0.0 mm
12:35 AM 65.5°F18.6°C 65.5°F18.6°C 100% Calm Calm -- 30.52 in1033.5 mb 0.00 in0.0 mm 0.00 in/hr0.0 mm/hr 0.00 in0.0 mm
12:36 AM 65.5°F18.6°C 65.5°F18.6°C 100% Calm Calm -- 30.52 in1033.5 mb 0.00 in0.0 mm 0.00 in/hr0.0 mm/hr 0.00 in0.0 mm
12:37 AM 64.9°F18.3°C 65.0°F18.3°C 100% Calm Calm -- 30.52 in1033.5 mb 0.00 in0.0 mm 0.00 in/hr0.0 mm/hr 0.00 in0.0 mm
12:38 AM 64.9°F18.3°C 65.0°F18.3°C 100% Calm Calm -- 30.52 in1033.5 mb 0.00 in0.0 mm 0.00 in/hr0.0 mm/hr 0.00 in0.0 mm
12:39 AM 64.9°F18.3°C 65.0°F18.3°C 100% Calm Calm -- 30.52 in1033.5 mb 0.00 in0.0 mm 0.00 in/hr0.0 mm/hr 0.00 in0.0 mm
12:40 AM 64.9°F18.3°C 65.0°F18.3°C 100% Calm Calm -- 30.52 in1033.5 mb 0.00 in0.0 mm 0.00 in/hr0.0 mm/hr 0.00 in0.0 mm
12:41 AM 64.9°F18.3°C 65.0°F18.3°C 100% Calm Calm -- 30.52 in1033.5 mb 0.00 in0.0 mm 0.00 in/hr0.0 mm/hr 0.00 in0.0 mm
12:42 AM 64.9°F18.3°C 65.0°F18.3°C 100% Calm Calm -- 30.53 in1033.9 mb 0.00 in0.0 mm 0.00 in/hr0.0 mm/hr 0.00 in0.0 mm
12:43 AM 64.9°F18.3°C 65.0°F18.3°C 100% Calm Calm -- 30.52 in1033.5 mb 0.00 in0.0 mm 0.00 in/hr0.0 mm/hr 0.00 in0.0 mm
12:44 AM 64.9°F18.3°C 65.0°F18.3°C 100% Calm Calm -- 30.52 in1033.5 mb 0.00 in0.0 mm 0.00 in/hr0.0 mm/hr 0.00 in0.0 mm
12:45 AM 64.9°F18.3°C 65.0°F18.3°C 100% Calm Calm -- 30.52 in1033.5 mb 0.00 in0.0 mm 0.00 in/hr0.0 mm/hr 0.00 in0.0 mm
12:46 AM 64.9°F18.3°C 65.0°F18.3°C 100% Calm Calm -- 30.52 in1033.5 mb 0.00 in0.0 mm 0.00 in/hr0.0 mm/hr 0.00 in0.0 mm
12:47 AM 64.8°F18.2°C 64.8°F18.2°C 100% Calm Calm -- 30.52 in1033.5 mb 0.00 in0.0 mm 0.00 in/hr0.0 mm/hr 0.00 in0.0 mm
12:48 AM 64.8°F18.2°C 64.8°F18.2°C 100% Calm Calm -- 30.52 in1033.5 mb 0.00 in0.0 mm 0.00 in/hr0.0 mm/hr 0.00 in0.0 mm
12:49 AM 64.8°F18.2°C 64.8°F18.2°C 100% Calm Calm -- 30.52 in1033.5 mb 0.00 in0.0 mm 0.00 in/hr0.0 mm/hr 0.00 in0.0 mm
12:50 AM 64.8°F18.2°C 64.8°F18.2°C 100% Calm Calm -- 30.52 in1033.5 mb 0.00 in0.0 mm 0.00 in/hr0.0 mm/hr 0.00 in0.0 mm
12:51 AM 64.8°F18.2°C 64.8°F18.2°C 100% Calm Calm -- 30.53 in1033.9 mb 0.00 in0.0 mm 0.00 in/hr0.0 mm/hr 0.00 in0.0 mm
12:52 AM 64.8°F18.2°C 64.8°F18.2°C 100% Calm Calm -- 30.52 in1033.5 mb 0.00 in0.0 mm 0.00 in/hr0.0 mm/hr 0.00 in0.0 mm
12:53 AM 64.6°F18.1°C 64.6°F18.1°C 100% Calm Calm -- 30.52 in1033.5 mb 0.00 in0.0 mm 0.00 in/hr0.0 mm/hr 0.00 in0.0 mm
12:54 AM 64.6°F18.1°C 64.6°F18.1°C 100% Calm Calm -- 30.52 in1033.5 mb 0.00 in0.0 mm 0.00 in/hr0.0 mm/hr 0.00 in0.0 mm
12:55 AM 64.8°F18.2°C 64.8°F18.2°C 100% Calm Calm -- 30.52 in1033.5 mb 0.00 in0.0 mm 0.00 in/hr0.0 mm/hr 0.00 in0.0 mm
12:56 AM 64.6°F18.1°C 64.6°F18.1°C 100% Calm Calm -- 30.52 in1033.5 mb 0.00 in0.0 mm 0.00 in/hr0.0 mm/hr 0.00 in0.0 mm
12:57 AM 64.6°F18.1°C 64.6°F18.1°C 100% Calm Calm -- 30.52 in1033.5 mb 0.00 in0.0 mm 0.00 in/hr0.0 mm/hr 0.00 in0.0 mm
12:58 AM 64.4°F18.0°C 64.4°F18.0°C 100% Calm Calm -- 30.52 in1033.5 mb 0.00 in0.0 mm 0.00 in/hr0.0 mm/hr 0.00 in0.0 mm
12:59 AM 64.4°F18.0°C 64.4°F18.0°C 100% Calm Calm -- 30.52 in1033.5 mb 0.00 in0.0 mm 0.00 in/hr0.0 mm/hr 0.00 in0.0 mm
01:00 AM 64.4°F18.0°C 64.4°F18.0°C 100% Calm Calm -- 30.52 in1033.5 mb 0.00 in0.0 mm 0.00 in/hr0.0 mm/hr 0.00 in0.0 mm
01:01 AM 64.2°F17.9°C 64.2°F17.9°C 100% Calm Calm -- 30.52 in1033.5 mb 0.00 in0.0 mm 0.00 in/hr0.0 mm/hr 0.00 in0.0 mm
01:02 AM 64.2°F17.9°C 64.2°F17.9°C 100% Calm Calm -- 30.53 in1033.9 mb 0.00 in0.0 mm 0.00 in/hr0.0 mm/hr 0.00 in0.0 mm
01:03 AM 64.2°F17.9°C 64.2°F17.9°C 100% Calm Calm -- 30.52 in1033.5 mb 0.00 in0.0 mm 0.00 in/hr0.0 mm/hr 0.00 in0.0 mm
01:04 AM 64.2°F17.9°C 64.2°F17.9°C 100% Calm Calm -- 30.53 in1033.9 mb 0.00 in0.0 mm 0.00 in/hr0.0 mm/hr 0.00 in0.0 mm
01:05 AM 64.2°F17.9°C 64.2°F17.9°C 100% Calm Calm -- 30.52 in1033.5 mb 0.00 in0.0 mm 0.00 in/hr0.0 mm/hr 0.00 in0.0 mm
01:06 AM 64.2°F17.9°C 64.2°F17.9°C 100% Calm Calm -- 30.52 in1033.5 mb 0.00 in0.0 mm 0.00 in/hr0.0 mm/hr 0.00 in0.0 mm
01:07 AM 64.2°F17.9°C 64.2°F17.9°C 100% Calm Calm -- 30.52 in1033.5 mb 0.00 in0.0 mm 0.00 in/hr0.0 mm/hr 0.00 in0.0 mm
01:08 AM 64.2°F17.9°C 64.2°F17.9°C 100% Calm Calm -- 30.52 in1033.5 mb 0.00 in0.0 mm 0.00 in/hr0.0 mm/hr 0.00 in0.0 mm
01:09 AM 64.2°F17.9°C 64.2°F17.9°C 100% Calm Calm -- 30.52 in1033.5 mb 0.00 in0.0 mm 0.00 in/hr0.0 mm/hr 0.00 in0.0 mm
01:10 AM 64.2°F17.9°C 64.2°F17.9°C 100% Calm Calm -- 30.52 in1033.5 mb 0.00 in0.0 mm 0.00 in/hr0.0 mm/hr 0.00 in0.0 mm
01:11 AM 64.4°F18.0°C 64.4°F18.0°C 100% Calm Calm -- 30.52 in1033.5 mb 0.00 in0.0 mm 0.00 in/hr0.0 mm/hr 0.00 in0.0 mm
01:12 AM 64.4°F18.0°C 64.4°F18.0°C 100% Calm Calm -- 30.52 in1033.5 mb 0.00 in0.0 mm 0.00 in/hr0.0 mm/hr 0.00 in0.0 mm
01:13 AM 64.4°F18.0°C 64.4°F18.0°C 100% Calm Calm -- 30.52 in1033.5 mb 0.00 in0.0 mm 0.00 in/hr0.0 mm/hr 0.00 in0.0 mm
01:14 AM 64.4°F18.0°C 64.4°F18.0°C 100% Calm Calm -- 30.52 in1033.5 mb 0.00 in0.0 mm 0.00 in/hr0.0 mm/hr 0.00 in0.0 mm
01:15 AM 64.4°F18.0°C 64.4°F18.0°C 100% Calm Calm -- 30.52 in1033.5 mb 0.00 in0.0 mm 0.00 in/hr0.0 mm/hr 0.00 in0.0 mm
01:16 AM 64.2°F17.9°C 64.2°F17.9°C 100% Calm Calm -- 30.52 in1033.5 mb 0.00 in0.0 mm 0.00 in/hr0.0 mm/hr 0.00 in0.0 mm
01:17 AM 64.2°F17.9°C 64.2°F17.9°C 100% Calm Calm -- 30.52 in1033.5 mb 0.00 in0.0 mm 0.00 in/hr0.0 mm/hr 0.00 in0.0 mm
01:18 AM 64.2°F17.9°C 64.2°F17.9°C 100% Calm Calm -- 30.52 in1033.5 mb 0.00 in0.0 mm 0.00 in/hr0.0 mm/hr 0.00 in0.0 mm
01:19 AM 64.2°F17.9°C 64.2°F17.9°C 100% Calm Calm -- 30.52 in1033.5 mb 0.00 in0.0 mm 0.00 in/hr0.0 mm/hr 0.00 in0.0 mm
01:20 AM 64.0°F17.8°C 64.1°F17.8°C 100% Calm Calm -- 30.52 in1033.5 mb 0.00 in0.0 mm 0.00 in/hr0.0 mm/hr 0.00 in0.0 mm
01:21 AM 64.2°F17.9°C 64.2°F17.9°C 100% Calm Calm -- 30.52 in1033.5 mb 0.00 in0.0 mm 0.00 in/hr0.0 mm/hr 0.00 in0.0 mm
01:22 AM 64.0°F17.8°C 64.1°F17.8°C 100% Calm Calm -- 30.52 in1033.5 mb 0.00 in0.0 mm 0.00 in/hr0.0 mm/hr 0.00 in0.0 mm
01:23 AM 64.0°F17.8°C 64.1°F17.8°C 100% Calm Calm -- 30.52 in1033.5 mb 0.00 in0.0 mm 0.00 in/hr0.0 mm/hr 0.00 in0.0 mm
01:24 AM 64.0°F17.8°C 64.1°F17.8°C 100% Calm Calm -- 30.52 in1033.5 mb 0.00 in0.0 mm 0.00 in/hr0.0 mm/hr 0.00 in0.0 mm
01:25 AM 63.9°F17.7°C 63.9°F17.7°C 100% Calm Calm -- 30.52 in1033.5 mb 0.00 in0.0 mm 0.00 in/hr0.0 mm/hr 0.00 in0.0 mm
01:26 AM 63.9°F17.7°C 63.9°F17.7°C 100% Calm Calm -- 30.52 in1033.5 mb 0.00 in0.0 mm 0.00 in/hr0.0 mm/hr 0.00 in0.0 mm
01:27 AM 63.7°F17.6°C 63.7°F17.6°C 100% Calm Calm -- 30.52 in1033.5 mb 0.00 in0.0 mm 0.00 in/hr0.0 mm/hr 0.00 in0.0 mm
01:28 AM 63.7°F17.6°C 63.7°F17.6°C 100% Calm Calm -- 30.52 in1033.5 mb 0.00 in0.0 mm 0.00 in/hr0.0 mm/hr 0.00 in0.0 mm
01:29 AM 63.9°F17.7°C 63.9°F17.7°C 100% Calm Calm -- 30.52 in1033.5 mb 0.00 in0.0 mm 0.00 in/hr0.0 mm/hr 0.00 in0.0 mm
01:30 AM 63.9°F17.7°C 63.9°F17.7°C 100% Calm Calm -- 30.52 in1033.5 mb 0.00 in0.0 mm 0.00 in/hr0.0 mm/hr 0.00 in0.0 mm
01:31 AM 64.0°F17.8°C 64.1°F17.8°C 100% Calm Calm -- 30.52 in1033.5 mb 0.00 in0.0 mm 0.00 in/hr0.0 mm/hr 0.00 in0.0 mm
01:32 AM 64.0°F17.8°C 64.1°F17.8°C 100% Calm Calm -- 30.52 in1033.5 mb 0.00 in0.0 mm 0.00 in/hr0.0 mm/hr 0.00 in0.0 mm
01:33 AM 64.0°F17.8°C 64.1°F17.8°C 100% Calm Calm -- 30.52 in1033.5 mb 0.00 in0.0 mm 0.00 in/hr0.0 mm/hr 0.00 in0.0 mm
01:34 AM 64.0°F17.8°C 64.1°F17.8°C 100% Calm Calm -- 30.52 in1033.5 mb 0.00 in0.0 mm 0.00 in/hr0.0 mm/hr 0.00 in0.0 mm
01:35 AM 64.0°F17.8°C 64.1°F17.8°C 100% Calm Calm -- 30.52 in1033.5 mb 0.00 in0.0 mm 0.00 in/hr0.0 mm/hr 0.00 in0.0 mm
01:36 AM 63.9°F17.7°C 63.9°F17.7°C 100% Calm Calm -- 30.52 in1033.5 mb 0.00 in0.0 mm 0.00 in/hr0.0 mm/hr 0.00 in0.0 mm
01:37 AM 63.9°F17.7°C 63.9°F17.7°C 100% Calm Calm -- 30.52 in1033.5 mb 0.00 in0.0 mm 0.00 in/hr0.0 mm/hr 0.00 in0.0 mm
01:38 AM 63.9°F17.7°C 63.9°F17.7°C 100% Calm Calm -- 30.52 in1033.5 mb 0.00 in0.0 mm 0.00 in/hr0.0 mm/hr 0.00 in0.0 mm
01:39 AM 63.9°F17.7°C 63.9°F17.7°C 100% Calm Calm -- 30.52 in1033.5 mb 0.00 in0.0 mm 0.00 in/hr0.0 mm/hr 0.00 in0.0 mm
01:40 AM 63.9°F17.7°C 63.9°F17.7°C 100% Calm Calm -- 30.51 in1033.2 mb 0.00 in0.0 mm 0.00 in/hr0.0 mm/hr 0.00 in0.0 mm
01:41 AM 63.9°F17.7°C 63.9°F17.7°C 100% Calm Calm -- 30.51 in1033.2 mb 0.00 in0.0 mm 0.00 in/hr0.0 mm/hr 0.00 in0.0 mm
01:42 AM 63.9°F17.7°C 63.9°F17.7°C 100% Calm Calm -- 30.51 in1033.2 mb 0.00 in0.0 mm 0.00 in/hr0.0 mm/hr 0.00 in0.0 mm
01:43 AM 63.9°F17.7°C 63.9°F17.7°C 100% Calm Calm -- 30.51 in1033.2 mb 0.00 in0.0 mm 0.00 in/hr0.0 mm/hr 0.00 in0.0 mm
01:44 AM 63.9°F17.7°C 63.9°F17.7°C 100% Calm Calm -- 30.51 in1033.2 mb 0.00 in0.0 mm 0.00 in/hr0.0 mm/hr 0.00 in0.0 mm
01:45 AM 63.9°F17.7°C 63.9°F17.7°C 100% Calm Calm -- 30.51 in1033.2 mb 0.00 in0.0 mm 0.00 in/hr0.0 mm/hr 0.00 in0.0 mm
01:46 AM 63.9°F17.7°C 63.9°F17.7°C 100% Calm Calm -- 30.52 in1033.5 mb 0.00 in0.0 mm 0.00 in/hr0.0 mm/hr 0.00 in0.0 mm
01:47 AM 63.7°F17.6°C 63.7°F17.6°C 100% Calm Calm -- 30.52 in1033.5 mb 0.00 in0.0 mm 0.00 in/hr0.0 mm/hr 0.00 in0.0 mm
01:48 AM 63.7°F17.6°C 63.7°F17.6°C 100% Calm Calm -- 30.52 in1033.5 mb 0.00 in0.0 mm 0.00 in/hr0.0 mm/hr 0.00 in0.0 mm
01:49 AM 63.7°F17.6°C 63.7°F17.6°C 100% Calm Calm -- 30.52 in1033.5 mb 0.00 in0.0 mm 0.00 in/hr0.0 mm/hr 0.00 in0.0 mm
01:50 AM 63.7°F17.6°C 63.7°F17.6°C 100% Calm Calm -- 30.52 in1033.5 mb 0.00 in0.0 mm 0.00 in/hr0.0 mm/hr 0.00 in0.0 mm
01:51 AM 63.7°F17.6°C 63.7°F17.6°C 100% Calm Calm -- 30.51 in1033.2 mb 0.00 in0.0 mm 0.00 in/hr0.0 mm/hr 0.00 in0.0 mm
01:52 AM 63.7°F17.6°C 63.7°F17.6°C 100% Calm Calm -- 30.51 in1033.2 mb 0.00 in0.0 mm 0.00 in/hr0.0 mm/hr 0.00 in0.0 mm
01:53 AM 63.7°F17.6°C 63.7°F17.6°C 100% Calm Calm -- 30.52 in1033.5 mb 0.00 in0.0 mm 0.00 in/hr0.0 mm/hr 0.00 in0.0 mm
01:54 AM 63.7°F17.6°C 63.7°F17.6°C 100% Calm Calm 1.6 mph2.6 kmh 30.52 in1033.5 mb 0.00 in0.0 mm 0.00 in/hr0.0 mm/hr 0.00 in0.0 mm
01:55 AM 63.7°F17.6°C 63.7°F17.6°C 100% 0.7 mph E1.1 kmh E 1.6 mph2.6 kmh 30.52 in1033.5 mb 0.00 in0.0 mm 0.00 in/hr0.0 mm/hr 0.00 in0.0 mm
01:56 AM 63.7°F17.6°C 63.7°F17.6°C 100% Calm Calm 1.6 mph2.6 kmh 30.52 in1033.5 mb 0.00 in0.0 mm 0.00 in/hr0.0 mm/hr 0.00 in0.0 mm
01:57 AM 63.7°F17.6°C 63.7°F17.6°C 100% Calm Calm 1.6 mph2.6 kmh 30.52 in1033.5 mb 0.00 in0.0 mm 0.00 in/hr0.0 mm/hr 0.00 in0.0 mm
01:58 AM 63.5°F17.5°C 63.5°F17.5°C 100% Calm Calm 1.6 mph2.6 kmh 30.52 in1033.5 mb 0.00 in0.0 mm 0.00 in/hr0.0 mm/hr 0.00 in0.0 mm
01:59 AM 63.5°F17.5°C 63.5°F17.5°C 100% Calm Calm 1.6 mph2.6 kmh 30.52 in1033.5 mb 0.00 in0.0 mm 0.00 in/hr0.0 mm/hr 0.00 in0.0 mm
02:00 AM 63.5°F17.5°C 63.5°F17.5°C 100% Calm Calm 1.6 mph2.6 kmh 30.52 in1033.5 mb 0.00 in0.0 mm 0.00 in/hr0.0 mm/hr 0.00 in0.0 mm
02:01 AM 63.5°F17.5°C 63.5°F17.5°C 100% Calm Calm 1.6 mph2.6 kmh 30.52 in1033.5 mb 0.00 in0.0 mm 0.00 in/hr0.0 mm/hr 0.00 in0.0 mm
02:02 AM 63.5°F17.5°C 63.5°F17.5°C 100% Calm Calm 1.6 mph2.6 kmh 30.52 in1033.5 mb 0.00 in0.0 mm 0.00 in/hr0.0 mm/hr 0.00 in0.0 mm
02:03 AM 63.5°F17.5°C 63.5°F17.5°C 100% Calm Calm 1.6 mph2.6 kmh 30.52 in1033.5 mb 0.00 in0.0 mm 0.00 in/hr0.0 mm/hr 0.00 in0.0 mm
02:04 AM 63.5°F17.5°C 63.5°F17.5°C 100% Calm Calm 1.6 mph2.6 kmh 30.52 in1033.5 mb 0.00 in0.0 mm 0.00 in/hr0.0 mm/hr 0.00 in0.0 mm
02:05 AM 63.5°F17.5°C 63.5°F17.5°C 100% Calm Calm 1.6 mph2.6 kmh 30.52 in1033.5 mb 0.00 in0.0 mm 0.00 in/hr0.0 mm/hr 0.00 in0.0 mm
02:06 AM 63.5°F17.5°C 63.5°F17.5°C 100% Calm Calm 0.7 mph1.1 kmh 30.51 in1033.2 mb 0.00 in0.0 mm 0.00 in/hr0.0 mm/hr 0.00 in0.0 mm
02:07 AM 62.8°F17.1°C 62.8°F17.1°C 100% Calm Calm 0.7 mph1.1 kmh 30.51 in1033.2 mb 0.00 in0.0 mm 0.00 in/hr0.0 mm/hr 0.00 in0.0 mm
02:08 AM 62.8°F17.1°C 62.8°F17.1°C 100% Calm Calm 0.7 mph1.1 kmh 30.52 in1033.5 mb 0.00 in0.0 mm 0.00 in/hr0.0 mm/hr 0.00 in0.0 mm
02:09 AM 62.8°F17.1°C 62.8°F17.1°C 100% Calm Calm -- 30.52 in1033.5 mb 0.00 in0.0 mm 0.00 in/hr0.0 mm/hr 0.00 in0.0 mm
02:10 AM 62.8°F17.1°C 62.8°F17.1°C 100% Calm Calm -- 30.51 in1033.2 mb 0.00 in0.0 mm 0.00 in/hr0.0 mm/hr 0.00 in0.0 mm
02:11 AM 62.8°F17.1°C 62.8°F17.1°C 100% Calm Calm -- 30.51 in1033.2 mb 0.00 in0.0 mm 0.00 in/hr0.0 mm/hr 0.00 in0.0 mm
02:12 AM 62.8°F17.1°C 62.8°F17.1°C 100% Calm Calm -- 30.51 in1033.2 mb 0.00 in0.0 mm 0.00 in/hr0.0 mm/hr 0.00 in0.0 mm
02:13 AM 63.0°F17.2°C 63.0°F17.2°C 100% Calm Calm -- 30.51 in1033.2 mb 0.00 in0.0 mm 0.00 in/hr0.0 mm/hr 0.00 in0.0 mm
02:14 AM 62.8°F17.1°C 62.8°F17.1°C 100% Calm Calm -- 30.51 in1033.2 mb 0.00 in0.0 mm 0.00 in/hr0.0 mm/hr 0.00 in0.0 mm
02:15 AM 62.8°F17.1°C 62.8°F17.1°C 100% Calm Calm -- 30.51 in1033.2 mb 0.00 in0.0 mm 0.00 in/hr0.0 mm/hr 0.00 in0.0 mm
02:16 AM 62.8°F17.1°C 62.8°F17.1°C 100% Calm Calm -- 30.51 in1033.2 mb 0.00 in0.0 mm 0.00 in/hr0.0 mm/hr 0.00 in0.0 mm
02:17 AM 63.0°F17.2°C 63.0°F17.2°C 100% Calm Calm -- 30.51 in1033.2 mb 0.00 in0.0 mm 0.00 in/hr0.0 mm/hr 0.00 in0.0 mm
02:18 AM 63.0°F17.2°C 63.0°F17.2°C 100% Calm Calm -- 30.51 in1033.2 mb 0.00 in0.0 mm 0.00 in/hr0.0 mm/hr 0.00 in0.0 mm
02:19 AM 63.0°F17.2°C 63.0°F17.2°C 100% Calm Calm -- 30.51 in1033.2 mb 0.00 in0.0 mm 0.00 in/hr0.0 mm/hr 0.00 in0.0 mm
02:20 AM 62.8°F17.1°C 62.8°F17.1°C 100% Calm Calm -- 30.51 in1033.2 mb 0.00 in0.0 mm 0.00 in/hr0.0 mm/hr 0.00 in0.0 mm
02:21 AM 62.8°F17.1°C 62.8°F17.1°C 100% Calm Calm -- 30.51 in1033.2 mb 0.00 in0.0 mm 0.00 in/hr0.0 mm/hr 0.00 in0.0 mm
02:22 AM 62.6°F17.0°C 62.6°F17.0°C 100% Calm Calm -- 30.51 in1033.2 mb 0.00 in0.0 mm 0.00 in/hr0.0 mm/hr 0.00 in0.0 mm
02:23 AM 62.6°F17.0°C 62.6°F17.0°C 100% Calm Calm -- 30.51 in1033.2 mb 0.00 in0.0 mm 0.00 in/hr0.0 mm/hr 0.00 in0.0 mm
02:24 AM 62.4°F16.9°C 62.4°F16.9°C 100% Calm Calm -- 30.51 in1033.2 mb 0.00 in0.0 mm 0.00 in/hr0.0 mm/hr 0.00 in0.0 mm
02:25 AM 62.2°F16.8°C 62.3°F16.8°C 100% Calm Calm -- 30.51 in1033.2 mb 0.00 in0.0 mm 0.00 in/hr0.0 mm/hr 0.00 in0.0 mm
02:26 AM 62.2°F16.8°C 62.3°F16.8°C 100% Calm Calm -- 30.51 in1033.2 mb 0.00 in0.0 mm 0.00 in/hr0.0 mm/hr 0.00 in0.0 mm
02:27 AM 62.1°F16.7°C 62.1°F16.7°C 100% Calm Calm -- 30.51 in1033.2 mb 0.00 in0.0 mm 0.00 in/hr0.0 mm/hr 0.00 in0.0 mm
02:28 AM 61.9°F16.6°C 61.9°F16.6°C 100% Calm Calm -- 30.51 in1033.2 mb 0.00 in0.0 mm 0.00 in/hr0.0 mm/hr 0.00 in0.0 mm
02:29 AM 61.9°F16.6°C 61.9°F16.6°C 100% Calm Calm -- 30.51 in1033.2 mb 0.00 in0.0 mm 0.00 in/hr0.0 mm/hr 0.00 in0.0 mm
02:30 AM 61.7°F16.5°C 61.7°F16.5°C 100% Calm Calm -- 30.51 in1033.2 mb 0.00 in0.0 mm 0.00 in/hr0.0 mm/hr 0.00 in0.0 mm
02:31 AM 61.9°F16.6°C 61.9°F16.6°C 100% Calm Calm -- 30.51 in1033.2 mb 0.00 in0.0 mm 0.00 in/hr0.0 mm/hr 0.00 in0.0 mm
02:32 AM 62.2°F16.8°C 62.3°F16.8°C 100% Calm Calm -- 30.51 in1033.2 mb 0.00 in0.0 mm 0.00 in/hr0.0 mm/hr 0.00 in0.0 mm
02:33 AM 62.2°F16.8°C 62.3°F16.8°C 100% Calm Calm -- 30.51 in1033.2 mb 0.00 in0.0 mm 0.00 in/hr0.0 mm/hr 0.00 in0.0 mm
02:34 AM 62.2°F16.8°C 62.3°F16.8°C 100% Calm Calm -- 30.51 in1033.2 mb 0.00 in0.0 mm 0.00 in/hr0.0 mm/hr 0.00 in0.0 mm
02:35 AM 62.1°F16.7°C 62.1°F16.7°C 100% Calm Calm -- 30.51 in1033.2 mb 0.00 in0.0 mm 0.00 in/hr0.0 mm/hr 0.00 in0.0 mm
02:36 AM 61.9°F16.6°C 61.9°F16.6°C 100% Calm Calm -- 30.51 in1033.2 mb 0.00 in0.0 mm 0.00 in/hr0.0 mm/hr 0.00 in0.0 mm
02:37 AM 61.9°F16.6°C 61.9°F16.6°C 100% Calm Calm -- 30.51 in1033.2 mb 0.00 in0.0 mm 0.00 in/hr0.0 mm/hr 0.00 in0.0 mm
02:38 AM 62.2°F16.8°C 62.3°F16.8°C 100% Calm Calm -- 30.51 in1033.2 mb 0.00 in0.0 mm 0.00 in/hr0.0 mm/hr 0.00 in0.0 mm
02:39 AM 62.4°F16.9°C 62.4°F16.9°C 100% Calm Calm -- 30.51 in1033.2 mb 0.00 in0.0 mm 0.00 in/hr0.0 mm/hr 0.00 in0.0 mm
02:40 AM 62.4°F16.9°C 62.4°F16.9°C 100% Calm Calm -- 30.51 in1033.2 mb 0.00 in0.0 mm 0.00 in/hr0.0 mm/hr 0.00 in0.0 mm
02:41 AM 62.4°F16.9°C 62.4°F16.9°C 100% Calm Calm -- 30.51 in1033.2 mb 0.00 in0.0 mm 0.00 in/hr0.0 mm/hr 0.00 in0.0 mm
02:42 AM 62.1°F16.7°C 62.1°F16.7°C 100% Calm Calm -- 30.51 in1033.2 mb 0.00 in0.0 mm 0.00 in/hr0.0 mm/hr 0.00 in0.0 mm
02:43 AM 62.1°F16.7°C 62.1°F16.7°C 100% Calm Calm -- 30.51 in1033.2 mb 0.00 in0.0 mm 0.00 in/hr0.0 mm/hr 0.00 in0.0 mm
02:44 AM 62.1°F16.7°C 62.1°F16.7°C 100% Calm Calm -- 30.51 in1033.2 mb 0.00 in0.0 mm 0.00 in/hr0.0 mm/hr 0.00 in0.0 mm
02:45 AM 61.9°F16.6°C 61.9°F16.6°C 100% Calm Calm -- 30.51 in1033.2 mb 0.00 in0.0 mm 0.00 in/hr0.0 mm/hr 0.00 in0.0 mm
02:46 AM 61.9°F16.6°C 61.9°F16.6°C 100% Calm Calm -- 30.51 in1033.2 mb 0.00 in0.0 mm 0.00 in/hr0.0 mm/hr 0.00 in0.0 mm
02:47 AM 61.9°F16.6°C 61.9°F16.6°C 100% Calm Calm -- 30.51 in1033.2 mb 0.00 in0.0 mm 0.00 in/hr0.0 mm/hr 0.00 in0.0 mm
02:48 AM 61.9°F16.6°C 61.9°F16.6°C 100% Calm Calm -- 30.51 in1033.2 mb 0.00 in0.0 mm 0.00 in/hr0.0 mm/hr 0.00 in0.0 mm
02:49 AM 62.1°F16.7°C 62.1°F16.7°C 100% Calm Calm -- 30.51 in1033.2 mb 0.00 in0.0 mm 0.00 in/hr0.0 mm/hr 0.00 in0.0 mm
02:50 AM 62.2°F16.8°C 62.3°F16.8°C 100% Calm Calm -- 30.51 in1033.2 mb 0.00 in0.0 mm 0.00 in/hr0.0 mm/hr 0.00 in0.0 mm
02:51 AM 62.2°F16.8°C 62.3°F16.8°C 100% Calm Calm -- 30.51 in1033.2 mb 0.00 in0.0 mm 0.00 in/hr0.0 mm/hr 0.00 in0.0 mm
02:52 AM 62.2°F16.8°C 62.3°F16.8°C 100% Calm Calm -- 30.51 in1033.2 mb 0.00 in0.0 mm 0.00 in/hr0.0 mm/hr 0.00 in0.0 mm
02:53 AM 62.1°F16.7°C 62.1°F16.7°C 100% Calm Calm -- 30.51 in1033.2 mb 0.00 in0.0 mm 0.00 in/hr0.0 mm/hr 0.00 in0.0 mm
02:54 AM 61.9°F16.6°C 61.9°F16.6°C 100% Calm Calm -- 30.51 in1033.2 mb 0.00 in0.0 mm 0.00 in/hr0.0 mm/hr 0.00 in0.0 mm
02:55 AM 61.7°F16.5°C 61.7°F16.5°C 100% Calm Calm -- 30.51 in1033.2 mb 0.00 in0.0 mm 0.00 in/hr0.0 mm/hr 0.00 in0.0 mm
02:56 AM 61.7°F16.5°C 61.7°F16.5°C 100% Calm Calm -- 30.51 in1033.2 mb 0.00 in0.0 mm 0.00 in/hr0.0 mm/hr 0.00 in0.0 mm
02:57 AM 61.9°F16.6°C 61.9°F16.6°C 100% Calm Calm -- 30.51 in1033.2 mb 0.00 in0.0 mm 0.00 in/hr0.0 mm/hr 0.00 in0.0 mm
02:58 AM 62.1°F16.7°C 62.1°F16.7°C 100% Calm Calm -- 30.51 in1033.2 mb 0.00 in0.0 mm 0.00 in/hr0.0 mm/hr 0.00 in0.0 mm
02:59 AM 62.1°F16.7°C 62.1°F16.7°C 100% Calm Calm -- 30.51 in1033.2 mb 0.00 in0.0 mm 0.00 in/hr0.0 mm/hr 0.00 in0.0 mm
03:00 AM 62.1°F16.7°C 62.1°F16.7°C 100% Calm Calm -- 30.50 in1032.8 mb 0.00 in0.0 mm 0.00 in/hr0.0 mm/hr 0.00 in0.0 mm
03:01 AM 62.1°F16.7°C 62.1°F16.7°C 100% Calm Calm -- 30.51 in1033.2 mb 0.00 in0.0 mm 0.00 in/hr0.0 mm/hr 0.00 in0.0 mm
03:02 AM 62.1°F16.7°C 62.1°F16.7°C 100% Calm Calm -- 30.51 in1033.2 mb 0.00 in0.0 mm 0.00 in/hr0.0 mm/hr 0.00 in0.0 mm
03:03 AM 62.1°F16.7°C 62.1°F16.7°C 100% Calm Calm -- 30.51 in1033.2 mb 0.00 in0.0 mm 0.00 in/hr0.0 mm/hr 0.00 in0.0 mm
03:04 AM 61.9°F16.6°C 61.9°F16.6°C 100% Calm Calm -- 30.51 in1033.2 mb 0.00 in0.0 mm 0.00 in/hr0.0 mm/hr 0.00 in0.0 mm
03:05 AM 61.9°F16.6°C 61.9°F16.6°C 100% Calm Calm -- 30.51 in1033.2 mb 0.00 in0.0 mm 0.00 in/hr0.0 mm/hr 0.00 in0.0 mm
03:06 AM 61.7°F16.5°C 61.7°F16.5°C 100% Calm Calm -- 30.51 in1033.2 mb 0.00 in0.0 mm 0.00 in/hr0.0 mm/hr 0.00 in0.0 mm
03:07 AM 61.7°F16.5°C 61.7°F16.5°C 100% Calm Calm -- 30.51 in1033.2 mb 0.00 in0.0 mm 0.00 in/hr0.0 mm/hr 0.00 in0.0 mm
03:08 AM 61.7°F16.5°C 61.7°F16.5°C 100% Calm Calm -- 30.51 in1033.2 mb 0.00 in0.0 mm 0.00 in/hr0.0 mm/hr 0.00 in0.0 mm
03:09 AM 61.5°F16.4°C 61.5°F16.4°C 100% Calm Calm -- 30.51 in1033.2 mb 0.00 in0.0 mm 0.00 in/hr0.0 mm/hr 0.00 in0.0 mm
03:10 AM 61.5°F16.4°C 61.5°F16.4°C 100% Calm Calm -- 30.51 in1033.2 mb 0.00 in0.0 mm 0.00 in/hr0.0 mm/hr 0.00 in0.0 mm
03:11 AM 61.3°F16.3°C 61.4°F16.3°C 100% Calm Calm -- 30.52 in1033.5 mb 0.00 in0.0 mm 0.00 in/hr0.0 mm/hr 0.00 in0.0 mm
03:12 AM 61.5°F16.4°C 61.5°F16.4°C 100% Calm Calm -- 30.51 in1033.2 mb 0.00 in0.0 mm 0.00 in/hr0.0 mm/hr 0.00 in0.0 mm
03:13 AM 61.7°F16.5°C 61.7°F16.5°C 100% Calm Calm -- 30.51 in1033.2 mb 0.00 in0.0 mm 0.00 in/hr0.0 mm/hr 0.00 in0.0 mm
03:14 AM 61.9°F16.6°C 61.9°F16.6°C 100% Calm Calm -- 30.52 in1033.5 mb 0.00 in0.0 mm 0.00 in/hr0.0 mm/hr 0.00 in0.0 mm
03:15 AM 61.9°F16.6°C 61.9°F16.6°C 100% Calm Calm -- 30.52 in1033.5 mb 0.00 in0.0 mm 0.00 in/hr0.0 mm/hr 0.00 in0.0 mm
03:16 AM 61.9°F16.6°C 61.9°F16.6°C 100% Calm Calm -- 30.52 in1033.5 mb 0.00 in0.0 mm 0.00 in/hr0.0 mm/hr 0.00 in0.0 mm
03:17 AM 61.9°F16.6°C 61.9°F16.6°C 100% Calm Calm -- 30.52 in1033.5 mb 0.00 in0.0 mm 0.00 in/hr0.0 mm/hr 0.00 in0.0 mm
03:18 AM 61.9°F16.6°C 61.9°F16.6°C 100% Calm Calm -- 30.52 in1033.5 mb 0.00 in0.0 mm 0.00 in/hr0.0 mm/hr 0.00 in0.0 mm
03:19 AM 61.9°F16.6°C 61.9°F16.6°C 100% Calm Calm -- 30.51 in1033.2 mb 0.00 in0.0 mm 0.00 in/hr0.0 mm/hr 0.00 in0.0 mm
03:20 AM 61.9°F16.6°C 61.9°F16.6°C 100% Calm Calm -- 30.51 in1033.2 mb 0.00 in0.0 mm 0.00 in/hr0.0 mm/hr 0.00 in0.0 mm
03:21 AM 61.7°F16.5°C 61.7°F16.5°C 100% Calm Calm -- 30.51 in1033.2 mb 0.00 in0.0 mm 0.00 in/hr0.0 mm/hr 0.00 in0.0 mm
03:22 AM 61.7°F16.5°C 61.7°F16.5°C 100% Calm Calm -- 30.52 in1033.5 mb 0.00 in0.0 mm 0.00 in/hr0.0 mm/hr 0.00 in0.0 mm
03:23 AM 61.7°F16.5°C 61.7°F16.5°C 100% Calm Calm -- 30.51 in1033.2 mb 0.00 in0.0 mm 0.00 in/hr0.0 mm/hr 0.00 in0.0 mm
03:24 AM 61.7°F16.5°C 61.7°F16.5°C 100% Calm Calm -- 30.51 in1033.2 mb 0.00 in0.0 mm 0.00 in/hr0.0 mm/hr 0.00 in0.0 mm
03:25 AM 61.7°F16.5°C 61.7°F16.5°C 100% Calm Calm -- 30.51 in1033.2 mb 0.00 in0.0 mm 0.00 in/hr0.0 mm/hr 0.00 in0.0 mm
03:26 AM 61.5°F16.4°C 61.5°F16.4°C 100% Calm Calm -- 30.51 in1033.2 mb 0.00 in0.0 mm 0.00 in/hr0.0 mm/hr 0.00 in0.0 mm
03:27 AM 61.5°F16.4°C 61.5°F16.4°C 100% Calm Calm -- 30.51 in1033.2 mb 0.00 in0.0 mm 0.00 in/hr0.0 mm/hr 0.00 in0.0 mm
03:28 AM 61.5°F16.4°C 61.5°F16.4°C 100% Calm Calm -- 30.52 in1033.5 mb 0.00 in0.0 mm 0.00 in/hr0.0 mm/hr 0.00 in0.0 mm
03:29 AM 61.5°F16.4°C 61.5°F16.4°C 100% Calm Calm -- 30.52 in1033.5 mb 0.00 in0.0 mm 0.00 in/hr0.0 mm/hr 0.00 in0.0 mm
03:30 AM 61.5°F16.4°C 61.5°F16.4°C 100% Calm Calm -- 30.52 in1033.5 mb 0.00 in0.0 mm 0.00 in/hr0.0 mm/hr 0.00 in0.0 mm
03:31 AM 61.5°F16.4°C 61.5°F16.4°C 100% Calm Calm -- 30.52 in1033.5 mb 0.00 in0.0 mm 0.00 in/hr0.0 mm/hr 0.00 in0.0 mm
03:32 AM 61.5°F16.4°C 61.5°F16.4°C 100% Calm Calm -- 30.52 in1033.5 mb 0.00 in0.0 mm 0.00 in/hr0.0 mm/hr 0.00 in0.0 mm
03:33 AM 61.5°F16.4°C 61.5°F16.4°C 100% Calm Calm -- 30.52 in1033.5 mb 0.00 in0.0 mm 0.00 in/hr0.0 mm/hr 0.00 in0.0 mm
03:34 AM 61.5°F16.4°C 61.5°F16.4°C 100% Calm Calm -- 30.51 in1033.2 mb 0.00 in0.0 mm 0.00 in/hr0.0 mm/hr 0.00 in0.0 mm
03:35 AM 61.5°F16.4°C 61.5°F16.4°C 100% Calm Calm -- 30.52 in1033.5 mb 0.00 in0.0 mm 0.00 in/hr0.0 mm/hr 0.00 in0.0 mm
03:36 AM 61.5°F16.4°C 61.5°F16.4°C 100% Calm Calm -- 30.52 in1033.5 mb 0.00 in0.0 mm 0.00 in/hr0.0 mm/hr 0.00 in0.0 mm
03:37 AM 61.3°F16.3°C 61.4°F16.3°C 100% Calm Calm -- 30.51 in1033.2 mb 0.00 in0.0 mm 0.00 in/hr0.0 mm/hr 0.00 in0.0 mm
03:38 AM 61.3°F16.3°C 61.4°F16.3°C 100% Calm Calm -- 30.52 in1033.5 mb 0.00 in0.0 mm 0.00 in/hr0.0 mm/hr 0.00 in0.0 mm
03:39 AM 61.3°F16.3°C 61.4°F16.3°C 100% Calm Calm -- 30.51 in1033.2 mb 0.00 in0.0 mm 0.00 in/hr0.0 mm/hr 0.00 in0.0 mm
03:40 AM 61.5°F16.4°C 61.5°F16.4°C 100% Calm Calm -- 30.52 in1033.5 mb 0.00 in0.0 mm 0.00 in/hr0.0 mm/hr 0.00 in0.0 mm
03:41 AM 61.7°F16.5°C 61.7°F16.5°C 100% Calm Calm -- 30.52 in1033.5 mb 0.00 in0.0 mm 0.00 in/hr0.0 mm/hr 0.00 in0.0 mm
03:42 AM 61.5°F16.4°C 61.5°F16.4°C 100% Calm Calm -- 30.51 in1033.2 mb 0.00 in0.0 mm 0.00 in/hr0.0 mm/hr 0.00 in0.0 mm
03:43 AM 61.5°F16.4°C 61.5°F16.4°C 100% Calm Calm -- 30.51 in1033.2 mb 0.00 in0.0 mm 0.00 in/hr0.0 mm/hr 0.00 in0.0 mm
03:44 AM 61.5°F16.4°C 61.5°F16.4°C 100% Calm Calm -- 30.51 in1033.2 mb 0.00 in0.0 mm 0.00 in/hr0.0 mm/hr 0.00 in0.0 mm
03:45 AM 61.5°F16.4°C 61.5°F16.4°C 100% Calm Calm -- 30.52 in1033.5 mb 0.00 in0.0 mm 0.00 in/hr0.0 mm/hr 0.00 in0.0 mm
03:46 AM 61.5°F16.4°C 61.5°F16.4°C 100% Calm Calm -- 30.51 in1033.2 mb 0.00 in0.0 mm 0.00 in/hr0.0 mm/hr 0.00 in0.0 mm
03:47 AM 61.5°F16.4°C 61.5°F16.4°C 100% Calm Calm -- 30.52 in1033.5 mb 0.00 in0.0 mm 0.00 in/hr0.0 mm/hr 0.00 in0.0 mm
03:48 AM 61.5°F16.4°C 61.5°F16.4°C 100% Calm Calm -- 30.51 in1033.2 mb 0.00 in0.0 mm 0.00 in/hr0.0 mm/hr 0.00 in0.0 mm
03:49 AM 61.3°F16.3°C 61.4°F16.3°C 100% Calm Calm -- 30.51 in1033.2 mb 0.00 in0.0 mm 0.00 in/hr0.0 mm/hr 0.00 in0.0 mm
03:50 AM 61.3°F16.3°C 61.4°F16.3°C 100% Calm Calm -- 30.51 in1033.2 mb 0.00 in0.0 mm 0.00 in/hr0.0 mm/hr 0.00 in0.0 mm
03:51 AM 61.2°F16.2°C 61.2°F16.2°C 100% Calm Calm -- 30.51 in1033.2 mb 0.00 in0.0 mm 0.00 in/hr0.0 mm/hr 0.00 in0.0 mm
03:52 AM 61.2°F16.2°C 61.2°F16.2°C 100% Calm Calm -- 30.51 in1033.2 mb 0.00 in0.0 mm 0.00 in/hr0.0 mm/hr 0.00 in0.0 mm
03:53 AM 61.2°F16.2°C 61.2°F16.2°C 100% Calm Calm -- 30.51 in1033.2 mb 0.00 in0.0 mm 0.00 in/hr0.0 mm/hr 0.00 in0.0 mm
03:54 AM 61.0°F16.1°C 61.0°F16.1°C 100% Calm Calm -- 30.51 in1033.2 mb 0.00 in0.0 mm 0.00 in/hr0.0 mm/hr 0.00 in0.0 mm
03:55 AM 61.0°F16.1°C 61.0°F16.1°C 100% Calm Calm -- 30.51 in1033.2 mb 0.00 in0.0 mm 0.00 in/hr0.0 mm/hr 0.00 in0.0 mm
03:56 AM 61.0°F16.1°C 61.0°F16.1°C 100% Calm Calm -- 30.51 in1033.2 mb 0.00 in0.0 mm 0.00 in/hr0.0 mm/hr 0.00 in0.0 mm
03:57 AM 61.2°F16.2°C 61.2°F16.2°C 100% Calm Calm -- 30.51 in1033.2 mb 0.00 in0.0 mm 0.00 in/hr0.0 mm/hr 0.00 in0.0 mm
03:58 AM 61.5°F16.4°C 61.5°F16.4°C 100% Calm Calm -- 30.51 in1033.2 mb 0.00 in0.0 mm 0.00 in/hr0.0 mm/hr 0.00 in0.0 mm
03:59 AM 61.5°F16.4°C 61.5°F16.4°C 100% Calm Calm -- 30.51 in1033.2 mb 0.00 in0.0 mm 0.00 in/hr0.0 mm/hr 0.00 in0.0 mm
04:00 AM 61.5°F16.4°C 61.5°F16.4°C 100% Calm Calm -- 30.51 in1033.2 mb 0.00 in0.0 mm 0.00 in/hr0.0 mm/hr 0.00 in0.0 mm
04:01 AM 61.5°F16.4°C 61.5°F16.4°C 100% Calm Calm -- 30.51 in1033.2 mb 0.00 in0.0 mm 0.00 in/hr0.0 mm/hr 0.00 in0.0 mm
04:02 AM 61.5°F16.4°C 61.5°F16.4°C 100% Calm Calm -- 30.51 in1033.2 mb 0.00 in0.0 mm 0.00 in/hr0.0 mm/hr 0.00 in0.0 mm
04:03 AM 61.5°F16.4°C 61.5°F16.4°C 100% Calm Calm -- 30.51 in1033.2 mb 0.00 in0.0 mm 0.00 in/hr0.0 mm/hr 0.00 in0.0 mm
04:04 AM 61.5°F16.4°C 61.5°F16.4°C 100% Calm Calm -- 30.51 in1033.2 mb 0.00 in0.0 mm 0.00 in/hr0.0 mm/hr 0.00 in0.0 mm
04:05 AM 61.5°F16.4°C 61.5°F16.4°C 100% Calm Calm -- 30.51 in1033.2 mb 0.00 in0.0 mm 0.00 in/hr0.0 mm/hr 0.00 in0.0 mm
04:06 AM 61.5°F16.4°C 61.5°F16.4°C 100% Calm Calm -- 30.51 in1033.2 mb 0.00 in0.0 mm 0.00 in/hr0.0 mm/hr 0.00 in0.0 mm
04:07 AM 61.2°F16.2°C 61.2°F16.2°C 100% Calm Calm -- 30.51 in1033.2 mb 0.00 in0.0 mm 0.00 in/hr0.0 mm/hr 0.00 in0.0 mm
04:08 AM 61.2°F16.2°C 61.2°F16.2°C 100% Calm Calm -- 30.51 in1033.2 mb 0.00 in0.0 mm 0.00 in/hr0.0 mm/hr 0.00 in0.0 mm
04:09 AM 61.2°F16.2°C 61.2°F16.2°C 100% Calm Calm -- 30.51 in1033.2 mb 0.00 in0.0 mm 0.00 in/hr0.0 mm/hr 0.00 in0.0 mm
04:10 AM 61.0°F16.1°C 61.0°F16.1°C 100% Calm Calm -- 30.51 in1033.2 mb 0.00 in0.0 mm 0.00 in/hr0.0 mm/hr 0.00 in0.0 mm
04:11 AM 61.2°F16.2°C 61.2°F16.2°C 100% Calm Calm -- 30.51 in1033.2 mb 0.00 in0.0 mm 0.00 in/hr0.0 mm/hr 0.00 in0.0 mm
04:12 AM 61.2°F16.2°C 61.2°F16.2°C 100% Calm Calm -- 30.51 in1033.2 mb 0.00 in0.0 mm 0.00 in/hr0.0 mm/hr 0.00 in0.0 mm
04:13 AM 61.2°F16.2°C 61.2°F16.2°C 100% Calm Calm -- 30.51 in1033.2 mb 0.00 in0.0 mm 0.00 in/hr0.0 mm/hr 0.00 in0.0 mm
04:14 AM 61.0°F16.1°C 61.0°F16.1°C 100% Calm Calm -- 30.51 in1033.2 mb 0.00 in0.0 mm 0.00 in/hr0.0 mm/hr 0.00 in0.0 mm
04:15 AM 61.0°F16.1°C 61.0°F16.1°C 100% Calm Calm -- 30.51 in1033.2 mb 0.00 in0.0 mm 0.00 in/hr0.0 mm/hr 0.00 in0.0 mm
04:16 AM 61.0°F16.1°C 61.0°F16.1°C 100% Calm Calm -- 30.51 in1033.2 mb 0.00 in0.0 mm 0.00 in/hr0.0 mm/hr 0.00 in0.0 mm
04:17 AM 61.0°F16.1°C 61.0°F16.1°C 100% Calm Calm -- 30.51 in1033.2 mb 0.00 in0.0 mm 0.00 in/hr0.0 mm/hr 0.00 in0.0 mm
04:18 AM 61.0°F16.1°C 61.0°F16.1°C 100% Calm Calm -- 30.51 in1033.2 mb 0.00 in0.0 mm 0.00 in/hr0.0 mm/hr 0.00 in0.0 mm
04:19 AM 61.0°F16.1°C 61.0°F16.1°C 100% Calm Calm -- 30.51 in1033.2 mb 0.00 in0.0 mm 0.00 in/hr0.0 mm/hr 0.00 in0.0 mm
04:20 AM 61.0°F16.1°C 61.0°F16.1°C 100% Calm Calm -- 30.51 in1033.2 mb 0.00 in0.0 mm 0.00 in/hr0.0 mm/hr 0.00 in0.0 mm
04:21 AM 61.3°F16.3°C 61.4°F16.3°C 100% Calm Calm 2.2 mph3.5 kmh 30.51 in1033.2 mb 0.00 in0.0 mm 0.00 in/hr0.0 mm/hr 0.00 in0.0 mm
04:22 AM 61.3°F16.3°C 61.4°F16.3°C 100% Calm Calm 2.2 mph3.5 kmh 30.51 in1033.2 mb 0.00 in0.0 mm 0.00 in/hr0.0 mm/hr 0.00 in0.0 mm
04:23 AM 61.3°F16.3°C 61.4°F16.3°C 100% Calm Calm 2.2 mph3.5 kmh 30.51 in1033.2 mb 0.00 in0.0 mm 0.00 in/hr0.0 mm/hr 0.00 in0.0 mm
04:24 AM 61.3°F16.3°C 61.4°F16.3°C 100% Calm Calm 2.2 mph3.5 kmh 30.51 in1033.2 mb 0.00 in0.0 mm 0.00 in/hr0.0 mm/hr 0.00 in0.0 mm
04:25 AM 61.3°F16.3°C 61.4°F16.3°C 100% Calm Calm 2.2 mph3.5 kmh 30.51 in1033.2 mb 0.00 in0.0 mm 0.00 in/hr0.0 mm/hr 0.00 in0.0 mm
04:26 AM 61.3°F16.3°C 61.4°F16.3°C 100% Calm Calm 2.2 mph3.5 kmh 30.51 in1033.2 mb 0.00 in0.0 mm 0.00 in/hr0.0 mm/hr 0.00 in0.0 mm
04:27 AM 61.3°F16.3°C 61.4°F16.3°C 100% Calm Calm 2.2 mph3.5 kmh 30.51 in1033.2 mb 0.00 in0.0 mm 0.00 in/hr0.0 mm/hr 0.00 in0.0 mm
04:28 AM 61.3°F16.3°C 61.4°F16.3°C 100% Calm Calm 2.2 mph3.5 kmh 30.51 in1033.2 mb 0.00 in0.0 mm 0.00 in/hr0.0 mm/hr 0.00 in0.0 mm
04:29 AM 61.5°F16.4°C 61.5°F16.4°C 100% Calm Calm 2.2 mph3.5 kmh 30.51 in1033.2 mb 0.00 in0.0 mm 0.00 in/hr0.0 mm/hr 0.00 in0.0 mm
04:30 AM 61.3°F16.3°C 61.4°F16.3°C 100% Calm Calm 2.2 mph3.5 kmh 30.51 in1033.2 mb 0.00 in0.0 mm 0.00 in/hr0.0 mm/hr 0.00 in0.0 mm
04:31 AM 61.2°F16.2°C 61.2°F16.2°C 100% Calm Calm 1.6 mph2.6 kmh 30.51 in1033.2 mb 0.00 in0.0 mm 0.00 in/hr0.0 mm/hr 0.00 in0.0 mm
04:32 AM 61.2°F16.2°C 61.2°F16.2°C 100% Calm Calm 1.6 mph2.6 kmh 30.51 in1033.2 mb 0.00 in0.0 mm 0.00 in/hr0.0 mm/hr 0.00 in0.0 mm
04:33 AM 61.0°F16.1°C 61.0°F16.1°C 100% Calm Calm 1.6 mph2.6 kmh 30.51 in1033.2 mb 0.00 in0.0 mm 0.00 in/hr0.0 mm/hr 0.00 in0.0 mm
04:34 AM 61.0°F16.1°C 61.0°F16.1°C 100% Calm Calm 1.6 mph2.6 kmh 30.51 in1033.2 mb 0.00 in0.0 mm 0.00 in/hr0.0 mm/hr 0.00 in0.0 mm
04:35 AM 60.8°F16.0°C 60.8°F16.0°C 100% Calm Calm 1.6 mph2.6 kmh 30.51 in1033.2 mb 0.00 in0.0 mm 0.00 in/hr0.0 mm/hr 0.00 in0.0 mm
04:36 AM 60.8°F16.0°C 60.8°F16.0°C 100% Calm Calm 1.6 mph2.6 kmh 30.51 in1033.2 mb 0.00 in0.0 mm 0.00 in/hr0.0 mm/hr 0.00 in0.0 mm
04:37 AM 60.8°F16.0°C 60.8°F16.0°C 100% Calm Calm 1.6 mph2.6 kmh 30.51 in1033.2 mb 0.00 in0.0 mm 0.00 in/hr0.0 mm/hr 0.00 in0.0 mm
04:38 AM 60.8°F16.0°C 60.8°F16.0°C 100% Calm Calm 1.6 mph2.6 kmh 30.51 in1033.2 mb 0.00 in0.0 mm 0.00 in/hr0.0 mm/hr 0.00 in0.0 mm
04:39 AM 60.6°F15.9°C 60.6°F15.9°C 100% Calm Calm -- 30.51 in1033.2 mb 0.00 in0.0 mm 0.00 in/hr0.0 mm/hr 0.00 in0.0 mm
04:40 AM 60.6°F15.9°C 60.6°F15.9°C 100% Calm Calm -- 30.51 in1033.2 mb 0.00 in0.0 mm 0.00 in/hr0.0 mm/hr 0.00 in0.0 mm
04:41 AM 60.4°F15.8°C 60.5°F15.8°C 100% Calm Calm -- 30.51 in1033.2 mb 0.00 in0.0 mm 0.00 in/hr0.0 mm/hr 0.00 in0.0 mm
04:42 AM 60.6°F15.9°C 60.6°F15.9°C 100% Calm Calm -- 30.51 in1033.2 mb 0.00 in0.0 mm 0.00 in/hr0.0 mm/hr 0.00 in0.0 mm
04:43 AM 60.8°F16.0°C 60.8°F16.0°C 100% Calm Calm -- 30.51 in1033.2 mb 0.00 in0.0 mm 0.00 in/hr0.0 mm/hr 0.00 in0.0 mm
04:44 AM 60.8°F16.0°C 60.8°F16.0°C 100% Calm Calm -- 30.51 in1033.2 mb 0.00 in0.0 mm 0.00 in/hr0.0 mm/hr 0.00 in0.0 mm
04:45 AM 60.8°F16.0°C 60.8°F16.0°C 100% Calm Calm -- 30.51 in1033.2 mb 0.00 in0.0 mm 0.00 in/hr0.0 mm/hr 0.00 in0.0 mm
04:46 AM 60.6°F15.9°C 60.6°F15.9°C 100% Calm Calm -- 30.51 in1033.2 mb 0.00 in0.0 mm 0.00 in/hr0.0 mm/hr 0.00 in0.0 mm
04:47 AM 60.6°F15.9°C 60.6°F15.9°C 100% Calm Calm -- 30.51 in1033.2 mb 0.00 in0.0 mm 0.00 in/hr0.0 mm/hr 0.00 in0.0 mm
04:48 AM 60.4°F15.8°C 60.5°F15.8°C 100% Calm Calm -- 30.51 in1033.2 mb 0.00 in0.0 mm 0.00 in/hr0.0 mm/hr 0.00 in0.0 mm
04:49 AM 60.4°F15.8°C 60.5°F15.8°C 100% Calm Calm -- 30.51 in1033.2 mb 0.00 in0.0 mm 0.00 in/hr0.0 mm/hr 0.00 in0.0 mm
04:50 AM 60.3°F15.7°C 60.3°F15.7°C 100% Calm Calm -- 30.51 in1033.2 mb 0.00 in0.0 mm 0.00 in/hr0.0 mm/hr 0.00 in0.0 mm
04:51 AM 60.3°F15.7°C 60.3°F15.7°C 100% Calm Calm -- 30.51 in1033.2 mb 0.00 in0.0 mm 0.00 in/hr0.0 mm/hr 0.00 in0.0 mm
04:52 AM 60.3°F15.7°C 60.3°F15.7°C 100% Calm Calm -- 30.51 in1033.2 mb 0.00 in0.0 mm 0.00 in/hr0.0 mm/hr 0.00 in0.0 mm
04:53 AM 60.3°F15.7°C 60.3°F15.7°C 100% Calm Calm -- 30.51 in1033.2 mb 0.00 in0.0 mm 0.00 in/hr0.0 mm/hr 0.00 in0.0 mm
04:54 AM 60.3°F15.7°C 60.3°F15.7°C 100% Calm Calm -- 30.51 in1033.2 mb 0.00 in0.0 mm 0.00 in/hr0.0 mm/hr 0.00 in0.0 mm
04:55 AM 60.3°F15.7°C 60.3°F15.7°C 100% Calm Calm -- 30.51 in1033.2 mb 0.00 in0.0 mm 0.00 in/hr0.0 mm/hr 0.00 in0.0 mm
04:56 AM 60.3°F15.7°C 60.3°F15.7°C 100% Calm Calm -- 30.51 in1033.2 mb 0.00 in0.0 mm 0.00 in/hr0.0 mm/hr 0.00 in0.0 mm
04:57 AM 60.3°F15.7°C 60.3°F15.7°C 100% Calm Calm -- 30.51 in1033.2 mb 0.00 in0.0 mm 0.00 in/hr0.0 mm/hr 0.00 in0.0 mm
04:58 AM 60.3°F15.7°C 60.3°F15.7°C 100% Calm Calm -- 30.51 in1033.2 mb 0.00 in0.0 mm 0.00 in/hr0.0 mm/hr 0.00 in0.0 mm
04:59 AM 60.3°F15.7°C 60.3°F15.7°C 100% Calm Calm -- 30.51 in1033.2 mb 0.00 in0.0 mm 0.00 in/hr0.0 mm/hr 0.00 in0.0 mm
05:00 AM 60.1°F15.6°C 60.1°F15.6°C 100% Calm Calm -- 30.51 in1033.2 mb 0.00 in0.0 mm 0.00 in/hr0.0 mm/hr 0.00 in0.0 mm
05:01 AM 60.1°F15.6°C 60.1°F15.6°C 100% Calm Calm -- 30.51 in1033.2 mb 0.00 in0.0 mm 0.00 in/hr0.0 mm/hr 0.00 in0.0 mm
05:02 AM 60.1°F15.6°C 60.1°F15.6°C 100% Calm Calm -- 30.51 in1033.2 mb 0.00 in0.0 mm 0.00 in/hr0.0 mm/hr 0.00 in0.0 mm
05:03 AM 60.1°F15.6°C 60.1°F15.6°C 100% Calm Calm -- 30.51 in1033.2 mb 0.00 in0.0 mm 0.00 in/hr0.0 mm/hr 0.00 in0.0 mm
05:04 AM 60.1°F15.6°C 60.1°F15.6°C 100% Calm Calm -- 30.51 in1033.2 mb 0.00 in0.0 mm 0.00 in/hr0.0 mm/hr 0.00 in0.0 mm
05:05 AM 59.9°F15.5°C 59.9°F15.5°C 100% Calm Calm -- 30.51 in1033.2 mb 0.00 in0.0 mm 0.00 in/hr0.0 mm/hr 0.00 in0.0 mm
05:06 AM 59.9°F15.5°C 59.9°F15.5°C 100% Calm Calm -- 30.52 in1033.5 mb 0.00 in0.0 mm 0.00 in/hr0.0 mm/hr 0.00 in0.0 mm
05:07 AM 59.9°F15.5°C 59.9°F15.5°C 100% Calm Calm -- 30.51 in1033.2 mb 0.00 in0.0 mm 0.00 in/hr0.0 mm/hr 0.00 in0.0 mm
05:08 AM 59.9°F15.5°C 59.9°F15.5°C 100% Calm Calm -- 30.51 in1033.2 mb 0.00 in0.0 mm 0.00 in/hr0.0 mm/hr 0.00 in0.0 mm
05:09 AM 59.9°F15.5°C 59.9°F15.5°C 100% Calm Calm -- 30.51 in1033.2 mb 0.00 in0.0 mm 0.00 in/hr0.0 mm/hr 0.00 in0.0 mm
05:10 AM 59.9°F15.5°C 59.9°F15.5°C 100% Calm Calm -- 30.51 in1033.2 mb 0.00 in0.0 mm 0.00 in/hr0.0 mm/hr 0.00 in0.0 mm
05:11 AM 59.9°F15.5°C 59.9°F15.5°C 100% Calm Calm -- 30.51 in1033.2 mb 0.00 in0.0 mm 0.00 in/hr0.0 mm/hr 0.00 in0.0 mm
05:12 AM 59.9°F15.5°C 59.9°F15.5°C 100% Calm Calm -- 30.51 in1033.2 mb 0.00 in0.0 mm 0.00 in/hr0.0 mm/hr 0.00 in0.0 mm
05:13 AM 59.9°F15.5°C 59.9°F15.5°C 100% Calm Calm -- 30.51 in1033.2 mb 0.00 in0.0 mm 0.00 in/hr0.0 mm/hr 0.00 in0.0 mm
05:14 AM 59.7°F15.4°C 59.7°F15.4°C 100% Calm Calm -- 30.51 in1033.2 mb 0.00 in0.0 mm 0.00 in/hr0.0 mm/hr 0.00 in0.0 mm
05:15 AM 59.7°F15.4°C 59.7°F15.4°C 100% Calm Calm -- 30.51 in1033.2 mb 0.00 in0.0 mm 0.00 in/hr0.0 mm/hr 0.00 in0.0 mm
05:16 AM 59.7°F15.4°C 59.7°F15.4°C 100% Calm Calm -- 30.51 in1033.2 mb 0.00 in0.0 mm 0.00 in/hr0.0 mm/hr 0.00 in0.0 mm
05:17 AM 59.7°F15.4°C 59.7°F15.4°C 100% Calm Calm -- 30.51 in1033.2 mb 0.00 in0.0 mm 0.00 in/hr0.0 mm/hr 0.00 in0.0 mm
05:18 AM 59.7°F15.4°C 59.7°F15.4°C 100% Calm Calm -- 30.51 in1033.2 mb 0.00 in0.0 mm 0.00 in/hr0.0 mm/hr 0.00 in0.0 mm
05:19 AM 59.7°F15.4°C 59.7°F15.4°C 100% Calm Calm -- 30.51 in1033.2 mb 0.00 in0.0 mm 0.00 in/hr0.0 mm/hr 0.00 in0.0 mm
05:20 AM 59.9°F15.5°C 59.9°F15.5°C 100% Calm Calm -- 30.52 in1033.5 mb 0.00 in0.0 mm 0.00 in/hr0.0 mm/hr 0.00 in0.0 mm
05:21 AM 59.7°F15.4°C 59.7°F15.4°C 100% Calm Calm -- 30.51 in1033.2 mb 0.00 in0.0 mm 0.00 in/hr0.0 mm/hr 0.00 in0.0 mm
05:22 AM 59.7°F15.4°C 59.7°F15.4°C 100% Calm Calm -- 30.52 in1033.5 mb 0.00 in0.0 mm 0.00 in/hr0.0 mm/hr 0.00 in0.0 mm
05:23 AM 59.9°F15.5°C 59.9°F15.5°C 100% Calm Calm -- 30.51 in1033.2 mb 0.00 in0.0 mm 0.00 in/hr0.0 mm/hr 0.00 in0.0 mm
05:24 AM 59.9°F15.5°C 59.9°F15.5°C 100% Calm Calm -- 30.52 in1033.5 mb 0.00 in0.0 mm 0.00 in/hr0.0 mm/hr 0.00 in0.0 mm
05:25 AM 59.9°F15.5°C 59.9°F15.5°C 100% Calm Calm -- 30.52 in1033.5 mb 0.00 in0.0 mm 0.00 in/hr0.0 mm/hr 0.00 in0.0 mm
05:26 AM 59.9°F15.5°C 59.9°F15.5°C 100% Calm Calm -- 30.52 in1033.5 mb 0.00 in0.0 mm 0.00 in/hr0.0 mm/hr 0.00 in0.0 mm
05:27 AM 59.9°F15.5°C 59.9°F15.5°C 100% Calm Calm -- 30.52 in1033.5 mb 0.00 in0.0 mm 0.00 in/hr0.0 mm/hr 0.00 in0.0 mm
05:28 AM 59.9°F15.5°C 59.9°F15.5°C 100% Calm Calm -- 30.52 in1033.5 mb 0.00 in0.0 mm 0.00 in/hr0.0 mm/hr 0.00 in0.0 mm
05:29 AM 59.7°F15.4°C 59.7°F15.4°C 100% Calm Calm -- 30.52 in1033.5 mb 0.00 in0.0 mm 0.00 in/hr0.0 mm/hr 0.00 in0.0 mm
05:30 AM 59.7°F15.4°C 59.7°F15.4°C 100% Calm Calm -- 30.52 in1033.5 mb 0.00 in0.0 mm 0.00 in/hr0.0 mm/hr 0.00 in0.0 mm
05:31 AM 59.7°F15.4°C 59.7°F15.4°C 100% Calm Calm -- 30.52 in1033.5 mb 0.00 in0.0 mm 0.00 in/hr0.0 mm/hr 0.00 in0.0 mm
05:32 AM 59.7°F15.4°C 59.7°F15.4°C 100% Calm Calm -- 30.52 in1033.5 mb 0.00 in0.0 mm 0.00 in/hr0.0 mm/hr 0.00 in0.0 mm
05:33 AM 59.7°F15.4°C 59.7°F15.4°C 100% Calm Calm -- 30.52 in1033.5 mb 0.00 in0.0 mm 0.00 in/hr0.0 mm/hr 0.00 in0.0 mm
05:34 AM 59.5°F15.3°C 59.6°F15.3°C 100% Calm Calm -- 30.52 in1033.5 mb 0.00 in0.0 mm 0.00 in/hr0.0 mm/hr 0.00 in0.0 mm
05:35 AM 59.4°F15.2°C 59.4°F15.2°C 100% Calm Calm -- 30.52 in1033.5 mb 0.00 in0.0 mm 0.00 in/hr0.0 mm/hr 0.00 in0.0 mm
05:36 AM 59.4°F15.2°C 59.4°F15.2°C 100% Calm Calm -- 30.52 in1033.5 mb 0.00 in0.0 mm 0.00 in/hr0.0 mm/hr 0.00 in0.0 mm
05:37 AM 59.4°F15.2°C 59.4°F15.2°C 100% Calm Calm -- 30.52 in1033.5 mb 0.00 in0.0 mm 0.00 in/hr0.0 mm/hr 0.00 in0.0 mm
05:38 AM 59.0°F15.0°C 59.0°F15.0°C 100% Calm Calm -- 30.52 in1033.5 mb 0.00 in0.0 mm 0.00 in/hr0.0 mm/hr 0.00 in0.0 mm
05:39 AM 59.0°F15.0°C 59.0°F15.0°C 100% Calm Calm -- 30.52 in1033.5 mb 0.00 in0.0 mm 0.00 in/hr0.0 mm/hr 0.00 in0.0 mm
05:40 AM 58.8°F14.9°C 58.8°F14.9°C 100% Calm Calm -- 30.52 in1033.5 mb 0.00 in0.0 mm 0.00 in/hr0.0 mm/hr 0.00 in0.0 mm
05:41 AM 59.0°F15.0°C 59.0°F15.0°C 100% Calm Calm -- 30.52 in1033.5 mb 0.00 in0.0 mm 0.00 in/hr0.0 mm/hr 0.00 in0.0 mm
05:42 AM 59.2°F15.1°C 59.2°F15.1°C 100% Calm Calm -- 30.52 in1033.5 mb 0.00 in0.0 mm 0.00 in/hr0.0 mm/hr 0.00 in0.0 mm
05:43 AM 59.4°F15.2°C 59.4°F15.2°C 100% Calm Calm -- 30.52 in1033.5 mb 0.00 in0.0 mm 0.00 in/hr0.0 mm/hr 0.00 in0.0 mm
05:44 AM 59.4°F15.2°C 59.4°F15.2°C 100% Calm Calm -- 30.52 in1033.5 mb 0.00 in0.0 mm 0.00 in/hr0.0 mm/hr 0.00 in0.0 mm
05:45 AM 59.4°F15.2°C 59.4°F15.2°C 100% Calm Calm -- 30.52 in1033.5 mb 0.00 in0.0 mm 0.00 in/hr0.0 mm/hr 0.00 in0.0 mm
05:46 AM 59.2°F15.1°C 59.2°F15.1°C 100% Calm Calm -- 30.52 in1033.5 mb 0.00 in0.0 mm 0.00 in/hr0.0 mm/hr 0.00 in0.0 mm
05:47 AM 59.4°F15.2°C 59.4°F15.2°C 100% Calm Calm -- 30.52 in1033.5 mb 0.00 in0.0 mm 0.00 in/hr0.0 mm/hr 0.00 in0.0 mm
05:48 AM 59.4°F15.2°C 59.4°F15.2°C 100% Calm Calm -- 30.52 in1033.5 mb 0.00 in0.0 mm 0.00 in/hr0.0 mm/hr 0.00 in0.0 mm
05:49 AM 59.5°F15.3°C 59.6°F15.3°C 100% Calm Calm -- 30.52 in1033.5 mb 0.00 in0.0 mm 0.00 in/hr0.0 mm/hr 0.00 in0.0 mm
05:50 AM 59.4°F15.2°C 59.4°F15.2°C 100% Calm Calm -- 30.52 in1033.5 mb 0.00 in0.0 mm 0.00 in/hr0.0 mm/hr 0.00 in0.0 mm
05:51 AM 59.5°F15.3°C 59.6°F15.3°C 100% Calm Calm -- 30.52 in1033.5 mb 0.00 in0.0 mm 0.00 in/hr0.0 mm/hr 0.00 in0.0 mm
05:52 AM 59.5°F15.3°C 59.6°F15.3°C 100% Calm Calm -- 30.52 in1033.5 mb 0.00 in0.0 mm 0.00 in/hr0.0 mm/hr 0.00 in0.0 mm
05:53 AM 59.4°F15.2°C 59.4°F15.2°C 100% Calm Calm -- 30.52 in1033.5 mb 0.00 in0.0 mm 0.00 in/hr0.0 mm/hr 0.00 in0.0 mm
05:54 AM 59.4°F15.2°C 59.4°F15.2°C 100% Calm Calm -- 30.52 in1033.5 mb 0.00 in0.0 mm 0.00 in/hr0.0 mm/hr 0.00 in0.0 mm
05:55 AM 59.2°F15.1°C 59.2°F15.1°C 100% Calm Calm -- 30.52 in1033.5 mb 0.00 in0.0 mm 0.00 in/hr0.0 mm/hr 0.00 in0.0 mm
05:56 AM 59.0°F15.0°C 59.0°F15.0°C 100% Calm Calm -- 30.52 in1033.5 mb 0.00 in0.0 mm 0.00 in/hr0.0 mm/hr 0.00 in0.0 mm
05:57 AM 59.0°F15.0°C 59.0°F15.0°C 100% Calm Calm -- 30.52 in1033.5 mb 0.00 in0.0 mm 0.00 in/hr0.0 mm/hr 0.00 in0.0 mm
05:58 AM 59.0°F15.0°C 59.0°F15.0°C 100% Calm Calm -- 30.52 in1033.5 mb 0.00 in0.0 mm 0.00 in/hr0.0 mm/hr 0.00 in0.0 mm
05:59 AM 59.0°F15.0°C 59.0°F15.0°C 100% Calm Calm -- 30.52 in1033.5 mb 0.00 in0.0 mm 0.00 in/hr0.0 mm/hr 0.00 in0.0 mm
06:00 AM 59.0°F15.0°C 59.0°F15.0°C 100% Calm Calm -- 30.52 in1033.5 mb 0.00 in0.0 mm 0.00 in/hr0.0 mm/hr 0.00 in0.0 mm
06:01 AM 59.0°F15.0°C 59.0°F15.0°C 100% Calm Calm -- 30.52 in1033.5 mb 0.00 in0.0 mm 0.00 in/hr0.0 mm/hr 0.00 in0.0 mm
06:02 AM 59.0°F15.0°C 59.0°F15.0°C 100% Calm Calm -- 30.52 in1033.5 mb 0.00 in0.0 mm 0.00 in/hr0.0 mm/hr 0.00 in0.0 mm
06:03 AM 59.0°F15.0°C 59.0°F15.0°C 100% Calm Calm -- 30.52 in1033.5 mb 0.00 in0.0 mm 0.00 in/hr0.0 mm/hr 0.00 in0.0 mm
06:04 AM 59.0°F15.0°C 59.0°F15.0°C 100% Calm Calm -- 30.52 in1033.5 mb 0.00 in0.0 mm 0.00 in/hr0.0 mm/hr 0.00 in0.0 mm
06:05 AM 59.0°F15.0°C 59.0°F15.0°C 100% Calm Calm -- 30.52 in1033.5 mb 0.00 in0.0 mm 0.00 in/hr0.0 mm/hr 0.00 in0.0 mm
06:06 AM 59.0°F15.0°C 59.0°F15.0°C 100% Calm Calm -- 30.52 in1033.5 mb 0.00 in0.0 mm 0.00 in/hr0.0 mm/hr 0.00 in0.0 mm
06:07 AM 59.2°F15.1°C 59.2°F15.1°C 100% Calm Calm -- 30.52 in1033.5 mb 0.00 in0.0 mm 0.00 in/hr0.0 mm/hr 0.00 in0.0 mm
06:08 AM 59.4°F15.2°C 59.4°F15.2°C 100% Calm Calm -- 30.52 in1033.5 mb 0.00 in0.0 mm 0.00 in/hr0.0 mm/hr 0.00 in0.0 mm
06:09 AM 59.4°F15.2°C 59.4°F15.2°C 100% Calm Calm -- 30.53 in1033.9 mb 0.00 in0.0 mm 0.00 in/hr0.0 mm/hr 0.00 in0.0 mm
06:10 AM 59.4°F15.2°C 59.4°F15.2°C 100% Calm Calm -- 30.52 in1033.5 mb 0.00 in0.0 mm 0.00 in/hr0.0 mm/hr 0.00 in0.0 mm
06:11 AM 59.5°F15.3°C 59.6°F15.3°C 100% Calm Calm -- 30.52 in1033.5 mb 0.00 in0.0 mm 0.00 in/hr0.0 mm/hr 0.00 in0.0 mm
06:12 AM 59.4°F15.2°C 59.4°F15.2°C 100% Calm Calm -- 30.53 in1033.9 mb 0.00 in0.0 mm 0.00 in/hr0.0 mm/hr 0.00 in0.0 mm
06:13 AM 59.4°F15.2°C 59.4°F15.2°C 100% Calm Calm -- 30.53 in1033.9 mb 0.00 in0.0 mm 0.00 in/hr0.0 mm/hr 0.00 in0.0 mm
06:14 AM 59.4°F15.2°C 59.4°F15.2°C 100% Calm Calm -- 30.53 in1033.9 mb 0.00 in0.0 mm 0.00 in/hr0.0 mm/hr 0.00 in0.0 mm
06:15 AM 59.4°F15.2°C 59.4°F15.2°C 100% Calm Calm -- 30.53 in1033.9 mb 0.00 in0.0 mm 0.00 in/hr0.0 mm/hr 0.00 in0.0 mm
06:16 AM 59.2°F15.1°C 59.2°F15.1°C 100% Calm Calm -- 30.53 in1033.9 mb 0.00 in0.0 mm 0.00 in/hr0.0 mm/hr 0.00 in0.0 mm
06:17 AM 59.2°F15.1°C 59.2°F15.1°C 100% Calm Calm -- 30.53 in1033.9 mb 0.00 in0.0 mm 0.00 in/hr0.0 mm/hr 0.00 in0.0 mm
06:18 AM 58.8°F14.9°C 58.8°F14.9°C 100% Calm Calm -- 30.53 in1033.9 mb 0.00 in0.0 mm 0.00 in/hr0.0 mm/hr 0.00 in0.0 mm
06:19 AM 58.8°F14.9°C 58.8°F14.9°C 100% Calm Calm -- 30.53 in1033.9 mb 0.00 in0.0 mm 0.00 in/hr0.0 mm/hr 0.00 in0.0 mm
06:20 AM 58.8°F14.9°C 58.8°F14.9°C 100% Calm Calm -- 30.53 in1033.9 mb 0.00 in0.0 mm 0.00 in/hr0.0 mm/hr 0.00 in0.0 mm
06:21 AM 58.8°F14.9°C 58.8°F14.9°C 100% Calm Calm -- 30.53 in1033.9 mb 0.00 in0.0 mm 0.00 in/hr0.0 mm/hr 0.00 in0.0 mm
06:22 AM 58.8°F14.9°C 58.8°F14.9°C 100% Calm Calm -- 30.53 in1033.9 mb 0.00 in0.0 mm 0.00 in/hr0.0 mm/hr 0.00 in0.0 mm
06:23 AM 58.8°F14.9°C 58.8°F14.9°C 100% Calm Calm -- 30.53 in1033.9 mb 0.00 in0.0 mm 0.00 in/hr0.0 mm/hr 0.00 in0.0 mm
06:24 AM 59.0°F15.0°C 59.0°F15.0°C 100% Calm Calm -- 30.54 in1034.2 mb 0.00 in0.0 mm 0.00 in/hr0.0 mm/hr 0.00 in0.0 mm
06:25 AM 59.2°F15.1°C 59.2°F15.1°C 100% Calm Calm -- 30.54 in1034.2 mb 0.00 in0.0 mm 0.00 in/hr0.0 mm/hr 0.00 in0.0 mm
06:26 AM 59.4°F15.2°C 59.4°F15.2°C 100% Calm Calm -- 30.54 in1034.2 mb 0.00 in0.0 mm 0.00 in/hr0.0 mm/hr 0.00 in0.0 mm
06:27 AM 59.2°F15.1°C 59.2°F15.1°C 100% Calm Calm -- 30.54 in1034.2 mb 0.00 in0.0 mm 0.00 in/hr0.0 mm/hr 0.00 in0.0 mm
06:28 AM 59.0°F15.0°C 59.0°F15.0°C 100% Calm Calm -- 30.54 in1034.2 mb 0.00 in0.0 mm 0.00 in/hr0.0 mm/hr 0.00 in0.0 mm
06:29 AM 59.0°F15.0°C 59.0°F15.0°C 100% Calm Calm -- 30.54 in1034.2 mb 0.00 in0.0 mm 0.00 in/hr0.0 mm/hr 0.00 in0.0 mm
06:30 AM 59.2°F15.1°C 59.2°F15.1°C 100% Calm Calm -- 30.54 in1034.2 mb 0.00 in0.0 mm 0.00 in/hr0.0 mm/hr 0.00 in0.0 mm
06:31 AM 59.4°F15.2°C 59.4°F15.2°C 100% Calm Calm -- 30.53 in1033.9 mb 0.00 in0.0 mm 0.00 in/hr0.0 mm/hr 0.00 in0.0 mm
06:32 AM 59.4°F15.2°C 59.4°F15.2°C 100% Calm Calm -- 30.54 in1034.2 mb 0.00 in0.0 mm 0.00 in/hr0.0 mm/hr 0.00 in0.0 mm
06:33 AM 59.4°F15.2°C 59.4°F15.2°C 100% Calm Calm -- 30.53 in1033.9 mb 0.00 in0.0 mm 0.00 in/hr0.0 mm/hr 0.00 in0.0 mm
06:34 AM 59.2°F15.1°C 59.2°F15.1°C 100% Calm Calm -- 30.53 in1033.9 mb 0.00 in0.0 mm 0.00 in/hr0.0 mm/hr 0.00 in0.0 mm
06:35 AM 59.0°F15.0°C 59.0°F15.0°C 100% Calm Calm -- 30.53 in1033.9 mb 0.00 in0.0 mm 0.00 in/hr0.0 mm/hr 0.00 in0.0 mm
06:36 AM 59.0°F15.0°C 59.0°F15.0°C 100% Calm Calm -- 30.54 in1034.2 mb 0.00 in0.0 mm 0.00 in/hr0.0 mm/hr 0.00 in0.0 mm
06:37 AM 59.2°F15.1°C 59.2°F15.1°C 100% Calm Calm -- 30.54 in1034.2 mb 0.00 in0.0 mm 0.00 in/hr0.0 mm/hr 0.00 in0.0 mm
06:38 AM 59.2°F15.1°C 59.2°F15.1°C 100% Calm Calm -- 30.54 in1034.2 mb 0.00 in0.0 mm 0.00 in/hr0.0 mm/hr 0.00 in0.0 mm
06:39 AM 59.2°F15.1°C 59.2°F15.1°C 100% Calm Calm -- 30.54 in1034.2 mb 0.00 in0.0 mm 0.00 in/hr0.0 mm/hr 0.00 in0.0 mm
06:40 AM 59.2°F15.1°C 59.2°F15.1°C 100% Calm Calm -- 30.54 in1034.2 mb 0.00 in0.0 mm 0.00 in/hr0.0 mm/hr 0.00 in0.0 mm
06:41 AM 59.2°F15.1°C 59.2°F15.1°C 100% Calm Calm -- 30.53 in1033.9 mb 0.00 in0.0 mm 0.00 in/hr0.0 mm/hr 0.00 in0.0 mm
06:42 AM 59.2°F15.1°C 59.2°F15.1°C 100% Calm Calm -- 30.54 in1034.2 mb 0.00 in0.0 mm 0.00 in/hr0.0 mm/hr 0.00 in0.0 mm
06:43 AM 59.4°F15.2°C 59.4°F15.2°C 100% Calm Calm -- 30.54 in1034.2 mb 0.00 in0.0 mm 0.00 in/hr0.0 mm/hr 0.00 in0.0 mm
06:44 AM 59.4°F15.2°C 59.4°F15.2°C 100% Calm Calm -- 30.54 in1034.2 mb 0.00 in0.0 mm 0.00 in/hr0.0 mm/hr 0.00 in0.0 mm
06:45 AM 59.4°F15.2°C 59.4°F15.2°C 100% Calm Calm -- 30.54 in1034.2 mb 0.00 in0.0 mm 0.00 in/hr0.0 mm/hr 0.00 in0.0 mm
06:46 AM 59.4°F15.2°C 59.4°F15.2°C 100% Calm Calm -- 30.54 in1034.2 mb 0.00 in0.0 mm 0.00 in/hr0.0 mm/hr 0.00 in0.0 mm
06:47 AM 59.4°F15.2°C 59.4°F15.2°C 100% Calm Calm -- 30.54 in1034.2 mb 0.00 in0.0 mm 0.00 in/hr0.0 mm/hr 0.00 in0.0 mm
06:48 AM 59.4°F15.2°C 59.4°F15.2°C 100% Calm Calm -- 30.54 in1034.2 mb 0.00 in0.0 mm 0.00 in/hr0.0 mm/hr 0.00 in0.0 mm
06:49 AM 59.2°F15.1°C 59.2°F15.1°C 100% Calm Calm -- 30.54 in1034.2 mb 0.00 in0.0 mm 0.00 in/hr0.0 mm/hr 0.00 in0.0 mm
06:50 AM 59.2°F15.1°C 59.2°F15.1°C 100% Calm Calm -- 30.54 in1034.2 mb 0.00 in0.0 mm 0.00 in/hr0.0 mm/hr 0.00 in0.0 mm
06:51 AM 59.2°F15.1°C 59.2°F15.1°C 100% Calm Calm -- 30.54 in1034.2 mb 0.00 in0.0 mm 0.00 in/hr0.0 mm/hr 0.00 in0.0 mm
06:52 AM 59.2°F15.1°C 59.2°F15.1°C 100% Calm Calm -- 30.54 in1034.2 mb 0.00 in0.0 mm 0.00 in/hr0.0 mm/hr 0.00 in0.0 mm
06:53 AM 59.2°F15.1°C 59.2°F15.1°C 100% Calm Calm -- 30.54 in1034.2 mb 0.00 in0.0 mm 0.00 in/hr0.0 mm/hr 0.00 in0.0 mm
06:54 AM 59.2°F15.1°C 59.2°F15.1°C 100% Calm Calm -- 30.54 in1034.2 mb 0.00 in0.0 mm 0.00 in/hr0.0 mm/hr 0.00 in0.0 mm
06:55 AM 59.2°F15.1°C 59.2°F15.1°C 100% Calm Calm -- 30.54 in1034.2 mb 0.00 in0.0 mm 0.00 in/hr0.0 mm/hr 0.00 in0.0 mm
06:56 AM 59.2°F15.1°C 59.2°F15.1°C 100% Calm Calm -- 30.54 in1034.2 mb 0.00 in0.0 mm 0.00 in/hr0.0 mm/hr 0.00 in0.0 mm
06:57 AM 59.4°F15.2°C 59.4°F15.2°C 100% Calm Calm 0.7 mph1.1 kmh 30.54 in1034.2 mb 0.00 in0.0 mm 0.00 in/hr0.0 mm/hr 0.00 in0.0 mm
06:58 AM 59.4°F15.2°C 59.4°F15.2°C 100% Calm Calm 0.7 mph1.1 kmh 30.54 in1034.2 mb 0.00 in0.0 mm 0.00 in/hr0.0 mm/hr 0.00 in0.0 mm
06:59 AM 59.4°F15.2°C 59.4°F15.2°C 100% Calm Calm 0.7 mph1.1 kmh 30.54 in1034.2 mb 0.00 in0.0 mm 0.00 in/hr0.0 mm/hr 0.00 in0.0 mm
07:00 AM 59.4°F15.2°C 59.4°F15.2°C 100% Calm Calm 0.7 mph1.1 kmh 30.54 in1034.2 mb 0.00 in0.0 mm 0.00 in/hr0.0 mm/hr 0.00 in0.0 mm
07:01 AM 59.4°F15.2°C 59.4°F15.2°C 100% Calm Calm 0.7 mph1.1 kmh 30.54 in1034.2 mb 0.00 in0.0 mm 0.00 in/hr0.0 mm/hr 0.00 in0.0 mm
07:02 AM 59.4°F15.2°C 59.4°F15.2°C 100% Calm Calm 0.7 mph1.1 kmh 30.54 in1034.2 mb 0.00 in0.0 mm 0.00 in/hr0.0 mm/hr 0.00 in0.0 mm
07:03 AM 59.4°F15.2°C 59.4°F15.2°C 100% Calm Calm 0.7 mph1.1 kmh 30.54 in1034.2 mb 0.00 in0.0 mm 0.00 in/hr0.0 mm/hr 0.00 in0.0 mm
07:04 AM 59.5°F15.3°C 59.6°F15.3°C 100% Calm Calm 1.6 mph2.6 kmh 30.54 in1034.2 mb 0.00 in0.0 mm 0.00 in/hr0.0 mm/hr 0.00 in0.0 mm
07:05 AM 59.5°F15.3°C 59.6°F15.3°C 100% Calm Calm 1.6 mph2.6 kmh 30.54 in1034.2 mb 0.00 in0.0 mm 0.00 in/hr0.0 mm/hr 0.00 in0.0 mm
07:06 AM 59.5°F15.3°C 59.6°F15.3°C 100% Calm Calm 1.6 mph2.6 kmh 30.54 in1034.2 mb 0.00 in0.0 mm 0.00 in/hr0.0 mm/hr 0.00 in0.0 mm
07:07 AM 59.5°F15.3°C 59.6°F15.3°C 100% Calm Calm 1.6 mph2.6 kmh 30.54 in1034.2 mb 0.00 in0.0 mm 0.00 in/hr0.0 mm/hr 0.00 in0.0 mm
07:08 AM 59.5°F15.3°C 59.6°F15.3°C 100% Calm Calm 1.6 mph2.6 kmh 30.54 in1034.2 mb 0.00 in0.0 mm 0.00 in/hr0.0 mm/hr 0.00 in0.0 mm
07:09 AM 59.5°F15.3°C 59.6°F15.3°C 100% Calm Calm 1.6 mph2.6 kmh 30.54 in1034.2 mb 0.00 in0.0 mm 0.00 in/hr0.0 mm/hr 0.00 in0.0 mm
07:10 AM 59.5°F15.3°C 59.6°F15.3°C 100% Calm Calm 1.6 mph2.6 kmh 30.54 in1034.2 mb 0.00 in0.0 mm 0.00 in/hr0.0 mm/hr 0.00 in0.0 mm
07:11 AM 59.5°F15.3°C 59.6°F15.3°C 100% Calm Calm 1.6 mph2.6 kmh 30.54 in1034.2 mb 0.00 in0.0 mm 0.00 in/hr0.0 mm/hr 0.00 in0.0 mm
07:12 AM 59.7°F15.4°C 59.7°F15.4°C 100% Calm Calm 1.6 mph2.6 kmh 30.54 in1034.2 mb 0.00 in0.0 mm 0.00 in/hr0.0 mm/hr 0.00 in0.0 mm
07:13 AM 59.7°F15.4°C 59.7°F15.4°C 100% Calm Calm 1.6 mph2.6 kmh 30.54 in1034.2 mb 0.00 in0.0 mm 0.00 in/hr0.0 mm/hr 0.00 in0.0 mm
07:14 AM 59.7°F15.4°C 59.7°F15.4°C 100% Calm Calm 0.7 mph1.1 kmh 30.54 in1034.2 mb 0.00 in0.0 mm 0.00 in/hr0.0 mm/hr 0.00 in0.0 mm
07:15 AM 59.7°F15.4°C 59.7°F15.4°C 100% Calm Calm 0.7 mph1.1 kmh 30.54 in1034.2 mb 0.00 in0.0 mm 0.00 in/hr0.0 mm/hr 0.00 in0.0 mm
07:16 AM 59.7°F15.4°C 59.7°F15.4°C 100% Calm Calm 0.7 mph1.1 kmh 30.54 in1034.2 mb 0.00 in0.0 mm 0.00 in/hr0.0 mm/hr 0.00 in0.0 mm
07:17 AM 59.9°F15.5°C 59.9°F15.5°C 100% Calm Calm 0.7 mph1.1 kmh 30.54 in1034.2 mb 0.00 in0.0 mm 0.00 in/hr0.0 mm/hr 0.00 in0.0 mm
07:18 AM 59.9°F15.5°C 59.9°F15.5°C 100% Calm Calm -- 30.54 in1034.2 mb 0.00 in0.0 mm 0.00 in/hr0.0 mm/hr 0.00 in0.0 mm
07:19 AM 59.9°F15.5°C 59.9°F15.5°C 100% Calm Calm -- 30.54 in1034.2 mb 0.00 in0.0 mm 0.00 in/hr0.0 mm/hr 0.00 in0.0 mm
07:20 AM 60.1°F15.6°C 60.1°F15.6°C 100% Calm Calm -- 30.54 in1034.2 mb 0.00 in0.0 mm 0.00 in/hr0.0 mm/hr 0.00 in0.0 mm
07:21 AM 60.3°F15.7°C 60.3°F15.7°C 100% Calm Calm -- 30.54 in1034.2 mb 0.00 in0.0 mm 0.00 in/hr0.0 mm/hr 0.00 in0.0 mm
07:22 AM 60.4°F15.8°C 60.5°F15.8°C 100% Calm Calm -- 30.54 in1034.2 mb 0.00 in0.0 mm 0.00 in/hr0.0 mm/hr 0.00 in0.0 mm
07:23 AM 60.8°F16.0°C 60.8°F16.0°C 100% Calm Calm -- 30.54 in1034.2 mb 0.00 in0.0 mm 0.00 in/hr0.0 mm/hr 0.00 in0.0 mm
07:24 AM 60.8°F16.0°C 60.8°F16.0°C 100% Calm Calm 1.6 mph2.6 kmh 30.54 in1034.2 mb 0.00 in0.0 mm 0.00 in/hr0.0 mm/hr 0.00 in0.0 mm
07:25 AM 60.8°F16.0°C 60.8°F16.0°C 100% Calm Calm 1.6 mph2.6 kmh 30.54 in1034.2 mb 0.00 in0.0 mm 0.00 in/hr0.0 mm/hr 0.00 in0.0 mm
07:26 AM 61.0°F16.1°C 61.0°F16.1°C 100% 0.7 mph SW1.1 kmh SW 1.6 mph2.6 kmh 30.54 in1034.2 mb 0.00 in0.0 mm 0.00 in/hr0.0 mm/hr 0.00 in0.0 mm
07:27 AM 61.0°F16.1°C 61.0°F16.1°C 100% 0.7 mph SW1.1 kmh SW 2.2 mph3.5 kmh 30.54 in1034.2 mb 0.00 in0.0 mm 0.00 in/hr0.0 mm/hr 0.00 in0.0 mm
07:28 AM 61.2°F16.2°C 61.2°F16.2°C 100% 0.7 mph SW1.1 kmh SW 2.2 mph3.5 kmh 30.54 in1034.2 mb 0.00 in0.0 mm 0.00 in/hr0.0 mm/hr 0.00 in0.0 mm
07:29 AM 61.2°F16.2°C 61.2°F16.2°C 100% Calm Calm 2.2 mph3.5 kmh 30.54 in1034.2 mb 0.00 in0.0 mm 0.00 in/hr0.0 mm/hr 0.00 in0.0 mm
07:30 AM 61.2°F16.2°C 61.2°F16.2°C 100% Calm Calm 2.2 mph3.5 kmh 30.54 in1034.2 mb 0.00 in0.0 mm 0.00 in/hr0.0 mm/hr 0.00 in0.0 mm
07:31 AM 61.2°F16.2°C 61.2°F16.2°C 100% Calm Calm 2.2 mph3.5 kmh 30.54 in1034.2 mb 0.00 in0.0 mm 0.00 in/hr0.0 mm/hr 0.00 in0.0 mm
07:32 AM 61.2°F16.2°C 61.2°F16.2°C 100% Calm Calm 2.2 mph3.5 kmh 30.54 in1034.2 mb 0.00 in0.0 mm 0.00 in/hr0.0 mm/hr 0.00 in0.0 mm
07:33 AM 61.2°F16.2°C 61.2°F16.2°C 100% Calm Calm 2.2 mph3.5 kmh 30.54 in1034.2 mb 0.00 in0.0 mm 0.00 in/hr0.0 mm/hr 0.00 in0.0 mm
07:34 AM 61.2°F16.2°C 61.2°F16.2°C 100% Calm Calm 2.2 mph3.5 kmh 30.54 in1034.2 mb 0.00 in0.0 mm 0.00 in/hr0.0 mm/hr 0.00 in0.0 mm
07:35 AM 61.3°F16.3°C 61.4°F16.3°C 100% Calm Calm 2.2 mph3.5 kmh 30.54 in1034.2 mb 0.00 in0.0 mm 0.00 in/hr0.0 mm/hr 0.00 in0.0 mm
07:36 AM 61.7°F16.5°C 61.7°F16.5°C 100% Calm Calm 2.2 mph3.5 kmh 30.54 in1034.2 mb 0.00 in0.0 mm 0.00 in/hr0.0 mm/hr 0.00 in0.0 mm
07:37 AM 62.8°F17.1°C 62.8°F17.1°C 100% Calm Calm 2.2 mph3.5 kmh 30.54 in1034.2 mb 0.00 in0.0 mm 0.00 in/hr0.0 mm/hr 0.00 in0.0 mm
07:38 AM 63.0°F17.2°C 63.0°F17.2°C 100% 0.7 mph SW1.1 kmh SW 1.6 mph2.6 kmh 30.54 in1034.2 mb 0.00 in0.0 mm 0.00 in/hr0.0 mm/hr 0.00 in0.0 mm
07:39 AM 63.3°F17.4°C 63.3°F17.4°C 100% 0.7 mph SW1.1 kmh SW 1.6 mph2.6 kmh 30.54 in1034.2 mb 0.00 in0.0 mm 0.00 in/hr0.0 mm/hr 0.00 in0.0 mm
07:40 AM 63.5°F17.5°C 63.5°F17.5°C 100% 0.7 mph SSW1.1 kmh SSW 1.6 mph2.6 kmh 30.54 in1034.2 mb 0.00 in0.0 mm 0.00 in/hr0.0 mm/hr 0.00 in0.0 mm
07:41 AM 64.0°F17.8°C 64.1°F17.8°C 100% 0.7 mph SW1.1 kmh SW 2.2 mph3.5 kmh 30.54 in1034.2 mb 0.00 in0.0 mm 0.00 in/hr0.0 mm/hr 0.00 in0.0 mm
07:42 AM 64.2°F17.9°C 64.2°F17.9°C 100% 1.6 mph SW2.6 kmh SW 2.2 mph3.5 kmh 30.54 in1034.2 mb 0.00 in0.0 mm 0.00 in/hr0.0 mm/hr 0.00 in0.0 mm
07:43 AM 64.2°F17.9°C 64.2°F17.9°C 100% 1.6 mph SSW2.6 kmh SSW 2.2 mph3.5 kmh 30.54 in1034.2 mb 0.00 in0.0 mm 0.00 in/hr0.0 mm/hr 0.00 in0.0 mm
07:44 AM 64.2°F17.9°C 64.2°F17.9°C 100% 1.6 mph SSW2.6 kmh SSW 2.2 mph3.5 kmh 30.54 in1034.2 mb 0.00 in0.0 mm 0.00 in/hr0.0 mm/hr 0.00 in0.0 mm
07:45 AM 64.4°F18.0°C 64.4°F18.0°C 100% 1.6 mph SSW2.6 kmh SSW 2.2 mph3.5 kmh 30.54 in1034.2 mb 0.00 in0.0 mm 0.00 in/hr0.0 mm/hr 0.00 in0.0 mm
07:46 AM 64.6°F18.1°C 64.6°F18.1°C 100% 1.6 mph SSW2.6 kmh SSW 2.2 mph3.5 kmh 30.54 in1034.2 mb 0.00 in0.0 mm 0.00 in/hr0.0 mm/hr 0.00 in0.0 mm
07:47 AM 64.6°F18.1°C 64.6°F18.1°C 100% 1.6 mph SSW2.6 kmh SSW 2.2 mph3.5 kmh 30.54 in1034.2 mb 0.00 in0.0 mm 0.00 in/hr0.0 mm/hr 0.00 in0.0 mm
07:48 AM 64.8°F18.2°C 64.8°F18.2°C 100% 1.6 mph SSW2.6 kmh SSW 2.2 mph3.5 kmh 30.54 in1034.2 mb 0.00 in0.0 mm 0.00 in/hr0.0 mm/hr 0.00 in0.0 mm
07:49 AM 65.1°F18.4°C 65.1°F18.4°C 100% 1.6 mph SSW2.6 kmh SSW 2.2 mph3.5 kmh 30.55 in1034.5 mb 0.00 in0.0 mm 0.00 in/hr0.0 mm/hr 0.00 in0.0 mm
07:50 AM 65.1°F18.4°C 65.1°F18.4°C 100% 1.6 mph SSW2.6 kmh SSW 2.2 mph3.5 kmh 30.54 in1034.2 mb 0.00 in0.0 mm 0.00 in/hr0.0 mm/hr 0.00 in0.0 mm
07:51 AM 65.1°F18.4°C 65.1°F18.4°C 100% 1.6 mph SSW2.6 kmh SSW 2.2 mph3.5 kmh 30.55 in1034.5 mb 0.00 in0.0 mm 0.00 in/hr0.0 mm/hr 0.00 in0.0 mm
07:52 AM 65.1°F18.4°C 65.1°F18.4°C 100% 1.6 mph SSW2.6 kmh SSW 3.1 mph5.0 kmh 30.55 in1034.5 mb 0.00 in0.0 mm 0.00 in/hr0.0 mm/hr 0.00 in0.0 mm
07:53 AM 65.1°F18.4°C 65.1°F18.4°C 100% 2.2 mph SSW3.5 kmh SSW 3.1 mph5.0 kmh 30.54 in1034.2 mb 0.00 in0.0 mm 0.00 in/hr0.0 mm/hr 0.00 in0.0 mm
07:54 AM 65.1°F18.4°C 65.1°F18.4°C 100% 1.6 mph SSW2.6 kmh SSW 3.1 mph5.0 kmh 30.55 in1034.5 mb 0.00 in0.0 mm 0.00 in/hr0.0 mm/hr 0.00 in0.0 mm
07:55 AM 65.3°F18.5°C 65.3°F18.5°C 100% 1.6 mph SSW2.6 kmh SSW 3.1 mph5.0 kmh 30.55 in1034.5 mb 0.00 in0.0 mm 0.00 in/hr0.0 mm/hr 0.00 in0.0 mm
07:56 AM 65.5°F18.6°C 65.5°F18.6°C 100% 1.6 mph SSW2.6 kmh SSW 3.1 mph5.0 kmh 30.55 in1034.5 mb 0.00 in0.0 mm 0.00 in/hr0.0 mm/hr 0.00 in0.0 mm
07:57 AM 65.8°F18.8°C 65.9°F18.8°C 100% 1.6 mph SSW2.6 kmh SSW 3.1 mph5.0 kmh 30.55 in1034.5 mb 0.00 in0.0 mm 0.00 in/hr0.0 mm/hr 0.00 in0.0 mm
07:58 AM 65.7°F18.7°C 65.7°F18.7°C 100% Calm Calm 3.1 mph5.0 kmh 30.55 in1034.5 mb 0.00 in0.0 mm 0.00 in/hr0.0 mm/hr 0.00 in0.0 mm
07:59 AM 66.0°F18.9°C 66.0°F18.9°C 100% Calm Calm 3.1 mph5.0 kmh 30.55 in1034.5 mb 0.00 in0.0 mm 0.00 in/hr0.0 mm/hr 0.00 in0.0 mm
08:00 AM 66.6°F19.2°C 66.6°F19.2°C 100% Calm Calm 3.1 mph5.0 kmh 30.55 in1034.5 mb 0.00 in0.0 mm 0.00 in/hr0.0 mm/hr 0.00 in0.0 mm
08:01 AM 66.6°F19.2°C 66.6°F19.2°C 100% Calm Calm 3.1 mph5.0 kmh 30.55 in1034.5 mb 0.00 in0.0 mm 0.00 in/hr0.0 mm/hr 0.00 in0.0 mm
08:02 AM 66.6°F19.2°C 66.6°F19.2°C 100% Calm Calm 3.1 mph5.0 kmh 30.55 in1034.5 mb 0.00 in0.0 mm 0.00 in/hr0.0 mm/hr 0.00 in0.0 mm
08:03 AM 66.6°F19.2°C 66.6°F19.2°C 100% Calm Calm 3.1 mph5.0 kmh 30.55 in1034.5 mb 0.00 in0.0 mm 0.00 in/hr0.0 mm/hr 0.00 in0.0 mm
08:04 AM 66.6°F19.2°C 66.6°F19.2°C 100% Calm Calm 2.2 mph3.5 kmh 30.55 in1034.5 mb 0.00 in0.0 mm 0.00 in/hr0.0 mm/hr 0.00 in0.0 mm
08:05 AM 66.6°F19.2°C 66.6°F19.2°C 100% Calm Calm 2.2 mph3.5 kmh 30.55 in1034.5 mb 0.00 in0.0 mm 0.00 in/hr0.0 mm/hr 0.00 in0.0 mm
08:06 AM 66.6°F19.2°C 66.6°F19.2°C 100% Calm Calm 2.2 mph3.5 kmh 30.55 in1034.5 mb 0.00 in0.0 mm 0.00 in/hr0.0 mm/hr 0.00 in0.0 mm
08:07 AM 66.6°F19.2°C 66.6°F19.2°C 100% Calm Calm 2.2 mph3.5 kmh 30.55 in1034.5 mb 0.00 in0.0 mm 0.00 in/hr0.0 mm/hr 0.00 in0.0 mm
08:08 AM 66.6°F19.2°C 66.6°F19.2°C 100% Calm Calm 1.6 mph2.6 kmh 30.55 in1034.5 mb 0.00 in0.0 mm 0.00 in/hr0.0 mm/hr 0.00 in0.0 mm
08:09 AM 67.6°F19.8°C 67.7°F19.8°C 100% 0.7 mph ENE1.1 kmh ENE 2.2 mph3.5 kmh 30.55 in1034.5 mb 0.00 in0.0 mm 0.00 in/hr0.0 mm/hr 0.00 in0.0 mm
08:10 AM 66.9°F19.4°C 67.0°F19.4°C 100% 0.7 mph ENE1.1 kmh ENE 2.2 mph3.5 kmh 30.55 in1034.5 mb 0.00 in0.0 mm 0.00 in/hr0.0 mm/hr 0.00 in0.0 mm
08:11 AM 66.7°F19.3°C 66.8°F19.3°C 100% Calm Calm 2.2 mph3.5 kmh 30.55 in1034.5 mb 0.00 in0.0 mm 0.00 in/hr0.0 mm/hr 0.00 in0.0 mm
08:12 AM 66.9°F19.4°C 67.0°F19.4°C 100% Calm Calm 2.2 mph3.5 kmh 30.55 in1034.5 mb 0.00 in0.0 mm 0.00 in/hr0.0 mm/hr 0.00 in0.0 mm
08:13 AM 66.7°F19.3°C 66.8°F19.3°C 100% Calm Calm 2.2 mph3.5 kmh 30.55 in1034.5 mb 0.00 in0.0 mm 0.00 in/hr0.0 mm/hr 0.00 in0.0 mm
08:14 AM 66.9°F19.4°C 67.0°F19.4°C 100% Calm Calm 2.2 mph3.5 kmh 30.55 in1034.5 mb 0.00 in0.0 mm 0.00 in/hr0.0 mm/hr 0.00 in0.0 mm
08:15 AM 67.3°F19.6°C 67.3°F19.6°C 100% Calm Calm 2.2 mph3.5 kmh 30.55 in1034.5 mb 0.00 in0.0 mm 0.00 in/hr0.0 mm/hr 0.00 in0.0 mm
08:16 AM 68.0°F20.0°C 68.0°F20.0°C 100% Calm Calm 2.2 mph3.5 kmh 30.55 in1034.5 mb 0.00 in0.0 mm 0.00 in/hr0.0 mm/hr 0.00 in0.0 mm
08:17 AM 70.0°F21.1°C 70.0°F21.1°C 100% Calm Calm 2.2 mph3.5 kmh 30.55 in1034.5 mb 0.00 in0.0 mm 0.00 in/hr0.0 mm/hr 0.00 in0.0 mm
08:18 AM 70.2°F21.2°C 69.6°F20.9°C 98% Calm Calm 2.2 mph3.5 kmh 30.55 in1034.5 mb 0.00 in0.0 mm 0.00 in/hr0.0 mm/hr 0.00 in0.0 mm
08:19 AM 70.0°F21.1°C 69.1°F20.6°C 97% Calm Calm 2.2 mph3.5 kmh 30.55 in1034.5 mb 0.00 in0.0 mm 0.00 in/hr0.0 mm/hr 0.00 in0.0 mm
08:20 AM 69.4°F20.8°C 68.9°F20.5°C 98% Calm Calm 1.6 mph2.6 kmh 30.55 in1034.5 mb 0.00 in0.0 mm 0.00 in/hr0.0 mm/hr 0.00 in0.0 mm
08:21 AM 68.4°F20.2°C 67.2°F19.6°C 96% Calm Calm 0.7 mph1.1 kmh 30.55 in1034.5 mb 0.00 in0.0 mm 0.00 in/hr0.0 mm/hr 0.00 in0.0 mm
08:22 AM 68.2°F20.1°C 66.7°F19.3°C 95% Calm Calm 0.7 mph1.1 kmh 30.55 in1034.5 mb 0.00 in0.0 mm 0.00 in/hr0.0 mm/hr 0.00 in0.0 mm
08:23 AM 68.5°F20.3°C 67.4°F19.7°C 96% Calm Calm 0.7 mph1.1 kmh 30.55 in1034.5 mb 0.00 in0.0 mm 0.00 in/hr0.0 mm/hr 0.00 in0.0 mm
08:24 AM 68.5°F20.3°C 67.4°F19.7°C 96% Calm Calm 0.7 mph1.1 kmh 30.55 in1034.5 mb 0.00 in0.0 mm 0.00 in/hr0.0 mm/hr 0.00 in0.0 mm
08:25 AM 69.4°F20.8°C 68.3°F20.2°C 96% Calm Calm 0.7 mph1.1 kmh 30.55 in1034.5 mb 0.00 in0.0 mm 0.00 in/hr0.0 mm/hr 0.00 in0.0 mm
08:26 AM 69.4°F20.8°C 68.3°F20.2°C 96% Calm Calm 0.7 mph1.1 kmh 30.55 in1034.5 mb 0.00 in0.0 mm 0.00 in/hr0.0 mm/hr 0.00 in0.0 mm
08:27 AM 69.6°F20.9°C 68.5°F20.3°C 96% Calm Calm 0.7 mph1.1 kmh 30.55 in1034.5 mb 0.00 in0.0 mm 0.00 in/hr0.0 mm/hr 0.00 in0.0 mm
08:28 AM 70.5°F21.4°C 69.1°F20.6°C 95% Calm Calm 0.7 mph1.1 kmh 30.55 in1034.5 mb 0.00 in0.0 mm 0.00 in/hr0.0 mm/hr 0.00 in0.0 mm
08:29 AM 70.2°F21.2°C 68.1°F20.1°C 93% Calm Calm 0.7 mph1.1 kmh 30.55 in1034.5 mb 0.00 in0.0 mm 0.00 in/hr0.0 mm/hr 0.00 in0.0 mm
08:30 AM 69.8°F21.0°C 67.7°F19.8°C 93% Calm Calm 0.7 mph1.1 kmh 30.55 in1034.5 mb 0.00 in0.0 mm 0.00 in/hr0.0 mm/hr 0.00 in0.0 mm
08:31 AM 69.6°F20.9°C 67.5°F19.7°C 93% Calm Calm 0.7 mph1.1 kmh 30.55 in1034.5 mb 0.00 in0.0 mm 0.00 in/hr0.0 mm/hr 0.00 in0.0 mm
08:32 AM 69.3°F20.7°C 67.2°F19.6°C 93% Calm Calm -- 30.55 in1034.5 mb 0.00 in0.0 mm 0.00 in/hr0.0 mm/hr 0.00 in0.0 mm
08:33 AM 68.7°F20.4°C 66.6°F19.2°C 93% Calm Calm -- 30.55 in1034.5 mb 0.00 in0.0 mm 0.00 in/hr0.0 mm/hr 0.00 in0.0 mm
08:34 AM 68.7°F20.4°C 66.6°F19.2°C 93% 0.7 mph WNW1.1 kmh WNW 1.6 mph2.6 kmh 30.55 in1034.5 mb 0.00 in0.0 mm 0.00 in/hr0.0 mm/hr 0.00 in0.0 mm
08:35 AM 68.5°F20.3°C 66.5°F19.2°C 93% Calm Calm 1.6 mph2.6 kmh 30.55 in1034.5 mb 0.00 in0.0 mm 0.00 in/hr0.0 mm/hr 0.00 in0.0 mm
08:36 AM 68.5°F20.3°C 67.1°F19.5°C 95% Calm Calm 1.6 mph2.6 kmh 30.55 in1034.5 mb 0.00 in0.0 mm 0.00 in/hr0.0 mm/hr 0.00 in0.0 mm
08:37 AM 68.5°F20.3°C 67.1°F19.5°C 95% Calm Calm 1.6 mph2.6 kmh 30.55 in1034.5 mb 0.00 in0.0 mm 0.00 in/hr0.0 mm/hr 0.00 in0.0 mm
08:38 AM 68.7°F20.4°C 67.3°F19.6°C 95% Calm Calm 1.6 mph2.6 kmh 30.55 in1034.5 mb 0.00 in0.0 mm 0.00 in/hr0.0 mm/hr 0.00 in0.0 mm
08:39 AM 68.5°F20.3°C 67.4°F19.7°C 96% 0.7 mph NW1.1 kmh NW 1.6 mph2.6 kmh 30.55 in1034.5 mb 0.00 in0.0 mm 0.00 in/hr0.0 mm/hr 0.00 in0.0 mm
08:40 AM 68.4°F20.2°C 67.2°F19.6°C 96% Calm Calm 1.6 mph2.6 kmh 30.55 in1034.5 mb 0.00 in0.0 mm 0.00 in/hr0.0 mm/hr 0.00 in0.0 mm
08:41 AM 68.7°F20.4°C 67.6°F19.8°C 96% Calm Calm 1.6 mph2.6 kmh 30.55 in1034.5 mb 0.00 in0.0 mm 0.00 in/hr0.0 mm/hr 0.00 in0.0 mm
08:42 AM 68.7°F20.4°C 67.6°F19.8°C 96% 0.7 mph NW1.1 kmh NW 1.6 mph2.6 kmh 30.55 in1034.5 mb 0.00 in0.0 mm 0.00 in/hr0.0 mm/hr 0.00 in0.0 mm
08:43 AM 68.5°F20.3°C 67.4°F19.7°C 96% 1.6 mph NNW2.6 kmh NNW 2.2 mph3.5 kmh 30.55 in1034.5 mb 0.00 in0.0 mm 0.00 in/hr0.0 mm/hr 0.00 in0.0 mm
08:44 AM 68.5°F20.3°C 67.4°F19.7°C 96% Calm Calm 2.2 mph3.5 kmh 30.55 in1034.5 mb 0.00 in0.0 mm 0.00 in/hr0.0 mm/hr 0.00 in0.0 mm
08:45 AM 68.9°F20.5°C 68.0°F20.0°C 97% Calm Calm 2.2 mph3.5 kmh 30.55 in1034.5 mb 0.00 in0.0 mm 0.00 in/hr0.0 mm/hr 0.00 in0.0 mm
08:46 AM 69.1°F20.6°C 68.2°F20.1°C 97% Calm Calm 2.2 mph3.5 kmh 30.55 in1034.5 mb 0.00 in0.0 mm 0.00 in/hr0.0 mm/hr 0.00 in0.0 mm
08:47 AM 69.1°F20.6°C 68.2°F20.1°C 97% Calm Calm 2.2 mph3.5 kmh 30.55 in1034.5 mb 0.00 in0.0 mm 0.00 in/hr0.0 mm/hr 0.00 in0.0 mm
08:48 AM 69.4°F20.8°C 68.6°F20.3°C 97% Calm Calm 2.2 mph3.5 kmh 30.55 in1034.5 mb 0.00 in0.0 mm 0.00 in/hr0.0 mm/hr 0.00 in0.0 mm
08:49 AM 69.1°F20.6°C 68.2°F20.1°C 97% 0.7 mph NNW1.1 kmh NNW 2.2 mph3.5 kmh 30.55 in1034.5 mb 0.00 in0.0 mm 0.00 in/hr0.0 mm/hr 0.00 in0.0 mm
08:50 AM 68.9°F20.5°C 67.7°F19.8°C 96% Calm Calm 2.2 mph3.5 kmh 30.55 in1034.5 mb 0.00 in0.0 mm 0.00 in/hr0.0 mm/hr 0.00 in0.0 mm
08:51 AM 69.3°F20.7°C 68.1°F20.1°C 96% Calm Calm 2.2 mph3.5 kmh 30.55 in1034.5 mb 0.00 in0.0 mm 0.00 in/hr0.0 mm/hr 0.00 in0.0 mm
08:52 AM 69.3°F20.7°C 68.1°F20.1°C 96% Calm Calm 2.2 mph3.5 kmh 30.55 in1034.5 mb 0.00 in0.0 mm 0.00 in/hr0.0 mm/hr 0.00 in0.0 mm
08:53 AM 69.6°F20.9°C 68.5°F20.3°C 96% Calm Calm 2.2 mph3.5 kmh 30.55 in1034.5 mb 0.00 in0.0 mm 0.00 in/hr0.0 mm/hr 0.00 in0.0 mm
08:54 AM 69.6°F20.9°C 68.5°F20.3°C 96% Calm Calm 1.6 mph2.6 kmh 30.55 in1034.5 mb 0.00 in0.0 mm 0.00 in/hr0.0 mm/hr 0.00 in0.0 mm
08:55 AM 69.6°F20.9°C 68.5°F20.3°C 96% Calm Calm 1.6 mph2.6 kmh 30.55 in1034.5 mb 0.00 in0.0 mm 0.00 in/hr0.0 mm/hr 0.00 in0.0 mm
08:56 AM 69.6°F20.9°C 68.5°F20.3°C 96% Calm Calm 1.6 mph2.6 kmh 30.55 in1034.5 mb 0.00 in0.0 mm 0.00 in/hr0.0 mm/hr 0.00 in0.0 mm
08:57 AM 69.6°F20.9°C 68.5°F20.3°C 96% Calm Calm 1.6 mph2.6 kmh 30.55 in1034.5 mb 0.00 in0.0 mm 0.00 in/hr0.0 mm/hr 0.00 in0.0 mm
08:58 AM 69.8°F21.0°C 67.7°F19.8°C 93% 0.7 mph NNW1.1 kmh NNW 1.6 mph2.6 kmh 30.55 in1034.5 mb 0.00 in0.0 mm 0.00 in/hr0.0 mm/hr 0.00 in0.0 mm
08:59 AM 69.8°F21.0°C 67.7°F19.8°C 93% 0.7 mph NNW1.1 kmh NNW 1.6 mph2.6 kmh 30.55 in1034.5 mb 0.00 in0.0 mm 0.00 in/hr0.0 mm/hr 0.00 in0.0 mm
09:00 AM 69.6°F20.9°C 68.2°F20.1°C 95% 0.7 mph NNW1.1 kmh NNW 1.6 mph2.6 kmh 30.55 in1034.5 mb 0.00 in0.0 mm 0.00 in/hr0.0 mm/hr 0.00 in0.0 mm
09:01 AM 70.2°F21.2°C 68.1°F20.1°C 93% Calm Calm 1.6 mph2.6 kmh 30.54 in1034.2 mb 0.00 in0.0 mm 0.00 in/hr0.0 mm/hr 0.00 in0.0 mm
09:02 AM 71.6°F22.0°C 69.2°F20.7°C 92% 0.7 mph NW1.1 kmh NW 3.1 mph5.0 kmh 30.55 in1034.5 mb 0.00 in0.0 mm 0.00 in/hr0.0 mm/hr 0.00 in0.0 mm
09:03 AM 71.8°F22.1°C 69.4°F20.8°C 92% Calm Calm 3.1 mph5.0 kmh 30.55 in1034.5 mb 0.00 in0.0 mm 0.00 in/hr0.0 mm/hr 0.00 in0.0 mm
09:04 AM 71.4°F21.9°C 69.3°F20.7°C 93% 1.6 mph NW2.6 kmh NW 3.1 mph5.0 kmh 30.54 in1034.2 mb 0.00 in0.0 mm 0.00 in/hr0.0 mm/hr 0.00 in0.0 mm
09:05 AM 70.7°F21.5°C 68.3°F20.2°C 92% Calm Calm 3.1 mph5.0 kmh 30.55 in1034.5 mb 0.00 in0.0 mm 0.00 in/hr0.0 mm/hr 0.00 in0.0 mm
09:06 AM 72.0°F22.2°C 69.2°F20.7°C 91% Calm Calm 3.1 mph5.0 kmh 30.54 in1034.2 mb 0.00 in0.0 mm 0.00 in/hr0.0 mm/hr 0.00 in0.0 mm
09:07 AM 72.3°F22.4°C 69.6°F20.9°C 91% Calm Calm 3.1 mph5.0 kmh 30.55 in1034.5 mb 0.00 in0.0 mm 0.00 in/hr0.0 mm/hr 0.00 in0.0 mm
09:08 AM 72.3°F22.4°C 69.6°F20.9°C 91% Calm Calm 3.1 mph5.0 kmh 30.54 in1034.2 mb 0.00 in0.0 mm 0.00 in/hr0.0 mm/hr 0.00 in0.0 mm
09:09 AM 72.7°F22.6°C 69.9°F21.1°C 91% 2.2 mph W3.5 kmh W 3.8 mph6.1 kmh 30.54 in1034.2 mb 0.00 in0.0 mm 0.00 in/hr0.0 mm/hr 0.00 in0.0 mm
09:10 AM 73.4°F23.0°C 69.7°F20.9°C 88% 2.2 mph SW3.5 kmh SW 3.8 mph6.1 kmh 30.54 in1034.2 mb 0.00 in0.0 mm 0.00 in/hr0.0 mm/hr 0.00 in0.0 mm
09:11 AM 73.0°F22.8°C 69.0°F20.6°C 87% Calm Calm 3.8 mph6.1 kmh 30.55 in1034.5 mb 0.00 in0.0 mm 0.00 in/hr0.0 mm/hr 0.00 in0.0 mm
09:12 AM 73.4°F23.0°C 69.3°F20.7°C 87% Calm Calm 3.8 mph6.1 kmh 30.54 in1034.2 mb 0.00 in0.0 mm 0.00 in/hr0.0 mm/hr 0.00 in0.0 mm
09:13 AM 73.9°F23.3°C 69.9°F21.1°C 87% Calm Calm 3.8 mph6.1 kmh 30.55 in1034.5 mb 0.00 in0.0 mm 0.00 in/hr0.0 mm/hr 0.00 in0.0 mm
09:14 AM 74.7°F23.7°C 70.2°F21.2°C 86% Calm Calm 3.8 mph6.1 kmh 30.55 in1034.5 mb 0.00 in0.0 mm 0.00 in/hr0.0 mm/hr 0.00 in0.0 mm
09:15 AM 75.2°F24.0°C 70.4°F21.3°C 85% Calm Calm 3.8 mph6.1 kmh 30.55 in1034.5 mb 0.00 in0.0 mm 0.00 in/hr0.0 mm/hr 0.00 in0.0 mm
09:16 AM 75.2°F24.0°C 69.7°F20.9°C 83% 0.7 mph SSW1.1 kmh SSW 3.8 mph6.1 kmh 30.55 in1034.5 mb 0.00 in0.0 mm 0.00 in/hr0.0 mm/hr 0.00 in0.0 mm
09:17 AM 75.9°F24.4°C 70.4°F21.3°C 83% 0.7 mph S1.1 kmh S 3.8 mph6.1 kmh 30.55 in1034.5 mb 0.00 in0.0 mm 0.00 in/hr0.0 mm/hr 0.00 in0.0 mm
09:18 AM 76.3°F24.6°C 70.4°F21.3°C 82% Calm Calm 3.8 mph6.1 kmh 30.54 in1034.2 mb 0.00 in0.0 mm 0.00 in/hr0.0 mm/hr 0.00 in0.0 mm
09:19 AM 76.6°F24.8°C 70.4°F21.3°C 81% Calm Calm 3.1 mph5.0 kmh 30.55 in1034.5 mb 0.00 in0.0 mm 0.00 in/hr0.0 mm/hr 0.00 in0.0 mm
09:20 AM 76.8°F24.9°C 70.6°F21.4°C 81% 1.6 mph SSW2.6 kmh SSW 3.1 mph5.0 kmh 30.54 in1034.2 mb 0.00 in0.0 mm 0.00 in/hr0.0 mm/hr 0.00 in0.0 mm
09:21 AM 76.5°F24.7°C 69.9°F21.1°C 80% 2.2 mph S3.5 kmh S 3.8 mph6.1 kmh 30.54 in1034.2 mb 0.00 in0.0 mm 0.00 in/hr0.0 mm/hr 0.00 in0.0 mm
09:22 AM 75.2°F24.0°C 67.9°F19.9°C 78% Calm Calm 3.8 mph6.1 kmh 30.54 in1034.2 mb 0.00 in0.0 mm 0.00 in/hr0.0 mm/hr 0.00 in0.0 mm
09:23 AM 74.8°F23.8°C 67.6°F19.8°C 78% Calm Calm 3.8 mph6.1 kmh 30.54 in1034.2 mb 0.00 in0.0 mm 0.00 in/hr0.0 mm/hr 0.00 in0.0 mm
09:24 AM 74.5°F23.6°C 67.9°F19.9°C 80% Calm Calm 3.8 mph6.1 kmh 30.54 in1034.2 mb 0.00 in0.0 mm 0.00 in/hr0.0 mm/hr 0.00 in0.0 mm
09:25 AM 73.9°F23.3°C 67.4°F19.7°C 80% Calm Calm 3.8 mph6.1 kmh 30.55 in1034.5 mb 0.00 in0.0 mm 0.00 in/hr0.0 mm/hr 0.00 in0.0 mm
09:26 AM 74.5°F23.6°C 68.3°F20.2°C 81% Calm Calm 3.8 mph6.1 kmh 30.54 in1034.2 mb 0.00 in0.0 mm 0.00 in/hr0.0 mm/hr 0.00 in0.0 mm
09:27 AM 74.8°F23.8°C 69.0°F20.6°C 82% Calm Calm 3.8 mph6.1 kmh 30.54 in1034.2 mb 0.00 in0.0 mm 0.00 in/hr0.0 mm/hr 0.00 in0.0 mm
09:28 AM 75.4°F24.1°C 69.5°F20.8°C 82% Calm Calm 3.8 mph6.1 kmh 30.54 in1034.2 mb 0.00 in0.0 mm 0.00 in/hr0.0 mm/hr 0.00 in0.0 mm
09:29 AM 75.2°F24.0°C 69.0°F20.6°C 81% Calm Calm 3.8 mph6.1 kmh 30.55 in1034.5 mb 0.00 in0.0 mm 0.00 in/hr0.0 mm/hr 0.00 in0.0 mm
09:30 AM 74.8°F23.8°C 68.7°F20.4°C 81% Calm Calm 3.8 mph6.1 kmh 30.54 in1034.2 mb 0.00 in0.0 mm 0.00 in/hr0.0 mm/hr 0.00 in0.0 mm
09:31 AM 73.9°F23.3°C 67.8°F19.9°C 81% 0.7 mph NW1.1 kmh NW 2.2 mph3.5 kmh 30.54 in1034.2 mb 0.00 in0.0 mm 0.00 in/hr0.0 mm/hr 0.00 in0.0 mm
09:32 AM 74.5°F23.6°C 68.7°F20.4°C 82% Calm Calm 1.6 mph2.6 kmh 30.55 in1034.5 mb 0.00 in0.0 mm 0.00 in/hr0.0 mm/hr 0.00 in0.0 mm
09:33 AM 74.5°F23.6°C 68.7°F20.4°C 82% 0.7 mph NW1.1 kmh NW 2.2 mph3.5 kmh 30.55 in1034.5 mb 0.00 in0.0 mm 0.00 in/hr0.0 mm/hr 0.00 in0.0 mm
09:34 AM 73.4°F23.0°C 67.6°F19.8°C 82% 1.6 mph NW2.6 kmh NW 3.1 mph5.0 kmh 30.55 in1034.5 mb 0.00 in0.0 mm 0.00 in/hr0.0 mm/hr 0.00 in0.0 mm
09:35 AM 73.2°F22.9°C 67.1°F19.5°C 81% 1.6 mph NW2.6 kmh NW 3.1 mph5.0 kmh 30.55 in1034.5 mb 0.00 in0.0 mm 0.00 in/hr0.0 mm/hr 0.00 in0.0 mm
09:36 AM 72.9°F22.7°C 67.1°F19.5°C 82% 0.7 mph NW1.1 kmh NW 3.1 mph5.0 kmh 30.55 in1034.5 mb 0.00 in0.0 mm 0.00 in/hr0.0 mm/hr 0.00 in0.0 mm
09:37 AM 73.4°F23.0°C 68.0°F20.0°C 83% Calm Calm 3.1 mph5.0 kmh 30.55 in1034.5 mb 0.00 in0.0 mm 0.00 in/hr0.0 mm/hr 0.00 in0.0 mm
09:38 AM 73.9°F23.3°C 69.2°F20.7°C 85% Calm Calm 3.1 mph5.0 kmh 30.55 in1034.5 mb 0.00 in0.0 mm 0.00 in/hr0.0 mm/hr 0.00 in0.0 mm
09:39 AM 73.8°F23.2°C 69.0°F20.6°C 85% 0.7 mph NW1.1 kmh NW 3.1 mph5.0 kmh 30.55 in1034.5 mb 0.00 in0.0 mm 0.00 in/hr0.0 mm/hr 0.00 in0.0 mm
09:40 AM 73.9°F23.3°C 69.2°F20.7°C 85% Calm Calm 3.1 mph5.0 kmh 30.55 in1034.5 mb 0.00 in0.0 mm 0.00 in/hr0.0 mm/hr 0.00 in0.0 mm
09:41 AM 74.3°F23.5°C 69.5°F20.8°C 85% Calm Calm 3.1 mph5.0 kmh 30.54 in1034.2 mb 0.00 in0.0 mm 0.00 in/hr0.0 mm/hr 0.00 in0.0 mm
09:42 AM 73.8°F23.2°C 69.0°F20.6°C 85% 1.6 mph NW2.6 kmh NW 3.1 mph5.0 kmh 30.55 in1034.5 mb 0.00 in0.0 mm 0.00 in/hr0.0 mm/hr 0.00 in0.0 mm
09:43 AM 73.6°F23.1°C 68.8°F20.4°C 85% 0.7 mph NW1.1 kmh NW 3.1 mph5.0 kmh 30.55 in1034.5 mb 0.00 in0.0 mm 0.00 in/hr0.0 mm/hr 0.00 in0.0 mm
09:44 AM 73.9°F23.3°C 69.2°F20.7°C 85% Calm Calm 3.1 mph5.0 kmh 30.55 in1034.5 mb 0.00 in0.0 mm 0.00 in/hr0.0 mm/hr 0.00 in0.0 mm
09:45 AM 73.9°F23.3°C 69.2°F20.7°C 85% 0.7 mph NNW1.1 kmh NNW 3.1 mph5.0 kmh 30.55 in1034.5 mb 0.00 in0.0 mm 0.00 in/hr0.0 mm/hr 0.00 in0.0 mm
09:46 AM 73.9°F23.3°C 69.2°F20.7°C 85% 1.6 mph NNW2.6 kmh NNW 3.1 mph5.0 kmh 30.55 in1034.5 mb 0.00 in0.0 mm 0.00 in/hr0.0 mm/hr 0.00 in0.0 mm
09:47 AM 74.5°F23.6°C 69.0°F20.6°C 83% Calm Calm 3.1 mph5.0 kmh 30.55 in1034.5 mb 0.00 in0.0 mm 0.00 in/hr0.0 mm/hr 0.00 in0.0 mm
09:48 AM 74.8°F23.8°C 69.4°F20.8°C 83% Calm Calm 3.1 mph5.0 kmh 30.55 in1034.5 mb 0.00 in0.0 mm 0.00 in/hr0.0 mm/hr 0.00 in0.0 mm
09:49 AM 76.3°F24.6°C 70.4°F21.3°C 82% Calm Calm 3.1 mph5.0 kmh 30.55 in1034.5 mb 0.00 in0.0 mm 0.00 in/hr0.0 mm/hr 0.00 in0.0 mm
09:50 AM 75.0°F23.9°C 69.2°F20.7°C 82% 0.7 mph NNW1.1 kmh NNW 3.1 mph5.0 kmh 30.55 in1034.5 mb 0.00 in0.0 mm 0.00 in/hr0.0 mm/hr 0.00 in0.0 mm
09:51 AM 75.0°F23.9°C 69.2°F20.7°C 82% Calm Calm 3.1 mph5.0 kmh 30.55 in1034.5 mb 0.00 in0.0 mm 0.00 in/hr0.0 mm/hr 0.00 in0.0 mm
09:52 AM 75.4°F24.1°C 69.2°F20.7°C 81% Calm Calm 3.1 mph5.0 kmh 30.55 in1034.5 mb 0.00 in0.0 mm 0.00 in/hr0.0 mm/hr 0.00 in0.0 mm
09:53 AM 76.1°F24.5°C 69.9°F21.1°C 81% Calm Calm 3.1 mph5.0 kmh 30.55 in1034.5 mb 0.00 in0.0 mm 0.00 in/hr0.0 mm/hr 0.00 in0.0 mm
09:54 AM 76.5°F24.7°C 69.9°F21.1°C 80% Calm Calm 3.1 mph5.0 kmh 30.55 in1034.5 mb 0.00 in0.0 mm 0.00 in/hr0.0 mm/hr 0.00 in0.0 mm
09:55 AM 77.2°F25.1°C 69.8°F21.0°C 78% Calm Calm 3.1 mph5.0 kmh 30.55 in1034.5 mb 0.00 in0.0 mm 0.00 in/hr0.0 mm/hr 0.00 in0.0 mm
09:56 AM 77.5°F25.3°C 70.2°F21.2°C 78% Calm Calm 2.2 mph3.5 kmh 30.55 in1034.5 mb 0.00 in0.0 mm 0.00 in/hr0.0 mm/hr 0.00 in0.0 mm
09:57 AM 77.5°F25.3°C 69.8°F21.0°C 77% Calm Calm 2.2 mph3.5 kmh 30.55 in1034.5 mb 0.00 in0.0 mm 0.00 in/hr0.0 mm/hr 0.00 in0.0 mm
09:58 AM 78.8°F26.0°C 69.5°F20.8°C 73% Calm Calm 2.2 mph3.5 kmh 30.55 in1034.5 mb 0.00 in0.0 mm 0.00 in/hr0.0 mm/hr 0.00 in0.0 mm
09:59 AM 78.6°F25.9°C 69.3°F20.7°C 73% Calm Calm 2.2 mph3.5 kmh 30.55 in1034.5 mb 0.00 in0.0 mm 0.00 in/hr0.0 mm/hr 0.00 in0.0 mm
10:00 AM 78.3°F25.7°C 68.5°F20.3°C 72% Calm Calm 2.2 mph3.5 kmh 30.55 in1034.5 mb 0.00 in0.0 mm 0.00 in/hr0.0 mm/hr 0.00 in0.0 mm
10:01 AM 78.6°F25.9°C 68.5°F20.3°C 71% Calm Calm -- 30.55 in1034.5 mb 0.00 in0.0 mm 0.00 in/hr0.0 mm/hr 0.00 in0.0 mm
10:02 AM 78.6°F25.9°C 68.1°F20.1°C 70% Calm Calm -- 30.55 in1034.5 mb 0.00 in0.0 mm 0.00 in/hr0.0 mm/hr 0.00 in0.0 mm
10:03 AM 78.1°F25.6°C 66.7°F19.3°C 68% Calm Calm -- 30.55 in1034.5 mb 0.00 in0.0 mm 0.00 in/hr0.0 mm/hr 0.00 in0.0 mm
10:04 AM 78.6°F25.9°C 67.2°F19.6°C 68% Calm Calm -- 30.55 in1034.5 mb 0.00 in0.0 mm 0.00 in/hr0.0 mm/hr 0.00 in0.0 mm
10:05 AM 78.8°F26.0°C 66.5°F19.2°C 66% 1.6 mph E2.6 kmh E 3.1 mph5.0 kmh 30.55 in1034.5 mb 0.00 in0.0 mm 0.00 in/hr0.0 mm/hr 0.00 in0.0 mm
10:06 AM 77.9°F25.5°C 66.1°F18.9°C 67% 1.6 mph E2.6 kmh E 3.1 mph5.0 kmh 30.55 in1034.5 mb 0.00 in0.0 mm 0.00 in/hr0.0 mm/hr 0.00 in0.0 mm
10:07 AM 78.4°F25.8°C 67.0°F19.4°C 68% Calm Calm 3.1 mph5.0 kmh 30.55 in1034.5 mb 0.00 in0.0 mm 0.00 in/hr0.0 mm/hr 0.00 in0.0 mm
10:08 AM 78.8°F26.0°C 67.0°F19.4°C 67% Calm Calm 3.1 mph5.0 kmh 30.55 in1034.5 mb 0.00 in0.0 mm 0.00 in/hr0.0 mm/hr 0.00 in0.0 mm
10:09 AM 79.9°F26.6°C 67.6°F19.8°C 66% Calm Calm 3.1 mph5.0 kmh 30.55 in1034.5 mb 0.00 in0.0 mm 0.00 in/hr0.0 mm/hr 0.00 in0.0 mm
10:10 AM 80.2°F26.8°C 67.5°F19.7°C 65% Calm Calm 3.1 mph5.0 kmh 30.55 in1034.5 mb 0.00 in0.0 mm 0.00 in/hr0.0 mm/hr 0.00 in0.0 mm
10:11 AM 80.4°F26.9°C 67.6°F19.8°C 65% Calm Calm 3.1 mph5.0 kmh 30.55 in1034.5 mb 0.00 in0.0 mm 0.00 in/hr0.0 mm/hr 0.00 in0.0 mm
10:12 AM 79.9°F26.6°C 67.1°F19.5°C 65% 0.7 mph ESE1.1 kmh ESE 3.1 mph5.0 kmh 30.55 in1034.5 mb 0.00 in0.0 mm 0.00 in/hr0.0 mm/hr 0.00 in0.0 mm
10:13 AM 79.2°F26.2°C 65.1°F18.4°C 62% 2.2 mph E3.5 kmh E 3.1 mph5.0 kmh 30.55 in1034.5 mb 0.00 in0.0 mm 0.00 in/hr0.0 mm/hr 0.00 in0.0 mm
10:14 AM 78.1°F25.6°C 64.0°F17.8°C 62% 1.6 mph E2.6 kmh E 3.1 mph5.0 kmh 30.55 in1034.5 mb 0.00 in0.0 mm 0.00 in/hr0.0 mm/hr 0.00 in0.0 mm
10:15 AM 78.3°F25.7°C 63.7°F17.6°C 61% 0.7 mph E1.1 kmh E 3.1 mph5.0 kmh 30.55 in1034.5 mb 0.00 in0.0 mm 0.00 in/hr0.0 mm/hr 0.00 in0.0 mm
10:16 AM 78.1°F25.6°C 63.6°F17.6°C 61% 1.6 mph E2.6 kmh E 3.1 mph5.0 kmh 30.55 in1034.5 mb 0.00 in0.0 mm 0.00 in/hr0.0 mm/hr 0.00 in0.0 mm
10:17 AM 79.7°F26.5°C 64.6°F18.1°C 60% 0.7 mph E1.1 kmh E 3.1 mph5.0 kmh 30.55 in1034.5 mb 0.00 in0.0 mm 0.00 in/hr0.0 mm/hr 0.00 in0.0 mm
10:18 AM 79.5°F26.4°C 64.5°F18.1°C 60% 0.7 mph ENE1.1 kmh ENE 3.1 mph5.0 kmh 30.55 in1034.5 mb 0.00 in0.0 mm 0.00 in/hr0.0 mm/hr 0.00 in0.0 mm
10:19 AM 79.9°F26.6°C 63.8°F17.7°C 58% Calm Calm 3.1 mph5.0 kmh 30.55 in1034.5 mb 0.00 in0.0 mm 0.00 in/hr0.0 mm/hr 0.00 in0.0 mm
10:20 AM 80.1°F26.7°C 64.0°F17.8°C 58% Calm Calm 3.1 mph5.0 kmh 30.55 in1034.5 mb 0.00 in0.0 mm 0.00 in/hr0.0 mm/hr 0.00 in0.0 mm
10:21 AM 80.6°F27.0°C 64.0°F17.8°C 57% Calm Calm 3.1 mph5.0 kmh 30.55 in1034.5 mb 0.00 in0.0 mm 0.00 in/hr0.0 mm/hr 0.00 in0.0 mm
10:22 AM 81.5°F27.5°C 64.8°F18.2°C 57% Calm Calm 3.1 mph5.0 kmh 30.55 in1034.5 mb 0.00 in0.0 mm 0.00 in/hr0.0 mm/hr 0.00 in0.0 mm
10:23 AM 82.0°F27.8°C 64.8°F18.2°C 56% Calm Calm 3.1 mph5.0 kmh 30.55 in1034.5 mb 0.00 in0.0 mm 0.00 in/hr0.0 mm/hr 0.00 in0.0 mm
10:24 AM 82.4°F28.0°C 65.2°F18.4°C 56% 1.6 mph ENE2.6 kmh ENE 3.1 mph5.0 kmh 30.56 in1034.9 mb 0.00 in0.0 mm 0.00 in/hr0.0 mm/hr 0.00 in0.0 mm
10:25 AM 81.3°F27.4°C 63.7°F17.6°C 55% 2.2 mph ENE3.5 kmh ENE 6.0 mph9.7 kmh 30.55 in1034.5 mb 0.00 in0.0 mm 0.00 in/hr0.0 mm/hr 0.00 in0.0 mm
10:26 AM 80.2°F26.8°C 62.7°F17.1°C 55% 2.2 mph ENE3.5 kmh ENE 6.0 mph9.7 kmh 30.55 in1034.5 mb 0.00 in0.0 mm 0.00 in/hr0.0 mm/hr 0.00 in0.0 mm
10:27 AM 79.2°F26.2°C 60.6°F15.9°C 53% 2.2 mph NE3.5 kmh NE 6.0 mph9.7 kmh 30.56 in1034.9 mb 0.00 in0.0 mm 0.00 in/hr0.0 mm/hr 0.00 in0.0 mm
10:28 AM 79.9°F26.6°C 61.3°F16.3°C 53% 2.2 mph ENE3.5 kmh ENE 6.0 mph9.7 kmh 30.56 in1034.9 mb 0.00 in0.0 mm 0.00 in/hr0.0 mm/hr 0.00 in0.0 mm
10:29 AM 80.4°F26.9°C 61.2°F16.2°C 52% 2.2 mph ENE3.5 kmh ENE 6.0 mph9.7 kmh 30.55 in1034.5 mb 0.00 in0.0 mm 0.00 in/hr0.0 mm/hr 0.00 in0.0 mm
10:30 AM 81.7°F27.6°C 61.3°F16.3°C 50% 1.6 mph ENE2.6 kmh ENE 6.0 mph9.7 kmh 30.56 in1034.9 mb 0.00 in0.0 mm 0.00 in/hr0.0 mm/hr 0.00 in0.0 mm
10:31 AM 81.7°F27.6°C 61.3°F16.3°C 50% 3.1 mph ENE5.0 kmh ENE 6.0 mph9.7 kmh 30.56 in1034.9 mb 0.00 in0.0 mm 0.00 in/hr0.0 mm/hr 0.00 in0.0 mm
10:32 AM 80.1°F26.7°C 59.8°F15.4°C 50% 4.5 mph NE7.2 kmh NE 6.0 mph9.7 kmh 30.55 in1034.5 mb 0.00 in0.0 mm 0.00 in/hr0.0 mm/hr 0.00 in0.0 mm
10:33 AM 78.1°F25.6°C 60.6°F15.9°C 55% Calm Calm 6.0 mph9.7 kmh 30.56 in1034.9 mb 0.00 in0.0 mm 0.00 in/hr0.0 mm/hr 0.00 in0.0 mm
10:34 AM 79.5°F26.4°C 62.0°F16.7°C 55% Calm Calm 6.0 mph9.7 kmh 30.56 in1034.9 mb 0.00 in0.0 mm 0.00 in/hr0.0 mm/hr 0.00 in0.0 mm
10:35 AM 80.1°F26.7°C 62.5°F16.9°C 55% 0.7 mph NE1.1 kmh NE 6.0 mph9.7 kmh 30.55 in1034.5 mb 0.00 in0.0 mm 0.00 in/hr0.0 mm/hr 0.00 in0.0 mm
10:36 AM 80.2°F26.8°C 63.2°F17.3°C 56% 0.7 mph NE1.1 kmh NE 6.0 mph9.7 kmh 30.56 in1034.9 mb 0.00 in0.0 mm 0.00 in/hr0.0 mm/hr 0.00 in0.0 mm
10:37 AM 81.3°F27.4°C 62.6°F17.0°C 53% 0.7 mph NE1.1 kmh NE 6.0 mph9.7 kmh 30.55 in1034.5 mb 0.00 in0.0 mm 0.00 in/hr0.0 mm/hr 0.00 in0.0 mm
10:38 AM 81.9°F27.7°C 63.1°F17.3°C 53% 1.6 mph NE2.6 kmh NE 6.0 mph9.7 kmh 30.55 in1034.5 mb 0.00 in0.0 mm 0.00 in/hr0.0 mm/hr 0.00 in0.0 mm
10:39 AM 81.1°F27.3°C 61.3°F16.3°C 51% 2.2 mph NE3.5 kmh NE 6.0 mph9.7 kmh 30.56 in1034.9 mb 0.00 in0.0 mm 0.00 in/hr0.0 mm/hr 0.00 in0.0 mm
10:40 AM 80.4°F26.9°C 61.8°F16.6°C 53% 2.2 mph NE3.5 kmh NE 6.0 mph9.7 kmh 30.56 in1034.9 mb 0.00 in0.0 mm 0.00 in/hr0.0 mm/hr 0.00 in0.0 mm
10:41 AM 81.1°F27.3°C 62.4°F16.9°C 53% Calm Calm 6.0 mph9.7 kmh 30.55 in1034.5 mb 0.00 in0.0 mm 0.00 in/hr0.0 mm/hr 0.00 in0.0 mm
10:42 AM 81.1°F27.3°C 62.4°F16.9°C 53% 1.6 mph ENE2.6 kmh ENE 4.5 mph7.2 kmh 30.55 in1034.5 mb 0.00 in0.0 mm 0.00 in/hr0.0 mm/hr 0.00 in0.0 mm
10:43 AM 80.8°F27.1°C 62.1°F16.7°C 53% 2.2 mph ENE3.5 kmh ENE 3.8 mph6.1 kmh 30.55 in1034.5 mb 0.00 in0.0 mm 0.00 in/hr0.0 mm/hr 0.00 in0.0 mm
10:44 AM 80.1°F26.7°C 62.5°F16.9°C 55% 2.2 mph NE3.5 kmh NE 5.4 mph8.7 kmh 30.55 in1034.5 mb 0.00 in0.0 mm 0.00 in/hr0.0 mm/hr 0.00 in0.0 mm
10:45 AM 79.7°F26.5°C 62.1°F16.7°C 55% 3.1 mph ENE5.0 kmh ENE 5.4 mph8.7 kmh 30.56 in1034.9 mb 0.00 in0.0 mm 0.00 in/hr0.0 mm/hr 0.00 in0.0 mm
10:46 AM 79.9°F26.6°C 62.3°F16.8°C 55% 5.4 mph ENE8.7 kmh ENE 6.9 mph11.1 kmh 30.56 in1034.9 mb 0.00 in0.0 mm 0.00 in/hr0.0 mm/hr 0.00 in0.0 mm
10:47 AM 78.3°F25.7°C 60.8°F16.0°C 55% 0.7 mph ENE1.1 kmh ENE 6.9 mph11.1 kmh 30.56 in1034.9 mb 0.00 in0.0 mm 0.00 in/hr0.0 mm/hr 0.00 in0.0 mm
10:48 AM 79.0°F26.1°C 62.0°F16.7°C 56% 3.1 mph ENE5.0 kmh ENE 6.9 mph11.1 kmh 30.56 in1034.9 mb 0.00 in0.0 mm 0.00 in/hr0.0 mm/hr 0.00 in0.0 mm
10:49 AM 79.5°F26.4°C 62.5°F16.9°C 56% 2.2 mph ENE3.5 kmh ENE 6.9 mph11.1 kmh 30.56 in1034.9 mb 0.00 in0.0 mm 0.00 in/hr0.0 mm/hr 0.00 in0.0 mm
10:50 AM 79.0°F26.1°C 62.0°F16.7°C 56% 3.1 mph ENE5.0 kmh ENE 6.9 mph11.1 kmh 30.56 in1034.9 mb 0.00 in0.0 mm 0.00 in/hr0.0 mm/hr 0.00 in0.0 mm
10:51 AM 79.2°F26.2°C 62.2°F16.8°C 56% 2.2 mph ENE3.5 kmh ENE 6.9 mph11.1 kmh 30.56 in1034.9 mb 0.00 in0.0 mm 0.00 in/hr0.0 mm/hr 0.00 in0.0 mm
10:52 AM 78.8°F26.0°C 61.3°F16.3°C 55% 1.6 mph ENE2.6 kmh ENE 6.9 mph11.1 kmh 30.56 in1034.9 mb 0.00 in0.0 mm 0.00 in/hr0.0 mm/hr 0.00 in0.0 mm
10:53 AM 79.5°F26.4°C 62.5°F16.9°C 56% 1.6 mph ENE2.6 kmh ENE 6.9 mph11.1 kmh 30.56 in1034.9 mb 0.00 in0.0 mm 0.00 in/hr0.0 mm/hr 0.00 in0.0 mm
10:54 AM 79.9°F26.6°C 63.3°F17.4°C 57% 3.8 mph NE6.1 kmh NE 6.9 mph11.1 kmh 30.56 in1034.9 mb 0.00 in0.0 mm 0.00 in/hr0.0 mm/hr 0.00 in0.0 mm
10:55 AM 80.1°F26.7°C 63.0°F17.2°C 56% 5.4 mph NE8.7 kmh NE 7.6 mph12.2 kmh 30.56 in1034.9 mb 0.00 in0.0 mm 0.00 in/hr0.0 mm/hr 0.00 in0.0 mm
10:56 AM 79.7°F26.5°C 62.7°F17.1°C 56% 5.4 mph NE8.7 kmh NE 7.6 mph12.2 kmh 30.55 in1034.5 mb 0.00 in0.0 mm 0.00 in/hr0.0 mm/hr 0.00 in0.0 mm
10:57 AM 79.2°F26.2°C 61.6°F16.4°C 55% 2.2 mph NE3.5 kmh NE 7.6 mph12.2 kmh 30.55 in1034.5 mb 0.00 in0.0 mm 0.00 in/hr0.0 mm/hr 0.00 in0.0 mm
10:58 AM 79.3°F26.3°C 61.8°F16.6°C 55% 4.5 mph NE7.2 kmh NE 7.6 mph12.2 kmh 30.55 in1034.5 mb 0.00 in0.0 mm 0.00 in/hr0.0 mm/hr 0.00 in0.0 mm
10:59 AM 79.3°F26.3°C 61.8°F16.6°C 55% 4.5 mph NE7.2 kmh NE 7.6 mph12.2 kmh 30.55 in1034.5 mb 0.00 in0.0 mm 0.00 in/hr0.0 mm/hr 0.00 in0.0 mm
11:00 AM 79.5°F26.4°C 62.5°F16.9°C 56% 2.2 mph ENE3.5 kmh ENE 7.6 mph12.2 kmh 30.56 in1034.9 mb 0.00 in0.0 mm 0.00 in/hr0.0 mm/hr 0.00 in0.0 mm
11:01 AM 80.8°F27.1°C 62.1°F16.7°C 53% Calm Calm 7.6 mph12.2 kmh 30.56 in1034.9 mb 0.00 in0.0 mm 0.00 in/hr0.0 mm/hr 0.00 in0.0 mm
11:02 AM 81.7°F27.6°C 62.9°F17.2°C 53% 0.7 mph ENE1.1 kmh ENE 7.6 mph12.2 kmh 30.55 in1034.5 mb 0.00 in0.0 mm 0.00 in/hr0.0 mm/hr 0.00 in0.0 mm
11:03 AM 82.0°F27.8°C 63.3°F17.4°C 53% 2.2 mph ENE3.5 kmh ENE 7.6 mph12.2 kmh 30.55 in1034.5 mb 0.00 in0.0 mm 0.00 in/hr0.0 mm/hr 0.00 in0.0 mm
11:04 AM 81.1°F27.3°C 61.9°F16.6°C 52% 1.6 mph ENE2.6 kmh ENE 7.6 mph12.2 kmh 30.55 in1034.5 mb 0.00 in0.0 mm 0.00 in/hr0.0 mm/hr 0.00 in0.0 mm
11:05 AM 80.8°F27.1°C 61.6°F16.4°C 52% 0.7 mph ENE1.1 kmh ENE 7.6 mph12.2 kmh 30.55 in1034.5 mb 0.00 in0.0 mm 0.00 in/hr0.0 mm/hr 0.00 in0.0 mm
11:06 AM 80.6°F27.0°C 60.8°F16.0°C 51% 0.7 mph ENE1.1 kmh ENE 6.0 mph9.7 kmh 30.55 in1034.5 mb 0.00 in0.0 mm 0.00 in/hr0.0 mm/hr 0.00 in0.0 mm
11:07 AM 81.0°F27.2°C 60.6°F15.9°C 50% Calm Calm 6.0 mph9.7 kmh 30.55 in1034.5 mb 0.00 in0.0 mm 0.00 in/hr0.0 mm/hr 0.00 in0.0 mm
11:08 AM 81.3°F27.4°C 61.5°F16.4°C 51% 2.2 mph NE3.5 kmh NE 6.0 mph9.7 kmh 30.55 in1034.5 mb 0.00 in0.0 mm 0.00 in/hr0.0 mm/hr 0.00 in0.0 mm
11:09 AM 81.1°F27.3°C 61.9°F16.6°C 52% 1.6 mph NE2.6 kmh NE 6.0 mph9.7 kmh 30.55 in1034.5 mb 0.00 in0.0 mm 0.00 in/hr0.0 mm/hr 0.00 in0.0 mm
11:10 AM 81.3°F27.4°C 62.6°F17.0°C 53% 2.2 mph NE3.5 kmh NE 3.8 mph6.1 kmh 30.55 in1034.5 mb 0.00 in0.0 mm 0.00 in/hr0.0 mm/hr 0.00 in0.0 mm
11:11 AM 81.1°F27.3°C 62.4°F16.9°C 53% 3.1 mph NE5.0 kmh NE 4.5 mph7.2 kmh 30.55 in1034.5 mb 0.00 in0.0 mm 0.00 in/hr0.0 mm/hr 0.00 in0.0 mm
11:12 AM 80.4°F26.9°C 61.8°F16.6°C 53% 3.1 mph NE5.0 kmh NE 5.4 mph8.7 kmh 30.55 in1034.5 mb 0.00 in0.0 mm 0.00 in/hr0.0 mm/hr 0.00 in0.0 mm
11:13 AM 80.6°F27.0°C 61.9°F16.6°C 53% 1.6 mph NE2.6 kmh NE 5.4 mph8.7 kmh 30.55 in1034.5 mb 0.00 in0.0 mm 0.00 in/hr0.0 mm/hr 0.00 in0.0 mm
11:14 AM 81.7°F27.6°C 62.9°F17.2°C 53% Calm Calm 5.4 mph8.7 kmh 30.55 in1034.5 mb 0.00 in0.0 mm 0.00 in/hr0.0 mm/hr 0.00 in0.0 mm
11:15 AM 82.2°F27.9°C 63.4°F17.4°C 53% Calm Calm 5.4 mph8.7 kmh 30.55 in1034.5 mb 0.00 in0.0 mm 0.00 in/hr0.0 mm/hr 0.00 in0.0 mm
11:16 AM 82.4°F28.0°C 63.1°F17.3°C 52% Calm Calm 5.4 mph8.7 kmh 30.55 in1034.5 mb 0.00 in0.0 mm 0.00 in/hr0.0 mm/hr 0.00 in0.0 mm
11:17 AM 82.4°F28.0°C 62.5°F16.9°C 51% 2.2 mph NE3.5 kmh NE 5.4 mph8.7 kmh 30.55 in1034.5 mb 0.00 in0.0 mm 0.00 in/hr0.0 mm/hr 0.00 in0.0 mm
11:18 AM 82.4°F28.0°C 61.9°F16.6°C 50% 1.6 mph NE2.6 kmh NE 5.4 mph8.7 kmh 30.55 in1034.5 mb 0.00 in0.0 mm 0.00 in/hr0.0 mm/hr 0.00 in0.0 mm
11:19 AM 82.8°F28.2°C 62.3°F16.8°C 50% 2.2 mph NE3.5 kmh NE 6.0 mph9.7 kmh 30.55 in1034.5 mb 0.00 in0.0 mm 0.00 in/hr0.0 mm/hr 0.00 in0.0 mm
11:20 AM 82.8°F28.2°C 62.8°F17.1°C 51% 4.5 mph NE7.2 kmh NE 6.0 mph9.7 kmh 30.55 in1034.5 mb 0.00 in0.0 mm 0.00 in/hr0.0 mm/hr 0.00 in0.0 mm
11:21 AM 81.0°F27.2°C 61.2°F16.2°C 51% 4.5 mph NE7.2 kmh NE 6.9 mph11.1 kmh 30.55 in1034.5 mb 0.00 in0.0 mm 0.00 in/hr0.0 mm/hr 0.00 in0.0 mm
11:22 AM 80.1°F26.7°C 60.9°F16.1°C 52% 1.6 mph NE2.6 kmh NE 6.9 mph11.1 kmh 30.55 in1034.5 mb 0.00 in0.0 mm 0.00 in/hr0.0 mm/hr 0.00 in0.0 mm
11:23 AM 80.6°F27.0°C 61.4°F16.3°C 52% 0.7 mph NE1.1 kmh NE 6.9 mph11.1 kmh 30.55 in1034.5 mb 0.00 in0.0 mm 0.00 in/hr0.0 mm/hr 0.00 in0.0 mm
11:24 AM 81.3°F27.4°C 62.1°F16.7°C 52% 3.8 mph NE6.1 kmh NE 6.9 mph11.1 kmh 30.55 in1034.5 mb 0.00 in0.0 mm 0.00 in/hr0.0 mm/hr 0.00 in0.0 mm
11:25 AM 81.7°F27.6°C 62.4°F16.9°C 52% 0.7 mph ENE1.1 kmh ENE 6.9 mph11.1 kmh 30.55 in1034.5 mb 0.00 in0.0 mm 0.00 in/hr0.0 mm/hr 0.00 in0.0 mm
11:26 AM 82.4°F28.0°C 62.5°F16.9°C 51% 1.6 mph ENE2.6 kmh ENE 6.9 mph11.1 kmh 30.55 in1034.5 mb 0.00 in0.0 mm 0.00 in/hr0.0 mm/hr 0.00 in0.0 mm
11:27 AM 82.4°F28.0°C 62.5°F16.9°C 51% 1.6 mph ENE2.6 kmh ENE 6.9 mph11.1 kmh 30.55 in1034.5 mb 0.00 in0.0 mm 0.00 in/hr0.0 mm/hr 0.00 in0.0 mm
11:28 AM 82.6°F28.1°C 63.2°F17.3°C 52% 3.8 mph ENE6.1 kmh ENE 6.9 mph11.1 kmh 30.55 in1034.5 mb 0.00 in0.0 mm 0.00 in/hr0.0 mm/hr 0.00 in0.0 mm
11:29 AM 82.8°F28.2°C 62.8°F17.1°C 51% 0.7 mph ENE1.1 kmh ENE 6.9 mph11.1 kmh 30.55 in1034.5 mb 0.00 in0.0 mm 0.00 in/hr0.0 mm/hr 0.00 in0.0 mm
11:30 AM 82.9°F28.3°C 63.0°F17.2°C 51% 0.7 mph ENE1.1 kmh ENE 6.9 mph11.1 kmh 30.55 in1034.5 mb 0.00 in0.0 mm 0.00 in/hr0.0 mm/hr 0.00 in0.0 mm
11:31 AM 83.1°F28.4°C 63.2°F17.3°C 51% 2.2 mph ENE3.5 kmh ENE 6.0 mph9.7 kmh 30.55 in1034.5 mb 0.00 in0.0 mm 0.00 in/hr0.0 mm/hr 0.00 in0.0 mm
11:32 AM 82.6°F28.1°C 62.1°F16.7°C 50% 0.7 mph E1.1 kmh E 6.0 mph9.7 kmh 30.55 in1034.5 mb 0.00 in0.0 mm 0.00 in/hr0.0 mm/hr 0.00 in0.0 mm
11:33 AM 82.8°F28.2°C 62.3°F16.8°C 50% 3.1 mph ENE5.0 kmh ENE 6.0 mph9.7 kmh 30.55 in1034.5 mb 0.00 in0.0 mm 0.00 in/hr0.0 mm/hr 0.00 in0.0 mm
11:34 AM 81.5°F27.5°C 60.0°F15.6°C 48% 3.8 mph ENE6.1 kmh ENE 6.9 mph11.1 kmh 30.55 in1034.5 mb 0.00 in0.0 mm 0.00 in/hr0.0 mm/hr 0.00 in0.0 mm
11:35 AM 81.1°F27.3°C 61.3°F16.3°C 51% 4.5 mph ENE7.2 kmh ENE 6.9 mph11.1 kmh 30.55 in1034.5 mb 0.00 in0.0 mm 0.00 in/hr0.0 mm/hr 0.00 in0.0 mm
11:36 AM 80.8°F27.1°C 61.6°F16.4°C 52% 2.2 mph ENE3.5 kmh ENE 6.9 mph11.1 kmh 30.55 in1034.5 mb 0.00 in0.0 mm 0.00 in/hr0.0 mm/hr 0.00 in0.0 mm
11:37 AM 81.7°F27.6°C 62.4°F16.9°C 52% 0.7 mph ENE1.1 kmh ENE 6.9 mph11.1 kmh 30.55 in1034.5 mb 0.00 in0.0 mm 0.00 in/hr0.0 mm/hr 0.00 in0.0 mm
11:38 AM 82.6°F28.1°C 62.7°F17.1°C 51% 0.7 mph ENE1.1 kmh ENE 6.9 mph11.1 kmh 30.55 in1034.5 mb 0.00 in0.0 mm 0.00 in/hr0.0 mm/hr 0.00 in0.0 mm
11:39 AM 83.3°F28.5°C 63.3°F17.4°C 51% Calm Calm 6.9 mph11.1 kmh 30.55 in1034.5 mb 0.00 in0.0 mm 0.00 in/hr0.0 mm/hr 0.00 in0.0 mm
11:40 AM 83.8°F28.8°C 63.3°F17.4°C 50% Calm Calm 6.9 mph11.1 kmh 30.55 in1034.5 mb 0.00 in0.0 mm 0.00 in/hr0.0 mm/hr 0.00 in0.0 mm
11:41 AM 84.6°F29.2°C 62.2°F16.8°C 47% 4.5 mph ENE7.2 kmh ENE 6.9 mph11.1 kmh 30.55 in1034.5 mb 0.00 in0.0 mm 0.00 in/hr0.0 mm/hr 0.00 in0.0 mm
11:42 AM 81.7°F27.6°C 58.3°F14.6°C 45% 4.5 mph ENE7.2 kmh ENE 6.9 mph11.1 kmh 30.55 in1034.5 mb 0.00 in0.0 mm 0.00 in/hr0.0 mm/hr 0.00 in0.0 mm
11:43 AM 81.3°F27.4°C 59.2°F15.1°C 47% 4.5 mph ENE7.2 kmh ENE 7.6 mph12.2 kmh 30.55 in1034.5 mb 0.00 in0.0 mm 0.00 in/hr0.0 mm/hr 0.00 in0.0 mm
11:44 AM 81.7°F27.6°C 60.1°F15.6°C 48% 4.5 mph E7.2 kmh E 7.6 mph12.2 kmh 30.55 in1034.5 mb 0.00 in0.0 mm 0.00 in/hr0.0 mm/hr 0.00 in0.0 mm
11:45 AM 82.2°F27.9°C 61.8°F16.6°C 50% 4.5 mph E7.2 kmh E 7.6 mph12.2 kmh 30.55 in1034.5 mb 0.00 in0.0 mm 0.00 in/hr0.0 mm/hr 0.00 in0.0 mm
11:46 AM 81.3°F27.4°C 59.8°F15.4°C 48% 3.1 mph E5.0 kmh E 7.6 mph12.2 kmh 30.55 in1034.5 mb 0.00 in0.0 mm 0.00 in/hr0.0 mm/hr 0.00 in0.0 mm
11:47 AM 80.8°F27.1°C 59.3°F15.2°C 48% 1.6 mph ENE2.6 kmh ENE 7.6 mph12.2 kmh 30.55 in1034.5 mb 0.00 in0.0 mm 0.00 in/hr0.0 mm/hr 0.00 in0.0 mm
11:48 AM 81.1°F27.3°C 61.3°F16.3°C 51% 1.6 mph ENE2.6 kmh ENE 7.6 mph12.2 kmh 30.55 in1034.5 mb 0.00 in0.0 mm 0.00 in/hr0.0 mm/hr 0.00 in0.0 mm
11:49 AM 80.4°F26.9°C 60.7°F15.9°C 51% 2.2 mph ENE3.5 kmh ENE 7.6 mph12.2 kmh 30.55 in1034.5 mb 0.00 in0.0 mm 0.00 in/hr0.0 mm/hr 0.00 in0.0 mm
11:50 AM 81.1°F27.3°C 61.3°F16.3°C 51% Calm Calm 7.6 mph12.2 kmh 30.55 in1034.5 mb 0.00 in0.0 mm 0.00 in/hr0.0 mm/hr 0.00 in0.0 mm
11:51 AM 81.3°F27.4°C 60.9°F16.1°C 50% 0.7 mph NE1.1 kmh NE 7.6 mph12.2 kmh 30.55 in1034.5 mb 0.00 in0.0 mm 0.00 in/hr0.0 mm/hr 0.00 in0.0 mm
11:52 AM 81.7°F27.6°C 61.3°F16.3°C 50% 2.2 mph NE3.5 kmh NE 7.6 mph12.2 kmh 30.55 in1034.5 mb 0.00 in0.0 mm 0.00 in/hr0.0 mm/hr 0.00 in0.0 mm
11:53 AM 82.8°F28.2°C 62.8°F17.1°C 51% Calm Calm 7.6 mph12.2 kmh 30.55 in1034.5 mb 0.00 in0.0 mm 0.00 in/hr0.0 mm/hr 0.00 in0.0 mm
11:54 AM 83.7°F28.7°C 63.7°F17.6°C 51% Calm Calm 6.0 mph9.7 kmh 30.55 in1034.5 mb 0.00 in0.0 mm 0.00 in/hr0.0 mm/hr 0.00 in0.0 mm
11:55 AM 84.6°F29.2°C 62.8°F17.1°C 48% Calm Calm 6.0 mph9.7 kmh 30.55 in1034.5 mb 0.00 in0.0 mm 0.00 in/hr0.0 mm/hr 0.00 in0.0 mm
11:56 AM 85.3°F29.6°C 62.8°F17.1°C 47% Calm Calm 5.4 mph8.7 kmh 30.55 in1034.5 mb 0.00 in0.0 mm 0.00 in/hr0.0 mm/hr 0.00 in0.0 mm
11:57 AM 86.5°F30.3°C 63.4°F17.4°C 46% Calm Calm 5.4 mph8.7 kmh 30.55 in1034.5 mb 0.00 in0.0 mm 0.00 in/hr0.0 mm/hr 0.00 in0.0 mm
11:58 AM 87.3°F30.7°C 63.4°F17.4°C 45% 0.7 mph NNE1.1 kmh NNE 5.4 mph8.7 kmh 30.55 in1034.5 mb 0.00 in0.0 mm 0.00 in/hr0.0 mm/hr 0.00 in0.0 mm
11:59 AM 86.2°F30.1°C 62.4°F16.9°C 45% 3.8 mph NNE6.1 kmh NNE 6.0 mph9.7 kmh 30.55 in1034.5 mb 0.00 in0.0 mm 0.00 in/hr0.0 mm/hr 0.00 in0.0 mm
12:00 PM 84.0°F28.9°C 61.7°F16.5°C 47% 1.6 mph N2.6 kmh N 6.0 mph9.7 kmh 30.55 in1034.5 mb 0.00 in0.0 mm 0.00 in/hr0.0 mm/hr 0.00 in0.0 mm
12:01 PM 83.7°F28.7°C 61.3°F16.3°C 47% 1.6 mph N2.6 kmh N 6.0 mph9.7 kmh 30.55 in1034.5 mb 0.00 in0.0 mm 0.00 in/hr0.0 mm/hr 0.00 in0.0 mm
12:02 PM 83.5°F28.6°C 61.2°F16.2°C 47% 2.2 mph N3.5 kmh N 6.0 mph9.7 kmh 30.55 in1034.5 mb 0.00 in0.0 mm 0.00 in/hr0.0 mm/hr 0.00 in0.0 mm
12:03 PM 83.8°F28.8°C 61.5°F16.4°C 47% 1.6 mph N2.6 kmh N 6.0 mph9.7 kmh 30.55 in1034.5 mb 0.00 in0.0 mm 0.00 in/hr0.0 mm/hr 0.00 in0.0 mm
12:04 PM 83.7°F28.7°C 61.9°F16.6°C 48% 1.6 mph N2.6 kmh N 6.0 mph9.7 kmh 30.55 in1034.5 mb 0.00 in0.0 mm 0.00 in/hr0.0 mm/hr 0.00 in0.0 mm
12:05 PM 84.2°F29.0°C 61.8°F16.6°C 47% 1.6 mph N2.6 kmh N 6.0 mph9.7 kmh 30.55 in1034.5 mb 0.00 in0.0 mm 0.00 in/hr0.0 mm/hr 0.00 in0.0 mm
12:06 PM 83.3°F28.5°C 61.6°F16.4°C 48% 1.6 mph N2.6 kmh N 6.0 mph9.7 kmh 30.55 in1034.5 mb 0.00 in0.0 mm 0.00 in/hr0.0 mm/hr 0.00 in0.0 mm
12:07 PM 83.3°F28.5°C 61.6°F16.4°C 48% 2.2 mph N3.5 kmh N 6.0 mph9.7 kmh 30.55 in1034.5 mb 0.00 in0.0 mm 0.00 in/hr0.0 mm/hr 0.00 in0.0 mm
12:08 PM 83.3°F28.5°C 61.6°F16.4°C 48% 1.6 mph N2.6 kmh N 6.0 mph9.7 kmh 30.55 in1034.5 mb 0.00 in0.0 mm 0.00 in/hr0.0 mm/hr 0.00 in0.0 mm
12:09 PM 83.3°F28.5°C 61.0°F16.1°C 47% 1.6 mph N2.6 kmh N 6.0 mph9.7 kmh 30.55 in1034.5 mb 0.00 in0.0 mm 0.00 in/hr0.0 mm/hr 0.00 in0.0 mm
12:10 PM 83.5°F28.6°C 61.8°F16.6°C 48% 1.6 mph N2.6 kmh N 4.5 mph7.2 kmh 30.55 in1034.5 mb 0.00 in0.0 mm 0.00 in/hr0.0 mm/hr 0.00 in0.0 mm
12:11 PM 83.8°F28.8°C 62.1°F16.7°C 48% 1.6 mph N2.6 kmh N 4.5 mph7.2 kmh 30.55 in1034.5 mb 0.00 in0.0 mm 0.00 in/hr0.0 mm/hr 0.00 in0.0 mm
12:12 PM 83.3°F28.5°C 61.0°F16.1°C 47% 2.2 mph N3.5 kmh N 4.5 mph7.2 kmh 30.55 in1034.5 mb 0.00 in0.0 mm 0.00 in/hr0.0 mm/hr 0.00 in0.0 mm
12:13 PM 83.1°F28.4°C 60.9°F16.1°C 47% 1.6 mph N2.6 kmh N 3.8 mph6.1 kmh 30.55 in1034.5 mb 0.00 in0.0 mm 0.00 in/hr0.0 mm/hr 0.00 in0.0 mm
12:14 PM 83.3°F28.5°C 61.0°F16.1°C 47% 0.7 mph N1.1 kmh N 3.8 mph6.1 kmh 30.55 in1034.5 mb 0.00 in0.0 mm 0.00 in/hr0.0 mm/hr 0.00 in0.0 mm
12:15 PM 83.5°F28.6°C 61.8°F16.6°C 48% 1.6 mph NNW2.6 kmh NNW 3.8 mph6.1 kmh 30.55 in1034.5 mb 0.00 in0.0 mm 0.00 in/hr0.0 mm/hr 0.00 in0.0 mm
12:16 PM 83.5°F28.6°C 61.8°F16.6°C 48% 1.6 mph NNW2.6 kmh NNW 3.8 mph6.1 kmh 30.55 in1034.5 mb 0.00 in0.0 mm 0.00 in/hr0.0 mm/hr 0.00 in0.0 mm
12:17 PM 83.5°F28.6°C 61.2°F16.2°C 47% 0.7 mph N1.1 kmh N 3.8 mph6.1 kmh 30.54 in1034.2 mb 0.00 in0.0 mm 0.00 in/hr0.0 mm/hr 0.00 in0.0 mm
12:18 PM 85.3°F29.6°C 62.2°F16.8°C 46% Calm Calm 3.8 mph6.1 kmh 30.55 in1034.5 mb 0.00 in0.0 mm 0.00 in/hr0.0 mm/hr 0.00 in0.0 mm
12:19 PM 85.8°F29.9°C 62.1°F16.7°C 45% Calm Calm 3.8 mph6.1 kmh 30.55 in1034.5 mb 0.00 in0.0 mm 0.00 in/hr0.0 mm/hr 0.00 in0.0 mm
12:20 PM 86.4°F30.2°C 61.3°F16.3°C 43% Calm Calm 3.8 mph6.1 kmh 30.55 in1034.5 mb 0.00 in0.0 mm 0.00 in/hr0.0 mm/hr 0.00 in0.0 mm
12:21 PM 86.9°F30.5°C 61.8°F16.6°C 43% Calm Calm 3.8 mph6.1 kmh 30.55 in1034.5 mb 0.00 in0.0 mm 0.00 in/hr0.0 mm/hr 0.00 in0.0 mm
12:22 PM 87.8°F31.0°C 61.2°F16.2°C 41% 0.7 mph NE1.1 kmh NE 3.8 mph6.1 kmh 30.55 in1034.5 mb 0.00 in0.0 mm 0.00 in/hr0.0 mm/hr 0.00 in0.0 mm
12:23 PM 88.0°F31.1°C 60.7°F15.9°C 40% 0.7 mph E1.1 kmh E 3.8 mph6.1 kmh 30.54 in1034.2 mb 0.00 in0.0 mm 0.00 in/hr0.0 mm/hr 0.00 in0.0 mm
12:24 PM 87.6°F30.9°C 61.1°F16.2°C 41% 2.2 mph E3.5 kmh E 4.5 mph7.2 kmh 30.54 in1034.2 mb 0.00 in0.0 mm 0.00 in/hr0.0 mm/hr 0.00 in0.0 mm
12:25 PM 86.5°F30.3°C 60.8°F16.0°C 42% 1.6 mph E2.6 kmh E 4.5 mph7.2 kmh 30.55 in1034.5 mb 0.00 in0.0 mm 0.00 in/hr0.0 mm/hr 0.00 in0.0 mm
12:26 PM 84.9°F29.4°C 60.0°F15.6°C 43% 2.2 mph E3.5 kmh E 4.5 mph7.2 kmh 30.54 in1034.2 mb 0.00 in0.0 mm 0.00 in/hr0.0 mm/hr 0.00 in0.0 mm
12:27 PM 85.1°F29.5°C 61.4°F16.3°C 45% 1.6 mph E2.6 kmh E 4.5 mph7.2 kmh 30.55 in1034.5 mb 0.00 in0.0 mm 0.00 in/hr0.0 mm/hr 0.00 in0.0 mm
12:28 PM 84.6°F29.2°C 60.9°F16.1°C 45% 0.7 mph ENE1.1 kmh ENE 4.5 mph7.2 kmh 30.54 in1034.2 mb 0.00 in0.0 mm 0.00 in/hr0.0 mm/hr 0.00 in0.0 mm
12:29 PM 85.3°F29.6°C 61.6°F16.4°C 45% 3.8 mph ENE6.1 kmh ENE 5.4 mph8.7 kmh 30.54 in1034.2 mb 0.00 in0.0 mm 0.00 in/hr0.0 mm/hr 0.00 in0.0 mm
12:30 PM 83.5°F28.6°C 60.6°F15.9°C 46% 1.6 mph ENE2.6 kmh ENE 5.4 mph8.7 kmh 30.55 in1034.5 mb 0.00 in0.0 mm 0.00 in/hr0.0 mm/hr 0.00 in0.0 mm
12:31 PM 84.4°F29.1°C 60.8°F16.0°C 45% 0.7 mph ENE1.1 kmh ENE 5.4 mph8.7 kmh 30.55 in1034.5 mb 0.00 in0.0 mm 0.00 in/hr0.0 mm/hr 0.00 in0.0 mm
12:32 PM 85.6°F29.8°C 61.9°F16.6°C 45% Calm Calm 5.4 mph8.7 kmh 30.55 in1034.5 mb 0.00 in0.0 mm 0.00 in/hr0.0 mm/hr 0.00 in0.0 mm
12:33 PM 86.4°F30.2°C 61.3°F16.3°C 43% 2.2 mph ENE3.5 kmh ENE 5.4 mph8.7 kmh 30.54 in1034.2 mb 0.00 in0.0 mm 0.00 in/hr0.0 mm/hr 0.00 in0.0 mm
12:34 PM 85.5°F29.7°C 61.7°F16.5°C 45% 0.7 mph ENE1.1 kmh ENE 5.4 mph8.7 kmh 30.55 in1034.5 mb 0.00 in0.0 mm 0.00 in/hr0.0 mm/hr 0.00 in0.0 mm
12:35 PM 86.4°F30.2°C 61.3°F16.3°C 43% 1.6 mph NE2.6 kmh NE 5.4 mph8.7 kmh 30.54 in1034.2 mb 0.00 in0.0 mm 0.00 in/hr0.0 mm/hr 0.00 in0.0 mm
12:36 PM 85.5°F29.7°C 61.7°F16.5°C 45% 1.6 mph NE2.6 kmh NE 5.4 mph8.7 kmh 30.54 in1034.2 mb 0.00 in0.0 mm 0.00 in/hr0.0 mm/hr 0.00 in0.0 mm
12:37 PM 85.1°F29.5°C 61.4°F16.3°C 45% 0.7 mph NE1.1 kmh NE 5.4 mph8.7 kmh 30.54 in1034.2 mb 0.00 in0.0 mm 0.00 in/hr0.0 mm/hr 0.00 in0.0 mm
12:38 PM 85.5°F29.7°C 62.4°F16.9°C 46% 0.7 mph NE1.1 kmh NE 5.4 mph8.7 kmh 30.54 in1034.2 mb 0.00 in0.0 mm 0.00 in/hr0.0 mm/hr 0.00 in0.0 mm
12:39 PM 85.8°F29.9°C 62.7°F17.1°C 46% 1.6 mph NNE2.6 kmh NNE 3.8 mph6.1 kmh 30.54 in1034.2 mb 0.00 in0.0 mm 0.00 in/hr0.0 mm/hr 0.00 in0.0 mm
12:40 PM 85.8°F29.9°C 62.7°F17.1°C 46% 0.7 mph N1.1 kmh N 3.8 mph6.1 kmh 30.54 in1034.2 mb 0.00 in0.0 mm 0.00 in/hr0.0 mm/hr 0.00 in0.0 mm
12:41 PM 86.7°F30.4°C 62.9°F17.2°C 45% 1.6 mph NNW2.6 kmh NNW 3.8 mph6.1 kmh 30.54 in1034.2 mb 0.00 in0.0 mm 0.00 in/hr0.0 mm/hr 0.00 in0.0 mm
12:42 PM 86.2°F30.1°C 61.1°F16.2°C 43% Calm Calm 3.8 mph6.1 kmh 30.54 in1034.2 mb 0.00 in0.0 mm 0.00 in/hr0.0 mm/hr 0.00 in0.0 mm
12:43 PM 86.7°F30.4°C 61.6°F16.4°C 43% 0.7 mph NW1.1 kmh NW 3.8 mph6.1 kmh 30.54 in1034.2 mb 0.00 in0.0 mm 0.00 in/hr0.0 mm/hr 0.00 in0.0 mm
12:44 PM 86.9°F30.5°C 63.1°F17.3°C 45% 2.2 mph NW3.5 kmh NW 5.4 mph8.7 kmh 30.54 in1034.2 mb 0.00 in0.0 mm 0.00 in/hr0.0 mm/hr 0.00 in0.0 mm
12:45 PM 86.2°F30.1°C 62.4°F16.9°C 45% 3.1 mph NW5.0 kmh NW 5.4 mph8.7 kmh 30.54 in1034.2 mb 0.00 in0.0 mm 0.00 in/hr0.0 mm/hr 0.00 in0.0 mm
12:46 PM 85.6°F29.8°C 61.9°F16.6°C 45% 2.2 mph NW3.5 kmh NW 5.4 mph8.7 kmh 30.54 in1034.2 mb 0.00 in0.0 mm 0.00 in/hr0.0 mm/hr 0.00 in0.0 mm
12:47 PM 84.9°F29.4°C 61.3°F16.3°C 45% 2.2 mph NW3.5 kmh NW 5.4 mph8.7 kmh 30.54 in1034.2 mb 0.00 in0.0 mm 0.00 in/hr0.0 mm/hr 0.00 in0.0 mm
12:48 PM 84.7°F29.3°C 61.1°F16.2°C 45% 1.6 mph NW2.6 kmh NW 5.4 mph8.7 kmh 30.54 in1034.2 mb 0.00 in0.0 mm 0.00 in/hr0.0 mm/hr 0.00 in0.0 mm
12:49 PM 84.7°F29.3°C 61.1°F16.2°C 45% 1.6 mph NW2.6 kmh NW 5.4 mph8.7 kmh 30.54 in1034.2 mb 0.00 in0.0 mm 0.00 in/hr0.0 mm/hr 0.00 in0.0 mm
12:50 PM 85.8°F29.9°C 62.7°F17.1°C 46% 1.6 mph NW2.6 kmh NW 5.4 mph8.7 kmh 30.54 in1034.2 mb 0.00 in0.0 mm 0.00 in/hr0.0 mm/hr 0.00 in0.0 mm
12:51 PM 85.5°F29.7°C 61.7°F16.5°C 45% 2.2 mph NW3.5 kmh NW 5.4 mph8.7 kmh 30.54 in1034.2 mb 0.00 in0.0 mm 0.00 in/hr0.0 mm/hr 0.00 in0.0 mm
12:52 PM 86.2°F30.1°C 61.1°F16.2°C 43% 1.6 mph NW2.6 kmh NW 5.4 mph8.7 kmh 30.54 in1034.2 mb 0.00 in0.0 mm 0.00 in/hr0.0 mm/hr 0.00 in0.0 mm
12:53 PM 85.5°F29.7°C 61.7°F16.5°C 45% 1.6 mph NW2.6 kmh NW 5.4 mph8.7 kmh 30.54 in1034.2 mb 0.00 in0.0 mm 0.00 in/hr0.0 mm/hr 0.00 in0.0 mm
12:54 PM 84.6°F29.2°C 61.6°F16.4°C 46% 3.1 mph NW5.0 kmh NW 5.4 mph8.7 kmh 30.54 in1034.2 mb 0.00 in0.0 mm 0.00 in/hr0.0 mm/hr 0.00 in0.0 mm
12:55 PM 84.2°F29.0°C 60.6°F15.9°C 45% 1.6 mph NW2.6 kmh NW 5.4 mph8.7 kmh 30.54 in1034.2 mb 0.00 in0.0 mm 0.00 in/hr0.0 mm/hr 0.00 in0.0 mm
12:56 PM 84.2°F29.0°C 60.6°F15.9°C 45% 0.7 mph NNW1.1 kmh NNW 4.5 mph7.2 kmh 30.54 in1034.2 mb 0.00 in0.0 mm 0.00 in/hr0.0 mm/hr 0.00 in0.0 mm
12:57 PM 85.8°F29.9°C 62.1°F16.7°C 45% Calm Calm 4.5 mph7.2 kmh 30.54 in1034.2 mb 0.00 in0.0 mm 0.00 in/hr0.0 mm/hr 0.00 in0.0 mm
12:58 PM 86.2°F30.1°C 61.1°F16.2°C 43% 2.2 mph N3.5 kmh N 4.5 mph7.2 kmh 30.54 in1034.2 mb 0.00 in0.0 mm 0.00 in/hr0.0 mm/hr 0.00 in0.0 mm
12:59 PM 85.6°F29.8°C 61.9°F16.6°C 45% 3.1 mph N5.0 kmh N 4.5 mph7.2 kmh 30.54 in1034.2 mb 0.00 in0.0 mm 0.00 in/hr0.0 mm/hr 0.00 in0.0 mm
01:00 PM 84.6°F29.2°C 61.6°F16.4°C 46% 1.6 mph N2.6 kmh N 4.5 mph7.2 kmh 30.54 in1034.2 mb 0.00 in0.0 mm 0.00 in/hr0.0 mm/hr 0.00 in0.0 mm
01:01 PM 84.9°F29.4°C 61.9°F16.6°C 46% Calm Calm 4.5 mph7.2 kmh 30.54 in1034.2 mb 0.00 in0.0 mm 0.00 in/hr0.0 mm/hr 0.00 in0.0 mm
01:02 PM 86.0°F30.0°C 62.2°F16.8°C 45% 3.1 mph N5.0 kmh N 8.3 mph13.4 kmh 30.54 in1034.2 mb 0.00 in0.0 mm 0.00 in/hr0.0 mm/hr 0.00 in0.0 mm
01:03 PM 84.7°F29.3°C 61.1°F16.2°C 45% 2.2 mph NNE3.5 kmh NNE 8.3 mph13.4 kmh 30.54 in1034.2 mb 0.00 in0.0 mm 0.00 in/hr0.0 mm/hr 0.00 in0.0 mm
01:04 PM 85.1°F29.5°C 62.0°F16.7°C 46% 3.8 mph NE6.1 kmh NE 8.3 mph13.4 kmh 30.54 in1034.2 mb 0.00 in0.0 mm 0.00 in/hr0.0 mm/hr 0.00 in0.0 mm
01:05 PM 85.1°F29.5°C 62.0°F16.7°C 46% 1.6 mph NE2.6 kmh NE 8.3 mph13.4 kmh 30.54 in1034.2 mb 0.00 in0.0 mm 0.00 in/hr0.0 mm/hr 0.00 in0.0 mm
01:06 PM 85.3°F29.6°C 62.2°F16.8°C 46% 1.6 mph NE2.6 kmh NE 8.3 mph13.4 kmh 30.54 in1034.2 mb 0.00 in0.0 mm 0.00 in/hr0.0 mm/hr 0.00 in0.0 mm
01:07 PM 85.6°F29.8°C 62.5°F16.9°C 46% 0.7 mph NE1.1 kmh NE 8.3 mph13.4 kmh 30.54 in1034.2 mb 0.00 in0.0 mm 0.00 in/hr0.0 mm/hr 0.00 in0.0 mm
01:08 PM 86.0°F30.0°C 62.9°F17.2°C 46% 0.7 mph NE1.1 kmh NE 8.3 mph13.4 kmh 30.53 in1033.9 mb 0.00 in0.0 mm 0.00 in/hr0.0 mm/hr 0.00 in0.0 mm
01:09 PM 86.0°F30.0°C 62.9°F17.2°C 46% 0.7 mph NE1.1 kmh NE 8.3 mph13.4 kmh 30.53 in1033.9 mb 0.00 in0.0 mm 0.00 in/hr0.0 mm/hr 0.00 in0.0 mm
01:10 PM 86.4°F30.2°C 62.6°F17.0°C 45% Calm Calm 8.3 mph13.4 kmh 30.53 in1033.9 mb 0.00 in0.0 mm 0.00 in/hr0.0 mm/hr 0.00 in0.0 mm
01:11 PM 86.9°F30.5°C 61.8°F16.6°C 43% Calm Calm 8.3 mph13.4 kmh 30.53 in1033.9 mb 0.00 in0.0 mm 0.00 in/hr0.0 mm/hr 0.00 in0.0 mm
01:12 PM 86.9°F30.5°C 61.8°F16.6°C 43% 1.6 mph NE2.6 kmh NE 8.3 mph13.4 kmh 30.54 in1034.2 mb 0.00 in0.0 mm 0.00 in/hr0.0 mm/hr 0.00 in0.0 mm
01:13 PM 86.2°F30.1°C 61.1°F16.2°C 43% 1.6 mph NE2.6 kmh NE 6.9 mph11.1 kmh 30.53 in1033.9 mb 0.00 in0.0 mm 0.00 in/hr0.0 mm/hr 0.00 in0.0 mm
01:14 PM 86.9°F30.5°C 61.8°F16.6°C 43% 1.6 mph N2.6 kmh N 6.9 mph11.1 kmh 30.53 in1033.9 mb 0.00 in0.0 mm 0.00 in/hr0.0 mm/hr 0.00 in0.0 mm
01:15 PM 86.7°F30.4°C 61.6°F16.4°C 43% 2.2 mph N3.5 kmh N 6.9 mph11.1 kmh 30.54 in1034.2 mb 0.00 in0.0 mm 0.00 in/hr0.0 mm/hr 0.00 in0.0 mm
01:16 PM 86.7°F30.4°C 61.6°F16.4°C 43% 3.1 mph N5.0 kmh N 4.5 mph7.2 kmh 30.53 in1033.9 mb 0.00 in0.0 mm 0.00 in/hr0.0 mm/hr 0.00 in0.0 mm
01:17 PM 86.0°F30.0°C 61.0°F16.1°C 43% 2.2 mph N3.5 kmh N 4.5 mph7.2 kmh 30.54 in1034.2 mb 0.00 in0.0 mm 0.00 in/hr0.0 mm/hr 0.00 in0.0 mm
01:18 PM 86.5°F30.3°C 61.4°F16.3°C 43% 1.6 mph N2.6 kmh N 4.5 mph7.2 kmh 30.53 in1033.9 mb 0.00 in0.0 mm 0.00 in/hr0.0 mm/hr 0.00 in0.0 mm
01:19 PM 86.4°F30.2°C 61.3°F16.3°C 43% 1.6 mph N2.6 kmh N 4.5 mph7.2 kmh 30.53 in1033.9 mb 0.00 in0.0 mm 0.00 in/hr0.0 mm/hr 0.00 in0.0 mm
01:20 PM 86.0°F30.0°C 61.0°F16.1°C 43% 1.6 mph N2.6 kmh N 4.5 mph7.2 kmh 30.53 in1033.9 mb 0.00 in0.0 mm 0.00 in/hr0.0 mm/hr 0.00 in0.0 mm
01:21 PM 86.4°F30.2°C 61.3°F16.3°C 43% Calm Calm 4.5 mph7.2 kmh 30.53 in1033.9 mb 0.00 in0.0 mm 0.00 in/hr0.0 mm/hr 0.00 in0.0 mm
01:22 PM 87.8°F31.0°C 61.9°F16.6°C 42% Calm Calm 4.5 mph7.2 kmh 30.53 in1033.9 mb 0.00 in0.0 mm 0.00 in/hr0.0 mm/hr 0.00 in0.0 mm
01:23 PM 88.5°F31.4°C 62.6°F17.0°C 42% Calm Calm 4.5 mph7.2 kmh 30.53 in1033.9 mb 0.00 in0.0 mm 0.00 in/hr0.0 mm/hr 0.00 in0.0 mm
01:24 PM 89.1°F31.7°C 63.0°F17.2°C 42% 0.7 mph N1.1 kmh N 4.5 mph7.2 kmh 30.53 in1033.9 mb 0.00 in0.0 mm 0.00 in/hr0.0 mm/hr 0.00 in0.0 mm
01:25 PM 86.2°F30.1°C 61.1°F16.2°C 43% 2.2 mph NNE3.5 kmh NNE 5.4 mph8.7 kmh 30.53 in1033.9 mb 0.00 in0.0 mm 0.00 in/hr0.0 mm/hr 0.00 in0.0 mm
01:26 PM 85.8°F29.9°C 62.1°F16.7°C 45% 2.2 mph NNW3.5 kmh NNW 5.4 mph8.7 kmh 30.53 in1033.9 mb 0.00 in0.0 mm 0.00 in/hr0.0 mm/hr 0.00 in0.0 mm
01:27 PM 85.6°F29.8°C 61.9°F16.6°C 45% 2.2 mph NW3.5 kmh NW 5.4 mph8.7 kmh 30.53 in1033.9 mb 0.00 in0.0 mm 0.00 in/hr0.0 mm/hr 0.00 in0.0 mm
01:28 PM 85.6°F29.8°C 61.9°F16.6°C 45% 2.2 mph NNW3.5 kmh NNW 5.4 mph8.7 kmh 30.53 in1033.9 mb 0.00 in0.0 mm 0.00 in/hr0.0 mm/hr 0.00 in0.0 mm
01:29 PM 86.0°F30.0°C 62.2°F16.8°C 45% 2.2 mph NNW3.5 kmh NNW 5.4 mph8.7 kmh 30.53 in1033.9 mb 0.00 in0.0 mm 0.00 in/hr0.0 mm/hr 0.00 in0.0 mm
01:30 PM 85.3°F29.6°C 61.6°F16.4°C 45% 1.6 mph N2.6 kmh N 5.4 mph8.7 kmh 30.53 in1033.9 mb 0.00 in0.0 mm 0.00 in/hr0.0 mm/hr 0.00 in0.0 mm
01:31 PM 85.5°F29.7°C 62.4°F16.9°C 46% 1.6 mph N2.6 kmh N 5.4 mph8.7 kmh 30.53 in1033.9 mb 0.00 in0.0 mm 0.00 in/hr0.0 mm/hr 0.00 in0.0 mm
01:32 PM 86.4°F30.2°C 63.2°F17.3°C 46% 1.6 mph NNW2.6 kmh NNW 6.0 mph9.7 kmh 30.53 in1033.9 mb 0.00 in0.0 mm 0.00 in/hr0.0 mm/hr 0.00 in0.0 mm
01:33 PM 86.9°F30.5°C 63.1°F17.3°C 45% Calm Calm 6.0 mph9.7 kmh 30.53 in1033.9 mb 0.00 in0.0 mm 0.00 in/hr0.0 mm/hr 0.00 in0.0 mm
01:34 PM 87.8°F31.0°C 62.6°F17.0°C 43% 0.7 mph NNW1.1 kmh NNW 6.0 mph9.7 kmh 30.53 in1033.9 mb 0.00 in0.0 mm 0.00 in/hr0.0 mm/hr 0.00 in0.0 mm
01:35 PM 88.5°F31.4°C 62.6°F17.0°C 42% 0.7 mph NW1.1 kmh NW 6.0 mph9.7 kmh 30.53 in1033.9 mb 0.00 in0.0 mm 0.00 in/hr0.0 mm/hr 0.00 in0.0 mm
01:36 PM 88.7°F31.5°C 62.7°F17.1°C 42% Calm Calm 6.0 mph9.7 kmh 30.53 in1033.9 mb 0.00 in0.0 mm 0.00 in/hr0.0 mm/hr 0.00 in0.0 mm
01:37 PM 90.0°F32.2°C 63.2°F17.3°C 41% Calm Calm 6.0 mph9.7 kmh 30.53 in1033.9 mb 0.00 in0.0 mm 0.00 in/hr0.0 mm/hr 0.00 in0.0 mm
01:38 PM 89.6°F32.0°C 62.1°F16.7°C 40% 0.7 mph N1.1 kmh N 6.0 mph9.7 kmh 30.53 in1033.9 mb 0.00 in0.0 mm 0.00 in/hr0.0 mm/hr 0.00 in0.0 mm
01:39 PM 89.2°F31.8°C 61.8°F16.6°C 40% 1.6 mph N2.6 kmh N 6.0 mph9.7 kmh 30.53 in1033.9 mb 0.00 in0.0 mm 0.00 in/hr0.0 mm/hr 0.00 in0.0 mm
01:40 PM 88.2°F31.2°C 61.5°F16.4°C 41% 1.6 mph NW2.6 kmh NW 6.0 mph9.7 kmh 30.52 in1033.5 mb 0.00 in0.0 mm 0.00 in/hr0.0 mm/hr 0.00 in0.0 mm
01:41 PM 88.5°F31.4°C 62.6°F17.0°C 42% 0.7 mph NW1.1 kmh NW 6.0 mph9.7 kmh 30.53 in1033.9 mb 0.00 in0.0 mm 0.00 in/hr0.0 mm/hr 0.00 in0.0 mm
01:42 PM 88.3°F31.3°C 63.1°F17.3°C 43% Calm Calm 4.5 mph7.2 kmh 30.53 in1033.9 mb 0.00 in0.0 mm 0.00 in/hr0.0 mm/hr 0.00 in0.0 mm
01:43 PM 88.2°F31.2°C 62.2°F16.8°C 42% Calm Calm 5.4 mph8.7 kmh 30.53 in1033.9 mb 0.00 in0.0 mm 0.00 in/hr0.0 mm/hr 0.00 in0.0 mm
01:44 PM 88.2°F31.2°C 62.2°F16.8°C 42% 4.5 mph NW7.2 kmh NW 8.3 mph13.4 kmh 30.53 in1033.9 mb 0.00 in0.0 mm 0.00 in/hr0.0 mm/hr 0.00 in0.0 mm
01:45 PM 86.4°F30.2°C 60.6°F15.9°C 42% 0.7 mph NW1.1 kmh NW 8.3 mph13.4 kmh 30.53 in1033.9 mb 0.00 in0.0 mm 0.00 in/hr0.0 mm/hr 0.00 in0.0 mm
01:46 PM 86.9°F30.5°C 61.1°F16.2°C 42% 0.7 mph NW1.1 kmh NW 8.3 mph13.4 kmh 30.53 in1033.9 mb 0.00 in0.0 mm 0.00 in/hr0.0 mm/hr 0.00 in0.0 mm
01:47 PM 88.0°F31.1°C 61.4°F16.3°C 41% Calm Calm 8.3 mph13.4 kmh 30.53 in1033.9 mb 0.00 in0.0 mm 0.00 in/hr0.0 mm/hr 0.00 in0.0 mm
01:48 PM 88.5°F31.4°C 62.6°F17.0°C 42% Calm Calm 8.3 mph13.4 kmh 30.53 in1033.9 mb 0.00 in0.0 mm 0.00 in/hr0.0 mm/hr 0.00 in0.0 mm
01:49 PM 90.1°F32.3°C 63.3°F17.4°C 41% 0.7 mph WNW1.1 kmh WNW 8.3 mph13.4 kmh 30.53 in1033.9 mb 0.00 in0.0 mm 0.00 in/hr0.0 mm/hr 0.00 in0.0 mm
01:50 PM 90.0°F32.2°C 62.5°F16.9°C 40% Calm Calm 8.3 mph13.4 kmh 30.53 in1033.9 mb 0.00 in0.0 mm 0.00 in/hr0.0 mm/hr 0.00 in0.0 mm
01:51 PM 90.5°F32.5°C 60.7°F15.9°C 37% 0.7 mph WNW1.1 kmh WNW 8.3 mph13.4 kmh 30.52 in1033.5 mb 0.00 in0.0 mm 0.00 in/hr0.0 mm/hr 0.00 in0.0 mm
01:52 PM 89.8°F32.1°C 59.3°F15.2°C 36% 0.7 mph WNW1.1 kmh WNW 8.3 mph13.4 kmh 30.53 in1033.9 mb 0.00 in0.0 mm 0.00 in/hr0.0 mm/hr 0.00 in0.0 mm
01:53 PM 89.4°F31.9°C 60.5°F15.8°C 38% 1.6 mph WNW2.6 kmh WNW 8.3 mph13.4 kmh 30.53 in1033.9 mb 0.00 in0.0 mm 0.00 in/hr0.0 mm/hr 0.00 in0.0 mm
01:54 PM 90.1°F32.3°C 62.6°F17.0°C 40% 1.6 mph WNW2.6 kmh WNW 5.4 mph8.7 kmh 30.53 in1033.9 mb 0.00 in0.0 mm 0.00 in/hr0.0 mm/hr 0.00 in0.0 mm
01:55 PM 89.1°F31.7°C 63.0°F17.2°C 42% 2.2 mph WNW3.5 kmh WNW 3.1 mph5.0 kmh 30.53 in1033.9 mb 0.00 in0.0 mm 0.00 in/hr0.0 mm/hr 0.00 in0.0 mm
01:56 PM 88.7°F31.5°C 61.3°F16.3°C 40% Calm Calm 3.1 mph5.0 kmh 30.53 in1033.9 mb 0.00 in0.0 mm 0.00 in/hr0.0 mm/hr 0.00 in0.0 mm
01:57 PM 88.5°F31.4°C 61.9°F16.6°C 41% 1.6 mph NW2.6 kmh NW 3.1 mph5.0 kmh 30.53 in1033.9 mb 0.00 in0.0 mm 0.00 in/hr0.0 mm/hr 0.00 in0.0 mm
01:58 PM 88.5°F31.4°C 61.9°F16.6°C 41% 2.2 mph NNW3.5 kmh NNW 3.1 mph5.0 kmh 30.52 in1033.5 mb 0.00 in0.0 mm 0.00 in/hr0.0 mm/hr 0.00 in0.0 mm
01:59 PM 88.3°F31.3°C 62.4°F16.9°C 42% 1.6 mph NNW2.6 kmh NNW 3.1 mph5.0 kmh 30.52 in1033.5 mb 0.00 in0.0 mm 0.00 in/hr0.0 mm/hr 0.00 in0.0 mm
02:00 PM 88.5°F31.4°C 61.9°F16.6°C 41% 2.2 mph NNW3.5 kmh NNW 3.1 mph5.0 kmh 30.52 in1033.5 mb 0.00 in0.0 mm 0.00 in/hr0.0 mm/hr 0.00 in0.0 mm
02:01 PM 89.8°F32.1°C 60.1°F15.6°C 37% 1.6 mph N2.6 kmh N 4.5 mph7.2 kmh 30.52 in1033.5 mb 0.00 in0.0 mm 0.00 in/hr0.0 mm/hr 0.00 in0.0 mm
02:02 PM 89.1°F31.7°C 58.7°F14.8°C 36% 3.8 mph NNW6.1 kmh NNW 6.9 mph11.1 kmh 30.52 in1033.5 mb 0.00 in0.0 mm 0.00 in/hr0.0 mm/hr 0.00 in0.0 mm
02:03 PM 89.6°F32.0°C 58.4°F14.7°C 35% 2.2 mph NNW3.5 kmh NNW 6.9 mph11.1 kmh 30.52 in1033.5 mb 0.00 in0.0 mm 0.00 in/hr0.0 mm/hr 0.00 in0.0 mm
02:04 PM 90.5°F32.5°C 59.2°F15.1°C 35% 1.6 mph NNW2.6 kmh NNW 6.9 mph11.1 kmh 30.52 in1033.5 mb 0.00 in0.0 mm 0.00 in/hr0.0 mm/hr 0.00 in0.0 mm
02:05 PM 90.9°F32.7°C 60.3°F15.7°C 36% 0.7 mph NNW1.1 kmh NNW 6.9 mph11.1 kmh 30.52 in1033.5 mb 0.00 in0.0 mm 0.00 in/hr0.0 mm/hr 0.00 in0.0 mm
02:06 PM 91.2°F32.9°C 60.6°F15.9°C 36% 2.2 mph NW3.5 kmh NW 6.9 mph11.1 kmh 30.52 in1033.5 mb 0.00 in0.0 mm 0.00 in/hr0.0 mm/hr 0.00 in0.0 mm
02:07 PM 91.2°F32.9°C 58.2°F14.6°C 33% Calm Calm 6.9 mph11.1 kmh 30.52 in1033.5 mb 0.00 in0.0 mm 0.00 in/hr0.0 mm/hr 0.00 in0.0 mm
02:08 PM 91.8°F33.2°C 60.3°F15.7°C 35% Calm Calm 6.9 mph11.1 kmh 30.52 in1033.5 mb 0.00 in0.0 mm 0.00 in/hr0.0 mm/hr 0.00 in0.0 mm
02:09 PM 91.9°F33.3°C 61.2°F16.2°C 36% 2.2 mph WNW3.5 kmh WNW 6.9 mph11.1 kmh 30.52 in1033.5 mb 0.00 in0.0 mm 0.00 in/hr0.0 mm/hr 0.00 in0.0 mm
02:10 PM 91.0°F32.8°C 57.1°F13.9°C 32% Calm Calm 6.9 mph11.1 kmh 30.52 in1033.5 mb 0.00 in0.0 mm 0.00 in/hr0.0 mm/hr 0.00 in0.0 mm
02:11 PM 91.4°F33.0°C 60.0°F15.6°C 35% 2.2 mph WNW3.5 kmh WNW 6.9 mph11.1 kmh 30.52 in1033.5 mb 0.00 in0.0 mm 0.00 in/hr0.0 mm/hr 0.00 in0.0 mm
02:12 PM 91.0°F32.8°C 57.1°F13.9°C 32% 2.2 mph W3.5 kmh W 6.9 mph11.1 kmh 30.52 in1033.5 mb 0.00 in0.0 mm 0.00 in/hr0.0 mm/hr 0.00 in0.0 mm
02:13 PM 90.5°F32.5°C 56.7°F13.7°C 32% 0.7 mph NW1.1 kmh NW 6.9 mph11.1 kmh 30.52 in1033.5 mb 0.00 in0.0 mm 0.00 in/hr0.0 mm/hr 0.00 in0.0 mm
02:14 PM 90.5°F32.5°C 57.5°F14.2°C 33% 3.1 mph NW5.0 kmh NW 6.9 mph11.1 kmh 30.52 in1033.5 mb 0.00 in0.0 mm 0.00 in/hr0.0 mm/hr 0.00 in0.0 mm
02:15 PM 88.7°F31.5°C 57.6°F14.2°C 35% 0.7 mph NW1.1 kmh NW 6.9 mph11.1 kmh 30.52 in1033.5 mb 0.00 in0.0 mm 0.00 in/hr0.0 mm/hr 0.00 in0.0 mm
02:16 PM 90.0°F32.2°C 58.7°F14.8°C 35% 0.7 mph NW1.1 kmh NW 6.9 mph11.1 kmh 30.52 in1033.5 mb 0.00 in0.0 mm 0.00 in/hr0.0 mm/hr 0.00 in0.0 mm
02:17 PM 89.6°F32.0°C 59.2°F15.1°C 36% 2.2 mph NW3.5 kmh NW 6.9 mph11.1 kmh 30.52 in1033.5 mb 0.00 in0.0 mm 0.00 in/hr0.0 mm/hr 0.00 in0.0 mm
02:18 PM 89.6°F32.0°C 58.4°F14.7°C 35% 0.7 mph WNW1.1 kmh WNW 6.9 mph11.1 kmh 30.52 in1033.5 mb 0.00 in0.0 mm 0.00 in/hr0.0 mm/hr 0.00 in0.0 mm
02:19 PM 90.0°F32.2°C 59.5°F15.3°C 36% 0.7 mph NW1.1 kmh NW 6.9 mph11.1 kmh 30.52 in1033.5 mb 0.00 in0.0 mm 0.00 in/hr0.0 mm/hr 0.00 in0.0 mm
02:20 PM 90.9°F32.7°C 60.3°F15.7°C 36% 0.7 mph WNW1.1 kmh WNW 6.0 mph9.7 kmh 30.52 in1033.5 mb 0.00 in0.0 mm 0.00 in/hr0.0 mm/hr 0.00 in0.0 mm
02:21 PM 90.7°F32.6°C 60.1°F15.6°C 36% 3.1 mph W5.0 kmh W 6.0 mph9.7 kmh 30.52 in1033.5 mb 0.00 in0.0 mm 0.00 in/hr0.0 mm/hr 0.00 in0.0 mm
02:22 PM 89.1°F31.7°C 57.9°F14.4°C 35% 3.8 mph W6.1 kmh W 6.0 mph9.7 kmh 30.52 in1033.5 mb 0.00 in0.0 mm 0.00 in/hr0.0 mm/hr 0.00 in0.0 mm
02:23 PM 89.4°F31.9°C 58.2°F14.6°C 35% 1.6 mph W2.6 kmh W 6.0 mph9.7 kmh 30.52 in1033.5 mb 0.00 in0.0 mm 0.00 in/hr0.0 mm/hr 0.00 in0.0 mm
02:24 PM 90.0°F32.2°C 59.5°F15.3°C 36% Calm Calm 6.0 mph9.7 kmh 30.52 in1033.5 mb 0.00 in0.0 mm 0.00 in/hr0.0 mm/hr 0.00 in0.0 mm
02:25 PM 90.1°F32.3°C 57.2°F14.0°C 33% 0.7 mph SW1.1 kmh SW 6.0 mph9.7 kmh 30.52 in1033.5 mb 0.00 in0.0 mm 0.00 in/hr0.0 mm/hr 0.00 in0.0 mm
02:26 PM 90.9°F32.7°C 59.5°F15.3°C 35% 0.7 mph SW1.1 kmh SW 6.0 mph9.7 kmh 30.52 in1033.5 mb 0.00 in0.0 mm 0.00 in/hr0.0 mm/hr 0.00 in0.0 mm
02:27 PM 90.5°F32.5°C 57.5°F14.2°C 33% 3.8 mph SSW6.1 kmh SSW 6.0 mph9.7 kmh 30.52 in1033.5 mb 0.00 in0.0 mm 0.00 in/hr0.0 mm/hr 0.00 in0.0 mm
02:28 PM 88.9°F31.6°C 56.1°F13.4°C 33% 3.1 mph S5.0 kmh S 6.0 mph9.7 kmh 30.52 in1033.5 mb 0.00 in0.0 mm 0.00 in/hr0.0 mm/hr 0.00 in0.0 mm
02:29 PM 89.6°F32.0°C 55.9°F13.3°C 32% Calm Calm 6.0 mph9.7 kmh 30.52 in1033.5 mb 0.00 in0.0 mm 0.00 in/hr0.0 mm/hr 0.00 in0.0 mm
02:30 PM 89.6°F32.0°C 55.9°F13.3°C 32% Calm Calm 6.0 mph9.7 kmh 30.52 in1033.5 mb 0.00 in0.0 mm 0.00 in/hr0.0 mm/hr 0.00 in0.0 mm
02:31 PM 89.6°F32.0°C 55.9°F13.3°C 32% Calm Calm 6.0 mph9.7 kmh 30.52 in1033.5 mb 0.00 in0.0 mm 0.00 in/hr0.0 mm/hr 0.00 in0.0 mm
02:32 PM 90.3°F32.4°C 56.5°F13.6°C 32% 0.7 mph SSE1.1 kmh SSE 6.0 mph9.7 kmh 30.52 in1033.5 mb 0.00 in0.0 mm 0.00 in/hr0.0 mm/hr 0.00 in0.0 mm
02:33 PM 91.8°F33.2°C 60.3°F15.7°C 35% Calm Calm 6.0 mph9.7 kmh 30.52 in1033.5 mb 0.00 in0.0 mm 0.00 in/hr0.0 mm/hr 0.00 in0.0 mm
02:34 PM 92.7°F33.7°C 61.1°F16.2°C 35% 0.7 mph S1.1 kmh S 6.0 mph9.7 kmh 30.52 in1033.5 mb 0.00 in0.0 mm 0.00 in/hr0.0 mm/hr 0.00 in0.0 mm
02:35 PM 92.5°F33.6°C 60.9°F16.1°C 35% 1.6 mph S2.6 kmh S 6.0 mph9.7 kmh 30.52 in1033.5 mb 0.00 in0.0 mm 0.00 in/hr0.0 mm/hr 0.00 in0.0 mm
02:36 PM 92.5°F33.6°C 59.3°F15.2°C 33% 1.6 mph SSW2.6 kmh SSW 6.0 mph9.7 kmh 30.52 in1033.5 mb 0.00 in0.0 mm 0.00 in/hr0.0 mm/hr 0.00 in0.0 mm
02:37 PM 92.1°F33.4°C 60.6°F15.9°C 35% 0.7 mph SSW1.1 kmh SSW 6.0 mph9.7 kmh 30.52 in1033.5 mb 0.00 in0.0 mm 0.00 in/hr0.0 mm/hr 0.00 in0.0 mm
02:38 PM 91.0°F32.8°C 56.3°F13.5°C 31% 2.2 mph W3.5 kmh W 6.0 mph9.7 kmh 30.52 in1033.5 mb 0.00 in0.0 mm 0.00 in/hr0.0 mm/hr 0.00 in0.0 mm
02:39 PM 90.0°F32.2°C 55.3°F12.9°C 31% 0.7 mph W1.1 kmh W 6.0 mph9.7 kmh 30.52 in1033.5 mb 0.00 in0.0 mm 0.00 in/hr0.0 mm/hr 0.00 in0.0 mm
02:40 PM 90.7°F32.6°C 56.8°F13.8°C 32% 4.5 mph WSW7.2 kmh WSW 6.9 mph11.1 kmh 30.52 in1033.5 mb 0.00 in0.0 mm 0.00 in/hr0.0 mm/hr 0.00 in0.0 mm
02:41 PM 86.9°F30.5°C 54.4°F12.4°C 33% 3.1 mph SW5.0 kmh SW 6.9 mph11.1 kmh 30.52 in1033.5 mb 0.00 in0.0 mm 0.00 in/hr0.0 mm/hr 0.00 in0.0 mm
02:42 PM 87.1°F30.6°C 56.2°F13.4°C 35% 2.2 mph SW3.5 kmh SW 6.9 mph11.1 kmh 30.52 in1033.5 mb 0.00 in0.0 mm 0.00 in/hr0.0 mm/hr 0.00 in0.0 mm
02:43 PM 88.0°F31.1°C 55.3°F12.9°C 33% 1.6 mph SW2.6 kmh SW 6.9 mph11.1 kmh 30.52 in1033.5 mb 0.00 in0.0 mm 0.00 in/hr0.0 mm/hr 0.00 in0.0 mm
02:44 PM 88.7°F31.5°C 57.6°F14.2°C 35% Calm Calm 6.9 mph11.1 kmh 30.52 in1033.5 mb 0.00 in0.0 mm 0.00 in/hr0.0 mm/hr 0.00 in0.0 mm
02:45 PM 90.7°F32.6°C 57.7°F14.3°C 33% Calm Calm 6.9 mph11.1 kmh 30.52 in1033.5 mb 0.00 in0.0 mm 0.00 in/hr0.0 mm/hr 0.00 in0.0 mm
02:46 PM 91.0°F32.8°C 59.6°F15.3°C 35% 0.7 mph SSW1.1 kmh SSW 6.9 mph11.1 kmh 30.52 in1033.5 mb 0.00 in0.0 mm 0.00 in/hr0.0 mm/hr 0.00 in0.0 mm
02:47 PM 91.6°F33.1°C 61.7°F16.5°C 37% 1.6 mph SSW2.6 kmh SSW 6.9 mph11.1 kmh 30.52 in1033.5 mb 0.00 in0.0 mm 0.00 in/hr0.0 mm/hr 0.00 in0.0 mm
02:48 PM 91.0°F32.8°C 57.1°F13.9°C 32% 0.7 mph S1.1 kmh S 6.9 mph11.1 kmh 30.52 in1033.5 mb 0.00 in0.0 mm 0.00 in/hr0.0 mm/hr 0.00 in0.0 mm
02:49 PM 92.1°F33.4°C 60.6°F15.9°C 35% Calm Calm 6.9 mph11.1 kmh 30.51 in1033.2 mb 0.00 in0.0 mm 0.00 in/hr0.0 mm/hr 0.00 in0.0 mm
02:50 PM 92.5°F33.6°C 61.7°F16.5°C 36% 2.2 mph S3.5 kmh S 6.0 mph9.7 kmh 30.51 in1033.2 mb 0.00 in0.0 mm 0.00 in/hr0.0 mm/hr 0.00 in0.0 mm
02:51 PM 90.7°F32.6°C 56.8°F13.8°C 32% 3.1 mph SW5.0 kmh SW 5.4 mph8.7 kmh 30.52 in1033.5 mb 0.00 in0.0 mm 0.00 in/hr0.0 mm/hr 0.00 in0.0 mm
02:52 PM 90.1°F32.3°C 56.4°F13.6°C 32% 1.6 mph SW2.6 kmh SW 4.5 mph7.2 kmh 30.51 in1033.2 mb 0.00 in0.0 mm 0.00 in/hr0.0 mm/hr 0.00 in0.0 mm
02:53 PM 91.2°F32.9°C 58.2°F14.6°C 33% 2.2 mph SW3.5 kmh SW 6.9 mph11.1 kmh 30.51 in1033.2 mb 0.00 in0.0 mm 0.00 in/hr0.0 mm/hr 0.00 in0.0 mm
02:54 PM 89.6°F32.0°C 55.9°F13.3°C 32% 3.1 mph SW5.0 kmh SW 6.9 mph11.1 kmh 30.51 in1033.2 mb 0.00 in0.0 mm 0.00 in/hr0.0 mm/hr 0.00 in0.0 mm
02:55 PM 88.7°F31.5°C 56.0°F13.3°C 33% 1.6 mph WSW2.6 kmh WSW 6.9 mph11.1 kmh 30.51 in1033.2 mb 0.00 in0.0 mm 0.00 in/hr0.0 mm/hr 0.00 in0.0 mm
02:56 PM 88.5°F31.4°C 57.4°F14.1°C 35% 3.1 mph SW5.0 kmh SW 6.9 mph11.1 kmh 30.51 in1033.2 mb 0.00 in0.0 mm 0.00 in/hr0.0 mm/hr 0.00 in0.0 mm
02:57 PM 88.2°F31.2°C 57.9°F14.4°C 36% 1.6 mph WSW2.6 kmh WSW 6.9 mph11.1 kmh 30.51 in1033.2 mb 0.00 in0.0 mm 0.00 in/hr0.0 mm/hr 0.00 in0.0 mm
02:58 PM 87.4°F30.8°C 58.0°F14.4°C 37% 1.6 mph WSW2.6 kmh WSW 6.9 mph11.1 kmh 30.51 in1033.2 mb 0.00 in0.0 mm 0.00 in/hr0.0 mm/hr 0.00 in0.0 mm
02:59 PM 86.7°F30.4°C 57.4°F14.1°C 37% 1.6 mph WSW2.6 kmh WSW 6.9 mph11.1 kmh 30.51 in1033.2 mb 0.00 in0.0 mm 0.00 in/hr0.0 mm/hr 0.00 in0.0 mm
03:00 PM 86.5°F30.3°C 58.0°F14.4°C 38% 3.1 mph WSW5.0 kmh WSW 6.9 mph11.1 kmh 30.51 in1033.2 mb 0.00 in0.0 mm 0.00 in/hr0.0 mm/hr 0.00 in0.0 mm
03:01 PM 86.2°F30.1°C 59.1°F15.1°C 40% Calm Calm 6.9 mph11.1 kmh 30.51 in1033.2 mb 0.00 in0.0 mm 0.00 in/hr0.0 mm/hr 0.00 in0.0 mm
03:02 PM 86.2°F30.1°C 59.8°F15.4°C 41% Calm Calm 6.9 mph11.1 kmh 30.51 in1033.2 mb 0.00 in0.0 mm 0.00 in/hr0.0 mm/hr 0.00 in0.0 mm
03:03 PM 86.5°F30.3°C 60.1°F15.6°C 41% Calm Calm 6.9 mph11.1 kmh 30.51 in1033.2 mb 0.00 in0.0 mm 0.00 in/hr0.0 mm/hr 0.00 in0.0 mm
03:04 PM 86.9°F30.5°C 59.7°F15.4°C 40% 0.7 mph WSW1.1 kmh WSW 5.4 mph8.7 kmh 30.51 in1033.2 mb 0.00 in0.0 mm 0.00 in/hr0.0 mm/hr 0.00 in0.0 mm
03:05 PM 88.9°F31.6°C 59.3°F15.2°C 37% Calm Calm 5.4 mph8.7 kmh 30.51 in1033.2 mb 0.00 in0.0 mm 0.00 in/hr0.0 mm/hr 0.00 in0.0 mm
03:06 PM 88.7°F31.5°C 59.1°F15.1°C 37% Calm Calm 5.4 mph8.7 kmh 30.51 in1033.2 mb 0.00 in0.0 mm 0.00 in/hr0.0 mm/hr 0.00 in0.0 mm
03:07 PM 88.7°F31.5°C 59.9°F15.5°C 38% Calm Calm 5.4 mph8.7 kmh 30.51 in1033.2 mb 0.00 in0.0 mm 0.00 in/hr0.0 mm/hr 0.00 in0.0 mm
03:08 PM 89.2°F31.8°C 60.4°F15.8°C 38% Calm Calm 5.4 mph8.7 kmh 30.51 in1033.2 mb 0.00 in0.0 mm 0.00 in/hr0.0 mm/hr 0.00 in0.0 mm
03:09 PM 90.0°F32.2°C 62.5°F16.9°C 40% 3.1 mph W5.0 kmh W 5.4 mph8.7 kmh 30.51 in1033.2 mb 0.00 in0.0 mm 0.00 in/hr0.0 mm/hr 0.00 in0.0 mm
03:10 PM 88.2°F31.2°C 57.9°F14.4°C 36% 2.2 mph WSW3.5 kmh WSW 3.8 mph6.1 kmh 30.51 in1033.2 mb 0.00 in0.0 mm 0.00 in/hr0.0 mm/hr 0.00 in0.0 mm
03:11 PM 87.4°F30.8°C 58.8°F14.9°C 38% 2.2 mph WSW3.5 kmh WSW 3.8 mph6.1 kmh 30.50 in1032.8 mb 0.00 in0.0 mm 0.00 in/hr0.0 mm/hr 0.00 in0.0 mm
03:12 PM 86.7°F30.4°C 57.4°F14.1°C 37% 2.2 mph ENE3.5 kmh ENE 3.8 mph6.1 kmh 30.50 in1032.8 mb 0.00 in0.0 mm 0.00 in/hr0.0 mm/hr 0.00 in0.0 mm
03:13 PM 86.7°F30.4°C 60.9°F16.1°C 42% 1.6 mph N2.6 kmh N 3.8 mph6.1 kmh 30.51 in1033.2 mb 0.00 in0.0 mm 0.00 in/hr0.0 mm/hr 0.00 in0.0 mm
03:14 PM 86.4°F30.2°C 59.9°F15.5°C 41% 0.7 mph N1.1 kmh N 3.8 mph6.1 kmh 30.50 in1032.8 mb 0.00 in0.0 mm 0.00 in/hr0.0 mm/hr 0.00 in0.0 mm
03:15 PM 87.8°F31.0°C 61.9°F16.6°C 42% Calm Calm 3.8 mph6.1 kmh 30.50 in1032.8 mb 0.00 in0.0 mm 0.00 in/hr0.0 mm/hr 0.00 in0.0 mm
03:16 PM 87.6°F30.9°C 62.4°F16.9°C 43% 0.7 mph NE1.1 kmh NE 3.8 mph6.1 kmh 30.51 in1033.2 mb 0.00 in0.0 mm 0.00 in/hr0.0 mm/hr 0.00 in0.0 mm
03:17 PM 88.7°F31.5°C 62.7°F17.1°C 42% Calm Calm 3.8 mph6.1 kmh 30.50 in1032.8 mb 0.00 in0.0 mm 0.00 in/hr0.0 mm/hr 0.00 in0.0 mm
03:18 PM 89.8°F32.1°C 63.0°F17.2°C 41% 0.7 mph NNE1.1 kmh NNE 3.8 mph6.1 kmh 30.50 in1032.8 mb 0.00 in0.0 mm 0.00 in/hr0.0 mm/hr 0.00 in0.0 mm
03:19 PM 90.0°F32.2°C 63.2°F17.3°C 41% 1.6 mph N2.6 kmh N 3.8 mph6.1 kmh 30.50 in1032.8 mb 0.00 in0.0 mm 0.00 in/hr0.0 mm/hr 0.00 in0.0 mm
03:20 PM 89.8°F32.1°C 60.8°F16.0°C 38% Calm Calm 3.8 mph6.1 kmh 30.50 in1032.8 mb 0.00 in0.0 mm 0.00 in/hr0.0 mm/hr 0.00 in0.0 mm
03:21 PM 90.7°F32.6°C 63.8°F17.7°C 41% Calm Calm 3.8 mph6.1 kmh 30.50 in1032.8 mb 0.00 in0.0 mm 0.00 in/hr0.0 mm/hr 0.00 in0.0 mm
03:22 PM 91.2°F32.9°C 63.6°F17.6°C 40% 3.1 mph N5.0 kmh N 4.5 mph7.2 kmh 30.50 in1032.8 mb 0.00 in0.0 mm 0.00 in/hr0.0 mm/hr 0.00 in0.0 mm
03:23 PM 89.8°F32.1°C 60.1°F15.6°C 37% 0.7 mph NNW1.1 kmh NNW 4.5 mph7.2 kmh 30.50 in1032.8 mb 0.00 in0.0 mm 0.00 in/hr0.0 mm/hr 0.00 in0.0 mm
03:24 PM 88.9°F31.6°C 59.3°F15.2°C 37% Calm Calm 4.5 mph7.2 kmh 30.50 in1032.8 mb 0.00 in0.0 mm 0.00 in/hr0.0 mm/hr 0.00 in0.0 mm
03:25 PM 90.3°F32.4°C 62.8°F17.1°C 40% Calm Calm 4.5 mph7.2 kmh 30.50 in1032.8 mb 0.00 in0.0 mm 0.00 in/hr0.0 mm/hr 0.00 in0.0 mm
03:26 PM 91.0°F32.8°C 63.4°F17.4°C 40% Calm Calm 4.5 mph7.2 kmh 30.50 in1032.8 mb 0.00 in0.0 mm 0.00 in/hr0.0 mm/hr 0.00 in0.0 mm
03:27 PM 90.9°F32.7°C 61.8°F16.6°C 38% 1.6 mph NW2.6 kmh NW 4.5 mph7.2 kmh 30.50 in1032.8 mb 0.00 in0.0 mm 0.00 in/hr0.0 mm/hr 0.00 in0.0 mm
03:28 PM 90.5°F32.5°C 62.9°F17.2°C 40% 1.6 mph NW2.6 kmh NW 4.5 mph7.2 kmh 30.50 in1032.8 mb 0.00 in0.0 mm 0.00 in/hr0.0 mm/hr 0.00 in0.0 mm
03:29 PM 91.4°F33.0°C 62.3°F16.8°C 38% 3.1 mph W5.0 kmh W 4.5 mph7.2 kmh 30.50 in1032.8 mb 0.00 in0.0 mm 0.00 in/hr0.0 mm/hr 0.00 in0.0 mm
03:30 PM 91.6°F33.1°C 61.7°F16.5°C 37% 0.7 mph WSW1.1 kmh WSW 4.5 mph7.2 kmh 30.50 in1032.8 mb 0.00 in0.0 mm 0.00 in/hr0.0 mm/hr 0.00 in0.0 mm
03:31 PM 91.6°F33.1°C 61.7°F16.5°C 37% Calm Calm 4.5 mph7.2 kmh 30.50 in1032.8 mb 0.00 in0.0 mm 0.00 in/hr0.0 mm/hr 0.00 in0.0 mm
03:32 PM 92.1°F33.4°C 62.2°F16.8°C 37% 3.8 mph W6.1 kmh W 6.0 mph9.7 kmh 30.50 in1032.8 mb 0.00 in0.0 mm 0.00 in/hr0.0 mm/hr 0.00 in0.0 mm
03:33 PM 89.4°F31.9°C 56.6°F13.7°C 33% 3.1 mph WSW5.0 kmh WSW 6.0 mph9.7 kmh 30.50 in1032.8 mb 0.00 in0.0 mm 0.00 in/hr0.0 mm/hr 0.00 in0.0 mm
03:34 PM 89.6°F32.0°C 58.4°F14.7°C 35% 1.6 mph WSW2.6 kmh WSW 6.0 mph9.7 kmh 30.50 in1032.8 mb 0.00 in0.0 mm 0.00 in/hr0.0 mm/hr 0.00 in0.0 mm
03:35 PM 89.4°F31.9°C 59.0°F15.0°C 36% 1.6 mph WSW2.6 kmh WSW 6.0 mph9.7 kmh 30.50 in1032.8 mb 0.00 in0.0 mm 0.00 in/hr0.0 mm/hr 0.00 in0.0 mm
03:36 PM 90.3°F32.4°C 59.8°F15.4°C 36% Calm Calm 6.0 mph9.7 kmh 30.50 in1032.8 mb 0.00 in0.0 mm 0.00 in/hr0.0 mm/hr 0.00 in0.0 mm
03:37 PM 91.4°F33.0°C 62.3°F16.8°C 38% 0.7 mph WSW1.1 kmh WSW 6.0 mph9.7 kmh 30.50 in1032.8 mb 0.00 in0.0 mm 0.00 in/hr0.0 mm/hr 0.00 in0.0 mm
03:38 PM 91.8°F33.2°C 61.8°F16.6°C 37% 1.6 mph WSW2.6 kmh WSW 6.0 mph9.7 kmh 30.50 in1032.8 mb 0.00 in0.0 mm 0.00 in/hr0.0 mm/hr 0.00 in0.0 mm
03:39 PM 92.1°F33.4°C 62.2°F16.8°C 37% 1.6 mph W2.6 kmh W 6.0 mph9.7 kmh 30.50 in1032.8 mb 0.00 in0.0 mm 0.00 in/hr0.0 mm/hr 0.00 in0.0 mm
03:40 PM 90.7°F32.6°C 60.1°F15.6°C 36% Calm Calm 6.0 mph9.7 kmh 30.50 in1032.8 mb 0.00 in0.0 mm 0.00 in/hr0.0 mm/hr 0.00 in0.0 mm
03:41 PM 91.9°F33.3°C 62.8°F17.1°C 38% Calm Calm 6.0 mph9.7 kmh 30.50 in1032.8 mb 0.00 in0.0 mm 0.00 in/hr0.0 mm/hr 0.00 in0.0 mm
03:42 PM 92.8°F33.8°C 62.8°F17.1°C 37% 0.7 mph W1.1 kmh W 5.4 mph8.7 kmh 30.49 in1032.5 mb 0.00 in0.0 mm 0.00 in/hr0.0 mm/hr 0.00 in0.0 mm
03:43 PM 92.8°F33.8°C 63.6°F17.6°C 38% 1.6 mph NW2.6 kmh NW 3.8 mph6.1 kmh 30.50 in1032.8 mb 0.00 in0.0 mm 0.00 in/hr0.0 mm/hr 0.00 in0.0 mm
03:44 PM 91.9°F33.3°C 62.0°F16.7°C 37% 0.7 mph NW1.1 kmh NW 3.8 mph6.1 kmh 30.50 in1032.8 mb 0.00 in0.0 mm 0.00 in/hr0.0 mm/hr 0.00 in0.0 mm
03:45 PM 92.3°F33.5°C 61.5°F16.4°C 36% Calm Calm 3.8 mph6.1 kmh 30.49 in1032.5 mb 0.00 in0.0 mm 0.00 in/hr0.0 mm/hr 0.00 in0.0 mm
03:46 PM 91.8°F33.2°C 61.1°F16.2°C 36% 0.7 mph W1.1 kmh W 3.8 mph6.1 kmh 30.49 in1032.5 mb 0.00 in0.0 mm 0.00 in/hr0.0 mm/hr 0.00 in0.0 mm
03:47 PM 90.9°F32.7°C 57.0°F13.9°C 32% 0.7 mph NW1.1 kmh NW 3.8 mph6.1 kmh 30.49 in1032.5 mb 0.00 in0.0 mm 0.00 in/hr0.0 mm/hr 0.00 in0.0 mm
03:48 PM 89.6°F32.0°C 56.7°F13.7°C 33% Calm Calm 3.8 mph6.1 kmh 30.49 in1032.5 mb 0.00 in0.0 mm 0.00 in/hr0.0 mm/hr 0.00 in0.0 mm
03:49 PM 89.6°F32.0°C 59.2°F15.1°C 36% Calm Calm 3.8 mph6.1 kmh 30.49 in1032.5 mb 0.00 in0.0 mm 0.00 in/hr0.0 mm/hr 0.00 in0.0 mm
03:50 PM 87.6°F30.9°C 58.9°F14.9°C 38% 1.6 mph WNW2.6 kmh WNW 3.8 mph6.1 kmh 30.49 in1032.5 mb 0.00 in0.0 mm 0.00 in/hr0.0 mm/hr 0.00 in0.0 mm
03:51 PM 86.5°F30.3°C 58.0°F14.4°C 38% 1.6 mph WNW2.6 kmh WNW 3.8 mph6.1 kmh 30.49 in1032.5 mb 0.00 in0.0 mm 0.00 in/hr0.0 mm/hr 0.00 in0.0 mm
03:52 PM 86.2°F30.1°C 59.8°F15.4°C 41% 3.1 mph NW5.0 kmh NW 4.5 mph7.2 kmh 30.49 in1032.5 mb 0.00 in0.0 mm 0.00 in/hr0.0 mm/hr 0.00 in0.0 mm
03:53 PM 84.9°F29.4°C 58.6°F14.8°C 41% 0.7 mph NW1.1 kmh NW 4.5 mph7.2 kmh 30.49 in1032.5 mb 0.00 in0.0 mm 0.00 in/hr0.0 mm/hr 0.00 in0.0 mm
03:54 PM 85.5°F29.7°C 60.5°F15.8°C 43% 1.6 mph NW2.6 kmh NW 4.5 mph7.2 kmh 30.49 in1032.5 mb 0.00 in0.0 mm 0.00 in/hr0.0 mm/hr 0.00 in0.0 mm
03:55 PM 86.2°F30.1°C 62.4°F16.9°C 45% Calm Calm 4.5 mph7.2 kmh 30.49 in1032.5 mb 0.00 in0.0 mm 0.00 in/hr0.0 mm/hr 0.00 in0.0 mm
03:56 PM 86.9°F30.5°C 63.1°F17.3°C 45% Calm Calm 4.5 mph7.2 kmh 30.49 in1032.5 mb 0.00 in0.0 mm 0.00 in/hr0.0 mm/hr 0.00 in0.0 mm
03:57 PM 88.2°F31.2°C 62.9°F17.2°C 43% 1.6 mph NW2.6 kmh NW 4.5 mph7.2 kmh 30.49 in1032.5 mb 0.00 in0.0 mm 0.00 in/hr0.0 mm/hr 0.00 in0.0 mm
03:58 PM 85.3°F29.6°C 60.3°F15.7°C 43% 3.1 mph W5.0 kmh W 7.6 mph12.2 kmh 30.49 in1032.5 mb 0.00 in0.0 mm 0.00 in/hr0.0 mm/hr 0.00 in0.0 mm
03:59 PM 86.2°F30.1°C 59.8°F15.4°C 41% 4.5 mph WSW7.2 kmh WSW 8.3 mph13.4 kmh 30.49 in1032.5 mb 0.00 in0.0 mm 0.00 in/hr0.0 mm/hr 0.00 in0.0 mm
04:00 PM 85.8°F29.9°C 60.8°F16.0°C 43% 3.8 mph SW6.1 kmh SW 8.3 mph13.4 kmh 30.49 in1032.5 mb 0.00 in0.0 mm 0.00 in/hr0.0 mm/hr 0.00 in0.0 mm
04:01 PM 85.1°F29.5°C 60.1°F15.6°C 43% 3.1 mph SW5.0 kmh SW 8.3 mph13.4 kmh 30.49 in1032.5 mb 0.00 in0.0 mm 0.00 in/hr0.0 mm/hr 0.00 in0.0 mm
04:02 PM 86.7°F30.4°C 61.6°F16.4°C 43% 1.6 mph SSW2.6 kmh SSW 8.3 mph13.4 kmh 30.49 in1032.5 mb 0.00 in0.0 mm 0.00 in/hr0.0 mm/hr 0.00 in0.0 mm
04:03 PM 87.3°F30.7°C 62.1°F16.7°C 43% 1.6 mph SSW2.6 kmh SSW 8.3 mph13.4 kmh 30.48 in1032.2 mb 0.00 in0.0 mm 0.00 in/hr0.0 mm/hr 0.00 in0.0 mm
04:04 PM 87.3°F30.7°C 62.1°F16.7°C 43% 0.7 mph S1.1 kmh S 8.3 mph13.4 kmh 30.49 in1032.5 mb 0.00 in0.0 mm 0.00 in/hr0.0 mm/hr 0.00 in0.0 mm
04:05 PM 88.2°F31.2°C 62.2°F16.8°C 42% 4.5 mph S7.2 kmh S 8.3 mph13.4 kmh 30.49 in1032.5 mb 0.00 in0.0 mm 0.00 in/hr0.0 mm/hr 0.00 in0.0 mm
04:06 PM 85.8°F29.9°C 60.8°F16.0°C 43% 3.8 mph S6.1 kmh S 8.3 mph13.4 kmh 30.49 in1032.5 mb 0.00 in0.0 mm 0.00 in/hr0.0 mm/hr 0.00 in0.0 mm
04:07 PM 85.8°F29.9°C 60.8°F16.0°C 43% 5.4 mph S8.7 kmh S 8.3 mph13.4 kmh 30.49 in1032.5 mb 0.00 in0.0 mm 0.00 in/hr0.0 mm/hr 0.00 in0.0 mm
04:08 PM 86.0°F30.0°C 60.3°F15.7°C 42% 2.2 mph S3.5 kmh S 8.3 mph13.4 kmh 30.49 in1032.5 mb 0.00 in0.0 mm 0.00 in/hr0.0 mm/hr 0.00 in0.0 mm
04:09 PM 85.8°F29.9°C 60.1°F15.6°C 42% 0.7 mph S1.1 kmh S 8.3 mph13.4 kmh 30.49 in1032.5 mb 0.00 in0.0 mm 0.00 in/hr0.0 mm/hr 0.00 in0.0 mm
04:10 PM 86.5°F30.3°C 60.8°F16.0°C 42% 2.2 mph SSE3.5 kmh SSE 6.9 mph11.1 kmh 30.49 in1032.5 mb 0.00 in0.0 mm 0.00 in/hr0.0 mm/hr 0.00 in0.0 mm
04:11 PM 86.4°F30.2°C 59.9°F15.5°C 41% 2.2 mph S3.5 kmh S 6.9 mph11.1 kmh 30.49 in1032.5 mb 0.00 in0.0 mm 0.00 in/hr0.0 mm/hr 0.00 in0.0 mm
04:12 PM 86.0°F30.0°C 59.6°F15.3°C 41% 2.2 mph S3.5 kmh S 6.9 mph11.1 kmh 30.49 in1032.5 mb 0.00 in0.0 mm 0.00 in/hr0.0 mm/hr 0.00 in0.0 mm
04:13 PM 85.8°F29.9°C 60.1°F15.6°C 42% 1.6 mph S2.6 kmh S 6.9 mph11.1 kmh 30.49 in1032.5 mb 0.00 in0.0 mm 0.00 in/hr0.0 mm/hr 0.00 in0.0 mm
04:14 PM 87.4°F30.8°C 62.3°F16.8°C 43% 1.6 mph S2.6 kmh S 6.9 mph11.1 kmh 30.48 in1032.2 mb 0.00 in0.0 mm 0.00 in/hr0.0 mm/hr 0.00 in0.0 mm
04:15 PM 87.8°F31.0°C 61.2°F16.2°C 41% 1.6 mph SSE2.6 kmh SSE 6.9 mph11.1 kmh 30.48 in1032.2 mb 0.00 in0.0 mm 0.00 in/hr0.0 mm/hr 0.00 in0.0 mm
04:16 PM 88.9°F31.6°C 62.9°F17.2°C 42% 0.7 mph SSE1.1 kmh SSE 6.9 mph11.1 kmh 30.48 in1032.2 mb 0.00 in0.0 mm 0.00 in/hr0.0 mm/hr 0.00 in0.0 mm
04:17 PM 89.2°F31.8°C 63.2°F17.3°C 42% 0.7 mph SSE1.1 kmh SSE 6.9 mph11.1 kmh 30.48 in1032.2 mb 0.00 in0.0 mm 0.00 in/hr0.0 mm/hr 0.00 in0.0 mm
04:18 PM 90.0°F32.2°C 63.2°F17.3°C 41% 0.7 mph S1.1 kmh S 3.8 mph6.1 kmh 30.48 in1032.2 mb 0.00 in0.0 mm 0.00 in/hr0.0 mm/hr 0.00 in0.0 mm
04:19 PM 90.1°F32.3°C 63.3°F17.4°C 41% 1.6 mph S2.6 kmh S 3.8 mph6.1 kmh 30.48 in1032.2 mb 0.00 in0.0 mm 0.00 in/hr0.0 mm/hr 0.00 in0.0 mm
04:20 PM 90.1°F32.3°C 61.2°F16.2°C 38% 0.7 mph SSW1.1 kmh SSW 3.8 mph6.1 kmh 30.48 in1032.2 mb 0.00 in0.0 mm 0.00 in/hr0.0 mm/hr 0.00 in0.0 mm
04:21 PM 90.9°F32.7°C 61.8°F16.6°C 38% Calm Calm 3.8 mph6.1 kmh 30.48 in1032.2 mb 0.00 in0.0 mm 0.00 in/hr0.0 mm/hr 0.00 in0.0 mm
04:22 PM 91.9°F33.3°C 64.2°F17.9°C 40% Calm Calm 3.8 mph6.1 kmh 30.48 in1032.2 mb 0.00 in0.0 mm 0.00 in/hr0.0 mm/hr 0.00 in0.0 mm
04:23 PM 91.6°F33.1°C 63.9°F17.7°C 40% Calm Calm 3.8 mph6.1 kmh 30.48 in1032.2 mb 0.00 in0.0 mm 0.00 in/hr0.0 mm/hr 0.00 in0.0 mm
04:24 PM 91.0°F32.8°C 62.0°F16.7°C 38% 1.6 mph WSW2.6 kmh WSW 3.8 mph6.1 kmh 30.48 in1032.2 mb 0.00 in0.0 mm 0.00 in/hr0.0 mm/hr 0.00 in0.0 mm
04:25 PM 91.0°F32.8°C 61.2°F16.2°C 37% 0.7 mph WSW1.1 kmh WSW 3.8 mph6.1 kmh 30.48 in1032.2 mb 0.00 in0.0 mm 0.00 in/hr0.0 mm/hr 0.00 in0.0 mm
04:26 PM 91.8°F33.2°C 62.6°F17.0°C 38% Calm Calm 3.8 mph6.1 kmh 30.48 in1032.2 mb 0.00 in0.0 mm 0.00 in/hr0.0 mm/hr 0.00 in0.0 mm
04:27 PM 91.4°F33.0°C 62.3°F16.8°C 38% 0.7 mph W1.1 kmh W 3.8 mph6.1 kmh 30.48 in1032.2 mb 0.00 in0.0 mm 0.00 in/hr0.0 mm/hr 0.00 in0.0 mm
04:28 PM 91.0°F32.8°C 60.4°F15.8°C 36% Calm Calm 3.8 mph6.1 kmh 30.48 in1032.2 mb 0.00 in0.0 mm 0.00 in/hr0.0 mm/hr 0.00 in0.0 mm
04:29 PM 91.6°F33.1°C 61.7°F16.5°C 37% Calm Calm 3.8 mph6.1 kmh 30.48 in1032.2 mb 0.00 in0.0 mm 0.00 in/hr0.0 mm/hr 0.00 in0.0 mm
04:30 PM 91.9°F33.3°C 62.0°F16.7°C 37% Calm Calm 2.2 mph3.5 kmh 30.48 in1032.2 mb 0.00 in0.0 mm 0.00 in/hr0.0 mm/hr 0.00 in0.0 mm
04:31 PM 91.4°F33.0°C 61.5°F16.4°C 37% Calm Calm 2.2 mph3.5 kmh 30.48 in1032.2 mb 0.00 in0.0 mm 0.00 in/hr0.0 mm/hr 0.00 in0.0 mm
04:32 PM 91.4°F33.0°C 61.5°F16.4°C 37% Calm Calm 2.2 mph3.5 kmh 30.48 in1032.2 mb 0.00 in0.0 mm 0.00 in/hr0.0 mm/hr 0.00 in0.0 mm
04:33 PM 91.6°F33.1°C 60.9°F16.1°C 36% 0.7 mph WSW1.1 kmh WSW 2.2 mph3.5 kmh 30.48 in1032.2 mb 0.00 in0.0 mm 0.00 in/hr0.0 mm/hr 0.00 in0.0 mm
04:34 PM 90.9°F32.7°C 57.8°F14.3°C 33% Calm Calm 2.2 mph3.5 kmh 30.48 in1032.2 mb 0.00 in0.0 mm 0.00 in/hr0.0 mm/hr 0.00 in0.0 mm
04:35 PM 91.2°F32.9°C 58.2°F14.6°C 33% Calm Calm 2.2 mph3.5 kmh 30.48 in1032.2 mb 0.00 in0.0 mm 0.00 in/hr0.0 mm/hr 0.00 in0.0 mm
04:36 PM 91.8°F33.2°C 61.1°F16.2°C 36% 2.2 mph SSW3.5 kmh SSW 3.8 mph6.1 kmh 30.48 in1032.2 mb 0.00 in0.0 mm 0.00 in/hr0.0 mm/hr 0.00 in0.0 mm
04:37 PM 90.9°F32.7°C 57.8°F14.3°C 33% 0.7 mph S1.1 kmh S 3.8 mph6.1 kmh 30.48 in1032.2 mb 0.00 in0.0 mm 0.00 in/hr0.0 mm/hr 0.00 in0.0 mm
04:38 PM 90.9°F32.7°C 57.8°F14.3°C 33% 2.2 mph S3.5 kmh S 3.8 mph6.1 kmh 30.48 in1032.2 mb 0.00 in0.0 mm 0.00 in/hr0.0 mm/hr 0.00 in0.0 mm
04:39 PM 89.8°F32.1°C 56.9°F13.8°C 33% 1.6 mph SSW2.6 kmh SSW 3.8 mph6.1 kmh 30.48 in1032.2 mb 0.00 in0.0 mm 0.00 in/hr0.0 mm/hr 0.00 in0.0 mm
04:40 PM 89.8°F32.1°C 56.9°F13.8°C 33% 1.6 mph SSW2.6 kmh SSW 3.8 mph6.1 kmh 30.47 in1031.8 mb 0.00 in0.0 mm 0.00 in/hr0.0 mm/hr 0.00 in0.0 mm
04:41 PM 90.1°F32.3°C 58.9°F14.9°C 35% Calm Calm 3.8 mph6.1 kmh 30.47 in1031.8 mb 0.00 in0.0 mm 0.00 in/hr0.0 mm/hr 0.00 in0.0 mm
04:42 PM 90.9°F32.7°C 61.1°F16.2°C 37% 1.6 mph SSW2.6 kmh SSW 4.5 mph7.2 kmh 30.47 in1031.8 mb 0.00 in0.0 mm 0.00 in/hr0.0 mm/hr 0.00 in0.0 mm
04:43 PM 90.3°F32.4°C 59.0°F15.0°C 35% 1.6 mph SSW2.6 kmh SSW 4.5 mph7.2 kmh 30.47 in1031.8 mb 0.00 in0.0 mm 0.00 in/hr0.0 mm/hr 0.00 in0.0 mm
04:44 PM 90.0°F32.2°C 58.7°F14.8°C 35% 1.6 mph S2.6 kmh S 4.5 mph7.2 kmh 30.47 in1031.8 mb 0.00 in0.0 mm 0.00 in/hr0.0 mm/hr 0.00 in0.0 mm
04:45 PM 90.1°F32.3°C 58.9°F14.9°C 35% Calm Calm 4.5 mph7.2 kmh 30.47 in1031.8 mb 0.00 in0.0 mm 0.00 in/hr0.0 mm/hr 0.00 in0.0 mm
04:46 PM 90.1°F32.3°C 58.9°F14.9°C 35% Calm Calm 4.5 mph7.2 kmh 30.47 in1031.8 mb 0.00 in0.0 mm 0.00 in/hr0.0 mm/hr 0.00 in0.0 mm
04:47 PM 90.5°F32.5°C 60.7°F15.9°C 37% 1.6 mph SSW2.6 kmh SSW 4.5 mph7.2 kmh 30.47 in1031.8 mb 0.00 in0.0 mm 0.00 in/hr0.0 mm/hr 0.00 in0.0 mm
04:48 PM 90.5°F32.5°C 59.2°F15.1°C 35% 2.2 mph SSW3.5 kmh SSW 5.4 mph8.7 kmh 30.47 in1031.8 mb 0.00 in0.0 mm 0.00 in/hr0.0 mm/hr 0.00 in0.0 mm
04:49 PM 88.2°F31.2°C 57.1°F13.9°C 35% Calm Calm 5.4 mph8.7 kmh 30.47 in1031.8 mb 0.00 in0.0 mm 0.00 in/hr0.0 mm/hr 0.00 in0.0 mm
04:50 PM 89.1°F31.7°C 59.5°F15.3°C 37% 2.2 mph SSW3.5 kmh SSW 5.4 mph8.7 kmh 30.47 in1031.8 mb 0.00 in0.0 mm 0.00 in/hr0.0 mm/hr 0.00 in0.0 mm
04:51 PM 88.7°F31.5°C 59.1°F15.1°C 37% 0.7 mph SSW1.1 kmh SSW 5.4 mph8.7 kmh 30.47 in1031.8 mb 0.00 in0.0 mm 0.00 in/hr0.0 mm/hr 0.00 in0.0 mm
04:52 PM 88.5°F31.4°C 59.0°F15.0°C 37% 3.8 mph SSW6.1 kmh SSW 5.4 mph8.7 kmh 30.47 in1031.8 mb 0.00 in0.0 mm 0.00 in/hr0.0 mm/hr 0.00 in0.0 mm
04:53 PM 86.7°F30.4°C 58.1°F14.5°C 38% 1.6 mph SSW2.6 kmh SSW 5.4 mph8.7 kmh 30.47 in1031.8 mb 0.00 in0.0 mm 0.00 in/hr0.0 mm/hr 0.00 in0.0 mm
04:54 PM 87.4°F30.8°C 60.2°F15.7°C 40% Calm Calm 5.4 mph8.7 kmh 30.47 in1031.8 mb 0.00 in0.0 mm 0.00 in/hr0.0 mm/hr 0.00 in0.0 mm
04:55 PM 88.0°F31.1°C 59.2°F15.1°C 38% 2.2 mph SSW3.5 kmh SSW 5.4 mph8.7 kmh 30.47 in1031.8 mb 0.00 in0.0 mm 0.00 in/hr0.0 mm/hr 0.00 in0.0 mm
04:56 PM 87.4°F30.8°C 58.8°F14.9°C 38% 2.2 mph SSW3.5 kmh SSW 5.4 mph8.7 kmh 30.47 in1031.8 mb 0.00 in0.0 mm 0.00 in/hr0.0 mm/hr 0.00 in0.0 mm
04:57 PM 87.1°F30.6°C 58.4°F14.7°C 38% 1.6 mph SSW2.6 kmh SSW 5.4 mph8.7 kmh 30.47 in1031.8 mb 0.00 in0.0 mm 0.00 in/hr0.0 mm/hr 0.00 in0.0 mm
04:58 PM 87.1°F30.6°C 57.7°F14.3°C 37% Calm Calm 5.4 mph8.7 kmh 30.47 in1031.8 mb 0.00 in0.0 mm 0.00 in/hr0.0 mm/hr 0.00 in0.0 mm
04:59 PM 88.0°F31.1°C 58.5°F14.7°C 37% 0.7 mph S1.1 kmh S 5.4 mph8.7 kmh 30.47 in1031.8 mb 0.00 in0.0 mm 0.00 in/hr0.0 mm/hr 0.00 in0.0 mm
05:00 PM 88.5°F31.4°C 59.0°F15.0°C 37% Calm Calm 5.4 mph8.7 kmh 30.47 in1031.8 mb 0.00 in0.0 mm 0.00 in/hr0.0 mm/hr 0.00 in0.0 mm
05:01 PM 88.0°F31.1°C 58.5°F14.7°C 37% 2.2 mph S3.5 kmh S 5.4 mph8.7 kmh 30.46 in1031.5 mb 0.00 in0.0 mm 0.00 in/hr0.0 mm/hr 0.00 in0.0 mm
05:02 PM 87.6°F30.9°C 58.9°F14.9°C 38% 2.2 mph S3.5 kmh S 4.5 mph7.2 kmh 30.47 in1031.8 mb 0.00 in0.0 mm 0.00 in/hr0.0 mm/hr 0.00 in0.0 mm
05:03 PM 87.8°F31.0°C 58.3°F14.6°C 37% Calm Calm 3.8 mph6.1 kmh 30.46 in1031.5 mb 0.00 in0.0 mm 0.00 in/hr0.0 mm/hr 0.00 in0.0 mm
05:04 PM 88.5°F31.4°C 59.7°F15.4°C 38% Calm Calm 3.8 mph6.1 kmh 30.47 in1031.8 mb 0.00 in0.0 mm 0.00 in/hr0.0 mm/hr 0.00 in0.0 mm
05:05 PM 89.8°F32.1°C 60.1°F15.6°C 37% Calm Calm 3.8 mph6.1 kmh 30.46 in1031.5 mb 0.00 in0.0 mm 0.00 in/hr0.0 mm/hr 0.00 in0.0 mm
05:06 PM 90.1°F32.3°C 61.2°F16.2°C 38% Calm Calm 3.8 mph6.1 kmh 30.46 in1031.5 mb 0.00 in0.0 mm 0.00 in/hr0.0 mm/hr 0.00 in0.0 mm
05:07 PM 90.5°F32.5°C 60.7°F15.9°C 37% 1.6 mph SSE2.6 kmh SSE 3.8 mph6.1 kmh 30.46 in1031.5 mb 0.00 in0.0 mm 0.00 in/hr0.0 mm/hr 0.00 in0.0 mm
05:08 PM 89.2°F31.8°C 59.6°F15.3°C 37% 2.2 mph SSE3.5 kmh SSE 3.8 mph6.1 kmh 30.46 in1031.5 mb 0.00 in0.0 mm 0.00 in/hr0.0 mm/hr 0.00 in0.0 mm
05:09 PM 88.9°F31.6°C 58.5°F14.7°C 36% 0.7 mph SSE1.1 kmh SSE 3.8 mph6.1 kmh 30.46 in1031.5 mb 0.00 in0.0 mm 0.00 in/hr0.0 mm/hr 0.00 in0.0 mm
05:10 PM 88.7°F31.5°C 58.4°F14.7°C 36% 1.6 mph SSE2.6 kmh SSE 3.8 mph6.1 kmh 30.47 in1031.8 mb 0.00 in0.0 mm 0.00 in/hr0.0 mm/hr 0.00 in0.0 mm
05:11 PM 88.2°F31.2°C 58.7°F14.8°C 37% 3.8 mph S6.1 kmh S 5.4 mph8.7 kmh 30.46 in1031.5 mb 0.00 in0.0 mm 0.00 in/hr0.0 mm/hr 0.00 in0.0 mm
05:12 PM 86.4°F30.2°C 57.1°F13.9°C 37% 2.2 mph S3.5 kmh S 5.4 mph8.7 kmh 30.46 in1031.5 mb 0.00 in0.0 mm 0.00 in/hr0.0 mm/hr 0.00 in0.0 mm
05:13 PM 87.4°F30.8°C 60.2°F15.7°C 40% 2.2 mph S3.5 kmh S 5.4 mph8.7 kmh 30.46 in1031.5 mb 0.00 in0.0 mm 0.00 in/hr0.0 mm/hr 0.00 in0.0 mm
05:14 PM 86.9°F30.5°C 59.7°F15.4°C 40% 0.7 mph S1.1 kmh S 5.4 mph8.7 kmh 30.46 in1031.5 mb 0.00 in0.0 mm 0.00 in/hr0.0 mm/hr 0.00 in0.0 mm
05:15 PM 87.1°F30.6°C 59.9°F15.5°C 40% Calm Calm 5.4 mph8.7 kmh 30.46 in1031.5 mb 0.00 in0.0 mm 0.00 in/hr0.0 mm/hr 0.00 in0.0 mm
05:16 PM 88.3°F31.3°C 61.0°F16.1°C 40% 0.7 mph S1.1 kmh S 5.4 mph8.7 kmh 30.46 in1031.5 mb 0.00 in0.0 mm 0.00 in/hr0.0 mm/hr 0.00 in0.0 mm
05:17 PM 88.2°F31.2°C 59.4°F15.2°C 38% 4.5 mph SSW7.2 kmh SSW 6.9 mph11.1 kmh 30.46 in1031.5 mb 0.00 in0.0 mm 0.00 in/hr0.0 mm/hr 0.00 in0.0 mm
05:18 PM 86.5°F30.3°C 59.4°F15.2°C 40% 4.5 mph SSW7.2 kmh SSW 7.6 mph12.2 kmh 30.46 in1031.5 mb 0.00 in0.0 mm 0.00 in/hr0.0 mm/hr 0.00 in0.0 mm
05:19 PM 86.0°F30.0°C 58.9°F14.9°C 40% 4.5 mph SSW7.2 kmh SSW 7.6 mph12.2 kmh 30.46 in1031.5 mb 0.00 in0.0 mm 0.00 in/hr0.0 mm/hr 0.00 in0.0 mm
05:20 PM 86.2°F30.1°C 59.1°F15.1°C 40% 3.1 mph SSW5.0 kmh SSW 7.6 mph12.2 kmh 30.46 in1031.5 mb 0.00 in0.0 mm 0.00 in/hr0.0 mm/hr 0.00 in0.0 mm
05:21 PM 86.7°F30.4°C 60.9°F16.1°C 42% Calm Calm 7.6 mph12.2 kmh 30.46 in1031.5 mb 0.00 in0.0 mm 0.00 in/hr0.0 mm/hr 0.00 in0.0 mm
05:22 PM 87.4°F30.8°C 61.6°F16.4°C 42% Calm Calm 7.6 mph12.2 kmh 30.46 in1031.5 mb 0.00 in0.0 mm 0.00 in/hr0.0 mm/hr 0.00 in0.0 mm
05:23 PM 88.2°F31.2°C 62.2°F16.8°C 42% 0.7 mph SSW1.1 kmh SSW 7.6 mph12.2 kmh 30.46 in1031.5 mb 0.00 in0.0 mm 0.00 in/hr0.0 mm/hr 0.00 in0.0 mm
05:24 PM 88.3°F31.3°C 62.4°F16.9°C 42% 0.7 mph SSW1.1 kmh SSW 7.6 mph12.2 kmh 30.46 in1031.5 mb 0.00 in0.0 mm 0.00 in/hr0.0 mm/hr 0.00 in0.0 mm
05:25 PM 89.4°F31.9°C 63.4°F17.4°C 42% Calm Calm 7.6 mph12.2 kmh 30.46 in1031.5 mb 0.00 in0.0 mm 0.00 in/hr0.0 mm/hr 0.00 in0.0 mm
05:26 PM 90.1°F32.3°C 63.3°F17.4°C 41% Calm Calm 7.6 mph12.2 kmh 30.46 in1031.5 mb 0.00 in0.0 mm 0.00 in/hr0.0 mm/hr 0.00 in0.0 mm
05:27 PM 89.4°F31.9°C 63.4°F17.4°C 42% Calm Calm 7.6 mph12.2 kmh 30.46 in1031.5 mb 0.00 in0.0 mm 0.00 in/hr0.0 mm/hr 0.00 in0.0 mm
05:28 PM 89.2°F31.8°C 61.8°F16.6°C 40% 2.2 mph S3.5 kmh S 7.6 mph12.2 kmh 30.46 in1031.5 mb 0.00 in0.0 mm 0.00 in/hr0.0 mm/hr 0.00 in0.0 mm
05:29 PM 87.8°F31.0°C 60.5°F15.8°C 40% 0.7 mph SW1.1 kmh SW 6.9 mph11.1 kmh 30.46 in1031.5 mb 0.00 in0.0 mm 0.00 in/hr0.0 mm/hr 0.00 in0.0 mm
05:30 PM 88.3°F31.3°C 61.0°F16.1°C 40% 3.8 mph SW6.1 kmh SW 5.4 mph8.7 kmh 30.46 in1031.5 mb 0.00 in0.0 mm 0.00 in/hr0.0 mm/hr 0.00 in0.0 mm
05:31 PM 86.9°F30.5°C 59.7°F15.4°C 40% 2.2 mph SSW3.5 kmh SSW 5.4 mph8.7 kmh 30.46 in1031.5 mb 0.00 in0.0 mm 0.00 in/hr0.0 mm/hr 0.00 in0.0 mm
05:32 PM 86.5°F30.3°C 59.4°F15.2°C 40% 2.2 mph SSW3.5 kmh SSW 5.4 mph8.7 kmh 30.46 in1031.5 mb 0.00 in0.0 mm 0.00 in/hr0.0 mm/hr 0.00 in0.0 mm
05:33 PM 87.4°F30.8°C 61.6°F16.4°C 42% 1.6 mph SSW2.6 kmh SSW 5.4 mph8.7 kmh 30.46 in1031.5 mb 0.00 in0.0 mm 0.00 in/hr0.0 mm/hr 0.00 in0.0 mm
05:34 PM 87.1°F30.6°C 61.3°F16.3°C 42% Calm Calm 5.4 mph8.7 kmh 30.46 in1031.5 mb 0.00 in0.0 mm 0.00 in/hr0.0 mm/hr 0.00 in0.0 mm
05:35 PM 88.0°F31.1°C 62.1°F16.7°C 42% Calm Calm 5.4 mph8.7 kmh 30.46 in1031.5 mb 0.00 in0.0 mm 0.00 in/hr0.0 mm/hr 0.00 in0.0 mm
05:36 PM 88.5°F31.4°C 62.6°F17.0°C 42% 2.2 mph S3.5 kmh S 5.4 mph8.7 kmh 30.46 in1031.5 mb 0.00 in0.0 mm 0.00 in/hr0.0 mm/hr 0.00 in0.0 mm
05:37 PM 87.8°F31.0°C 60.5°F15.8°C 40% Calm Calm 5.4 mph8.7 kmh 30.46 in1031.5 mb 0.00 in0.0 mm 0.00 in/hr0.0 mm/hr 0.00 in0.0 mm
05:38 PM 88.2°F31.2°C 61.5°F16.4°C 41% 5.4 mph SSW8.7 kmh SSW 7.6 mph12.2 kmh 30.46 in1031.5 mb 0.00 in0.0 mm 0.00 in/hr0.0 mm/hr 0.00 in0.0 mm
05:39 PM 86.0°F30.0°C 58.9°F14.9°C 40% 3.8 mph SSW6.1 kmh SSW 7.6 mph12.2 kmh 30.46 in1031.5 mb 0.00 in0.0 mm 0.00 in/hr0.0 mm/hr 0.00 in0.0 mm
05:40 PM 86.0°F30.0°C 59.6°F15.3°C 41% 1.6 mph SSW2.6 kmh SSW 7.6 mph12.2 kmh 30.46 in1031.5 mb 0.00 in0.0 mm 0.00 in/hr0.0 mm/hr 0.00 in0.0 mm
05:41 PM 86.7°F30.4°C 60.9°F16.1°C 42% 1.6 mph SSW2.6 kmh SSW 7.6 mph12.2 kmh 30.46 in1031.5 mb 0.00 in0.0 mm 0.00 in/hr0.0 mm/hr 0.00 in0.0 mm
05:42 PM 86.9°F30.5°C 61.1°F16.2°C 42% 1.6 mph SSW2.6 kmh SSW 7.6 mph12.2 kmh 30.46 in1031.5 mb 0.00 in0.0 mm 0.00 in/hr0.0 mm/hr 0.00 in0.0 mm
05:43 PM 87.1°F30.6°C 61.3°F16.3°C 42% Calm Calm 7.6 mph12.2 kmh 30.46 in1031.5 mb 0.00 in0.0 mm 0.00 in/hr0.0 mm/hr 0.00 in0.0 mm
05:44 PM 87.4°F30.8°C 61.6°F16.4°C 42% 2.2 mph SSW3.5 kmh SSW 7.6 mph12.2 kmh 30.46 in1031.5 mb 0.00 in0.0 mm 0.00 in/hr0.0 mm/hr 0.00 in0.0 mm
05:45 PM 87.1°F30.6°C 61.9°F16.6°C 43% 0.7 mph SSW1.1 kmh SSW 7.6 mph12.2 kmh 30.46 in1031.5 mb 0.00 in0.0 mm 0.00 in/hr0.0 mm/hr 0.00 in0.0 mm
05:46 PM 87.4°F30.8°C 62.3°F16.8°C 43% 1.6 mph SW2.6 kmh SW 7.6 mph12.2 kmh 30.46 in1031.5 mb 0.00 in0.0 mm 0.00 in/hr0.0 mm/hr 0.00 in0.0 mm
05:47 PM 87.1°F30.6°C 61.9°F16.6°C 43% Calm Calm 7.6 mph12.2 kmh 30.46 in1031.5 mb 0.00 in0.0 mm 0.00 in/hr0.0 mm/hr 0.00 in0.0 mm
05:48 PM 87.1°F30.6°C 61.3°F16.3°C 42% 1.6 mph SW2.6 kmh SW 7.6 mph12.2 kmh 30.46 in1031.5 mb 0.00 in0.0 mm 0.00 in/hr0.0 mm/hr 0.00 in0.0 mm
05:49 PM 87.4°F30.8°C 61.6°F16.4°C 42% Calm Calm 5.4 mph8.7 kmh 30.46 in1031.5 mb 0.00 in0.0 mm 0.00 in/hr0.0 mm/hr 0.00 in0.0 mm
05:50 PM 87.8°F31.0°C 61.2°F16.2°C 41% Calm Calm 3.8 mph6.1 kmh 30.46 in1031.5 mb 0.00 in0.0 mm 0.00 in/hr0.0 mm/hr 0.00 in0.0 mm
05:51 PM 88.3°F31.3°C 62.4°F16.9°C 42% Calm Calm 3.8 mph6.1 kmh 30.46 in1031.5 mb 0.00 in0.0 mm 0.00 in/hr0.0 mm/hr 0.00 in0.0 mm
05:52 PM 88.0°F31.1°C 62.1°F16.7°C 42% Calm Calm 3.8 mph6.1 kmh 30.46 in1031.5 mb 0.00 in0.0 mm 0.00 in/hr0.0 mm/hr 0.00 in0.0 mm
05:53 PM 88.3°F31.3°C 62.4°F16.9°C 42% Calm Calm 3.8 mph6.1 kmh 30.46 in1031.5 mb 0.00 in0.0 mm 0.00 in/hr0.0 mm/hr 0.00 in0.0 mm
05:54 PM 88.0°F31.1°C 62.1°F16.7°C 42% Calm Calm 3.8 mph6.1 kmh 30.46 in1031.5 mb 0.00 in0.0 mm 0.00 in/hr0.0 mm/hr 0.00 in0.0 mm
05:55 PM 88.2°F31.2°C 61.5°F16.4°C 41% 0.7 mph SW1.1 kmh SW 3.8 mph6.1 kmh 30.46 in1031.5 mb 0.00 in0.0 mm 0.00 in/hr0.0 mm/hr 0.00 in0.0 mm
05:56 PM 87.4°F30.8°C 60.9°F16.1°C 41% Calm Calm 3.8 mph6.1 kmh 30.46 in1031.5 mb 0.00 in0.0 mm 0.00 in/hr0.0 mm/hr 0.00 in0.0 mm
05:57 PM 88.0°F31.1°C 62.1°F16.7°C 42% Calm Calm 3.8 mph6.1 kmh 30.46 in1031.5 mb 0.00 in0.0 mm 0.00 in/hr0.0 mm/hr 0.00 in0.0 mm
05:58 PM 87.8°F31.0°C 61.9°F16.6°C 42% Calm Calm 2.2 mph3.5 kmh 30.46 in1031.5 mb 0.00 in0.0 mm 0.00 in/hr0.0 mm/hr 0.00 in0.0 mm
05:59 PM 88.3°F31.3°C 62.4°F16.9°C 42% Calm Calm 2.2 mph3.5 kmh 30.46 in1031.5 mb 0.00 in0.0 mm 0.00 in/hr0.0 mm/hr 0.00 in0.0 mm
06:00 PM 88.5°F31.4°C 62.6°F17.0°C 42% 0.7 mph NW1.1 kmh NW 2.2 mph3.5 kmh 30.46 in1031.5 mb 0.00 in0.0 mm 0.00 in/hr0.0 mm/hr 0.00 in0.0 mm
06:01 PM 87.1°F30.6°C 61.9°F16.6°C 43% 3.1 mph S5.0 kmh S 4.5 mph7.2 kmh 30.46 in1031.5 mb 0.00 in0.0 mm 0.00 in/hr0.0 mm/hr 0.00 in0.0 mm
06:02 PM 86.7°F30.4°C 60.9°F16.1°C 42% 0.7 mph SE1.1 kmh SE 4.5 mph7.2 kmh 30.46 in1031.5 mb 0.00 in0.0 mm 0.00 in/hr0.0 mm/hr 0.00 in0.0 mm
06:03 PM 86.5°F30.3°C 61.4°F16.3°C 43% 3.1 mph SSE5.0 kmh SSE 4.5 mph7.2 kmh 30.46 in1031.5 mb 0.00 in0.0 mm 0.00 in/hr0.0 mm/hr 0.00 in0.0 mm
06:04 PM 85.6°F29.8°C 61.9°F16.6°C 45% 1.6 mph SSE2.6 kmh SSE 4.5 mph7.2 kmh 30.46 in1031.5 mb 0.00 in0.0 mm 0.00 in/hr0.0 mm/hr 0.00 in0.0 mm
06:05 PM 84.7°F29.3°C 61.1°F16.2°C 45% 1.6 mph S2.6 kmh S 4.5 mph7.2 kmh 30.45 in1031.2 mb 0.00 in0.0 mm 0.00 in/hr0.0 mm/hr 0.00 in0.0 mm
06:06 PM 85.1°F29.5°C 61.4°F16.3°C 45% 0.7 mph S1.1 kmh S 4.5 mph7.2 kmh 30.45 in1031.2 mb 0.00 in0.0 mm 0.00 in/hr0.0 mm/hr 0.00 in0.0 mm
06:07 PM 85.3°F29.6°C 61.6°F16.4°C 45% 1.6 mph S2.6 kmh S 4.5 mph7.2 kmh 30.45 in1031.2 mb 0.00 in0.0 mm 0.00 in/hr0.0 mm/hr 0.00 in0.0 mm
06:08 PM 84.9°F29.4°C 61.3°F16.3°C 45% Calm Calm 4.5 mph7.2 kmh 30.45 in1031.2 mb 0.00 in0.0 mm 0.00 in/hr0.0 mm/hr 0.00 in0.0 mm
06:09 PM 85.3°F29.6°C 62.2°F16.8°C 46% 3.1 mph S5.0 kmh S 4.5 mph7.2 kmh 30.45 in1031.2 mb 0.00 in0.0 mm 0.00 in/hr0.0 mm/hr 0.00 in0.0 mm
06:10 PM 84.6°F29.2°C 60.9°F16.1°C 45% Calm Calm 4.5 mph7.2 kmh 30.45 in1031.2 mb 0.00 in0.0 mm 0.00 in/hr0.0 mm/hr 0.00 in0.0 mm
06:11 PM 84.7°F29.3°C 61.7°F16.5°C 46% 0.7 mph S1.1 kmh S 4.5 mph7.2 kmh 30.45 in1031.2 mb 0.00 in0.0 mm 0.00 in/hr0.0 mm/hr 0.00 in0.0 mm
06:12 PM 84.9°F29.4°C 61.3°F16.3°C 45% Calm Calm 4.5 mph7.2 kmh 30.45 in1031.2 mb 0.00 in0.0 mm 0.00 in/hr0.0 mm/hr 0.00 in0.0 mm
06:13 PM 85.5°F29.7°C 62.4°F16.9°C 46% Calm Calm 4.5 mph7.2 kmh 30.45 in1031.2 mb 0.00 in0.0 mm 0.00 in/hr0.0 mm/hr 0.00 in0.0 mm
06:14 PM 85.6°F29.8°C 62.5°F16.9°C 46% 0.7 mph SSW1.1 kmh SSW 4.5 mph7.2 kmh 30.45 in1031.2 mb 0.00 in0.0 mm 0.00 in/hr0.0 mm/hr 0.00 in0.0 mm
06:15 PM 85.3°F29.6°C 62.2°F16.8°C 46% 0.7 mph SSW1.1 kmh SSW 4.5 mph7.2 kmh 30.45 in1031.2 mb 0.00 in0.0 mm 0.00 in/hr0.0 mm/hr 0.00 in0.0 mm
06:16 PM 85.3°F29.6°C 62.2°F16.8°C 46% 1.6 mph S2.6 kmh S 4.5 mph7.2 kmh 30.45 in1031.2 mb 0.00 in0.0 mm 0.00 in/hr0.0 mm/hr 0.00 in0.0 mm
06:17 PM 85.3°F29.6°C 62.2°F16.8°C 46% Calm Calm 4.5 mph7.2 kmh 30.46 in1031.5 mb 0.00 in0.0 mm 0.00 in/hr0.0 mm/hr 0.00 in0.0 mm
06:18 PM 85.6°F29.8°C 62.5°F16.9°C 46% Calm Calm 4.5 mph7.2 kmh 30.46 in1031.5 mb 0.00 in0.0 mm 0.00 in/hr0.0 mm/hr 0.00 in0.0 mm
06:19 PM 85.8°F29.9°C 62.7°F17.1°C 46% Calm Calm 4.5 mph7.2 kmh 30.46 in1031.5 mb 0.00 in0.0 mm 0.00 in/hr0.0 mm/hr 0.00 in0.0 mm
06:20 PM 85.8°F29.9°C 62.7°F17.1°C 46% 2.2 mph SSW3.5 kmh SSW 5.4 mph8.7 kmh 30.45 in1031.2 mb 0.00 in0.0 mm 0.00 in/hr0.0 mm/hr 0.00 in0.0 mm
06:21 PM 85.3°F29.6°C 62.2°F16.8°C 46% Calm Calm 5.4 mph8.7 kmh 30.45 in1031.2 mb 0.00 in0.0 mm 0.00 in/hr0.0 mm/hr 0.00 in0.0 mm
06:22 PM 85.3°F29.6°C 62.8°F17.1°C 47% 0.7 mph SSW1.1 kmh SSW 5.4 mph8.7 kmh 30.46 in1031.5 mb 0.00 in0.0 mm 0.00 in/hr0.0 mm/hr 0.00 in0.0 mm
06:23 PM 85.1°F29.5°C 62.7°F17.1°C 47% 1.6 mph SW2.6 kmh SW 5.4 mph8.7 kmh 30.45 in1031.2 mb 0.00 in0.0 mm 0.00 in/hr0.0 mm/hr 0.00 in0.0 mm
06:24 PM 84.7°F29.3°C 61.7°F16.5°C 46% 1.6 mph SW2.6 kmh SW 5.4 mph8.7 kmh 30.45 in1031.2 mb 0.00 in0.0 mm 0.00 in/hr0.0 mm/hr 0.00 in0.0 mm
06:25 PM 84.7°F29.3°C 62.3°F16.8°C 47% Calm Calm 5.4 mph8.7 kmh 30.45 in1031.2 mb 0.00 in0.0 mm 0.00 in/hr0.0 mm/hr 0.00 in0.0 mm
06:26 PM 84.6°F29.2°C 62.2°F16.8°C 47% 0.7 mph SW1.1 kmh SW 5.4 mph8.7 kmh 30.45 in1031.2 mb 0.00 in0.0 mm 0.00 in/hr0.0 mm/hr 0.00 in0.0 mm
06:27 PM 84.6°F29.2°C 62.2°F16.8°C 47% Calm Calm 5.4 mph8.7 kmh 30.46 in1031.5 mb 0.00 in0.0 mm 0.00 in/hr0.0 mm/hr 0.00 in0.0 mm
06:28 PM 84.6°F29.2°C 62.2°F16.8°C 47% 1.6 mph SW2.6 kmh SW 5.4 mph8.7 kmh 30.45 in1031.2 mb 0.00 in0.0 mm 0.00 in/hr0.0 mm/hr 0.00 in0.0 mm
06:29 PM 84.0°F28.9°C 62.3°F16.8°C 48% 0.7 mph SW1.1 kmh SW 5.4 mph8.7 kmh 30.45 in1031.2 mb 0.00 in0.0 mm 0.00 in/hr0.0 mm/hr 0.00 in0.0 mm
06:30 PM 84.0°F28.9°C 62.3°F16.8°C 48% Calm Calm 3.1 mph5.0 kmh 30.45 in1031.2 mb 0.00 in0.0 mm 0.00 in/hr0.0 mm/hr 0.00 in0.0 mm
06:31 PM 84.4°F29.1°C 62.0°F16.7°C 47% Calm Calm 3.1 mph5.0 kmh 30.45 in1031.2 mb 0.00 in0.0 mm 0.00 in/hr0.0 mm/hr 0.00 in0.0 mm
06:32 PM 84.4°F29.1°C 62.0°F16.7°C 47% Calm Calm 3.1 mph5.0 kmh 30.46 in1031.5 mb 0.00 in0.0 mm 0.00 in/hr0.0 mm/hr 0.00 in0.0 mm
06:33 PM 84.6°F29.2°C 62.8°F17.1°C 48% Calm Calm 3.1 mph5.0 kmh 30.46 in1031.5 mb 0.00 in0.0 mm 0.00 in/hr0.0 mm/hr 0.00 in0.0 mm
06:34 PM 84.6°F29.2°C 62.8°F17.1°C 48% Calm Calm 3.1 mph5.0 kmh 30.45 in1031.2 mb 0.00 in0.0 mm 0.00 in/hr0.0 mm/hr 0.00 in0.0 mm
06:35 PM 84.6°F29.2°C 62.8°F17.1°C 48% Calm Calm 3.1 mph5.0 kmh 30.46 in1031.5 mb 0.00 in0.0 mm 0.00 in/hr0.0 mm/hr 0.00 in0.0 mm
06:36 PM 84.6°F29.2°C 62.8°F17.1°C 48% Calm Calm 3.1 mph5.0 kmh 30.46 in1031.5 mb 0.00 in0.0 mm 0.00 in/hr0.0 mm/hr 0.00 in0.0 mm
06:37 PM 83.8°F28.8°C 62.1°F16.7°C 48% Calm Calm 3.8 mph6.1 kmh 30.46 in1031.5 mb 0.00 in0.0 mm 0.00 in/hr0.0 mm/hr 0.00 in0.0 mm
06:38 PM 83.7°F28.7°C 61.9°F16.6°C 48% 0.7 mph S1.1 kmh S 3.8 mph6.1 kmh 30.45 in1031.2 mb 0.00 in0.0 mm 0.00 in/hr0.0 mm/hr 0.00 in0.0 mm
06:39 PM 83.7°F28.7°C 61.9°F16.6°C 48% 1.6 mph SSW2.6 kmh SSW 3.8 mph6.1 kmh 30.45 in1031.2 mb 0.00 in0.0 mm 0.00 in/hr0.0 mm/hr 0.00 in0.0 mm
06:40 PM 83.5°F28.6°C 61.8°F16.6°C 48% 2.2 mph SSW3.5 kmh SSW 3.8 mph6.1 kmh 30.45 in1031.2 mb 0.00 in0.0 mm 0.00 in/hr0.0 mm/hr 0.00 in0.0 mm
06:41 PM 83.1°F28.4°C 61.4°F16.3°C 48% Calm Calm 3.8 mph6.1 kmh 30.45 in1031.2 mb 0.00 in0.0 mm 0.00 in/hr0.0 mm/hr 0.00 in0.0 mm
06:42 PM 83.1°F28.4°C 62.6°F17.0°C 50% Calm Calm 3.8 mph6.1 kmh 30.45 in1031.2 mb 0.00 in0.0 mm 0.00 in/hr0.0 mm/hr 0.00 in0.0 mm
06:43 PM 83.1°F28.4°C 62.6°F17.0°C 50% Calm Calm 3.8 mph6.1 kmh 30.46 in1031.5 mb 0.00 in0.0 mm 0.00 in/hr0.0 mm/hr 0.00 in0.0 mm
06:44 PM 83.3°F28.5°C 63.3°F17.4°C 51% Calm Calm 3.8 mph6.1 kmh 30.45 in1031.2 mb 0.00 in0.0 mm 0.00 in/hr0.0 mm/hr 0.00 in0.0 mm
06:45 PM 83.1°F28.4°C 63.2°F17.3°C 51% Calm Calm 3.8 mph6.1 kmh 30.45 in1031.2 mb 0.00 in0.0 mm 0.00 in/hr0.0 mm/hr 0.00 in0.0 mm
06:46 PM 83.1°F28.4°C 63.7°F17.6°C 52% Calm Calm 3.8 mph6.1 kmh 30.46 in1031.5 mb 0.00 in0.0 mm 0.00 in/hr0.0 mm/hr 0.00 in0.0 mm
06:47 PM 83.3°F28.5°C 63.9°F17.7°C 52% Calm Calm 3.8 mph6.1 kmh 30.45 in1031.2 mb 0.00 in0.0 mm 0.00 in/hr0.0 mm/hr 0.00 in0.0 mm
06:48 PM 83.3°F28.5°C 63.9°F17.7°C 52% Calm Calm 3.8 mph6.1 kmh 30.46 in1031.5 mb 0.00 in0.0 mm 0.00 in/hr0.0 mm/hr 0.00 in0.0 mm
06:49 PM 83.1°F28.4°C 63.7°F17.6°C 52% 0.7 mph S1.1 kmh S 3.8 mph6.1 kmh 30.46 in1031.5 mb 0.00 in0.0 mm 0.00 in/hr0.0 mm/hr 0.00 in0.0 mm
06:50 PM 82.8°F28.2°C 62.8°F17.1°C 51% Calm Calm 3.8 mph6.1 kmh 30.46 in1031.5 mb 0.00 in0.0 mm 0.00 in/hr0.0 mm/hr 0.00 in0.0 mm
06:51 PM 82.9°F28.3°C 63.0°F17.2°C 51% 0.7 mph SSW1.1 kmh SSW 2.2 mph3.5 kmh 30.45 in1031.2 mb 0.00 in0.0 mm 0.00 in/hr0.0 mm/hr 0.00 in0.0 mm
06:52 PM 82.8°F28.2°C 62.8°F17.1°C 51% Calm Calm 2.2 mph3.5 kmh 30.46 in1031.5 mb 0.00 in0.0 mm 0.00 in/hr0.0 mm/hr 0.00 in0.0 mm
06:53 PM 82.8°F28.2°C 62.8°F17.1°C 51% Calm Calm 2.2 mph3.5 kmh 30.45 in1031.2 mb 0.00 in0.0 mm 0.00 in/hr0.0 mm/hr 0.00 in0.0 mm
06:54 PM 82.6°F28.1°C 62.7°F17.1°C 51% Calm Calm 2.2 mph3.5 kmh 30.46 in1031.5 mb 0.00 in0.0 mm 0.00 in/hr0.0 mm/hr 0.00 in0.0 mm
06:55 PM 82.6°F28.1°C 62.7°F17.1°C 51% Calm Calm 2.2 mph3.5 kmh 30.46 in1031.5 mb 0.00 in0.0 mm 0.00 in/hr0.0 mm/hr 0.00 in0.0 mm
06:56 PM 82.6°F28.1°C 62.7°F17.1°C 51% Calm Calm 2.2 mph3.5 kmh 30.46 in1031.5 mb 0.00 in0.0 mm 0.00 in/hr0.0 mm/hr 0.00 in0.0 mm
06:57 PM 82.4°F28.0°C 62.5°F16.9°C 51% Calm Calm 2.2 mph3.5 kmh 30.46 in1031.5 mb 0.00 in0.0 mm 0.00 in/hr0.0 mm/hr 0.00 in0.0 mm
06:58 PM 82.0°F27.8°C 63.3°F17.4°C 53% Calm Calm 2.2 mph3.5 kmh 30.46 in1031.5 mb 0.00 in0.0 mm 0.00 in/hr0.0 mm/hr 0.00 in0.0 mm
06:59 PM 82.0°F27.8°C 62.7°F17.1°C 52% Calm Calm 2.2 mph3.5 kmh 30.46 in1031.5 mb 0.00 in0.0 mm 0.00 in/hr0.0 mm/hr 0.00 in0.0 mm
07:00 PM 82.0°F27.8°C 63.3°F17.4°C 53% Calm Calm 2.2 mph3.5 kmh 30.46 in1031.5 mb 0.00 in0.0 mm 0.00 in/hr0.0 mm/hr 0.00 in0.0 mm
07:01 PM 82.0°F27.8°C 63.3°F17.4°C 53% Calm Calm 2.2 mph3.5 kmh 30.46 in1031.5 mb 0.00 in0.0 mm 0.00 in/hr0.0 mm/hr 0.00 in0.0 mm
07:02 PM 82.0°F27.8°C 63.3°F17.4°C 53% Calm Calm 0.7 mph1.1 kmh 30.46 in1031.5 mb 0.00 in0.0 mm 0.00 in/hr0.0 mm/hr 0.00 in0.0 mm
07:03 PM 82.0°F27.8°C 63.3°F17.4°C 53% Calm Calm -- 30.46 in1031.5 mb 0.00 in0.0 mm 0.00 in/hr0.0 mm/hr 0.00 in0.0 mm
07:04 PM 82.0°F27.8°C 63.3°F17.4°C 53% Calm Calm -- 30.46 in1031.5 mb 0.00 in0.0 mm 0.00 in/hr0.0 mm/hr 0.00 in0.0 mm
07:05 PM 81.7°F27.6°C 62.9°F17.2°C 53% Calm Calm -- 30.46 in1031.5 mb 0.00 in0.0 mm 0.00 in/hr0.0 mm/hr 0.00 in0.0 mm
07:06 PM 81.5°F27.5°C 62.8°F17.1°C 53% Calm Calm -- 30.46 in1031.5 mb 0.00 in0.0 mm 0.00 in/hr0.0 mm/hr 0.00 in0.0 mm
07:07 PM 81.3°F27.4°C 62.6°F17.0°C 53% Calm Calm -- 30.45 in1031.2 mb 0.00 in0.0 mm 0.00 in/hr0.0 mm/hr 0.00 in0.0 mm
07:08 PM 81.3°F27.4°C 62.6°F17.0°C 53% Calm Calm -- 30.46 in1031.5 mb 0.00 in0.0 mm 0.00 in/hr0.0 mm/hr 0.00 in0.0 mm
07:09 PM 81.3°F27.4°C 62.6°F17.0°C 53% Calm Calm -- 30.45 in1031.2 mb 0.00 in0.0 mm 0.00 in/hr0.0 mm/hr 0.00 in0.0 mm
07:10 PM 81.1°F27.3°C 63.5°F17.5°C 55% Calm Calm -- 30.46 in1031.5 mb 0.00 in0.0 mm 0.00 in/hr0.0 mm/hr 0.00 in0.0 mm
07:11 PM 81.1°F27.3°C 63.5°F17.5°C 55% Calm Calm -- 30.45 in1031.2 mb 0.00 in0.0 mm 0.00 in/hr0.0 mm/hr 0.00 in0.0 mm
07:12 PM 81.0°F27.2°C 63.3°F17.4°C 55% Calm Calm -- 30.46 in1031.5 mb 0.00 in0.0 mm 0.00 in/hr0.0 mm/hr 0.00 in0.0 mm
07:13 PM 81.0°F27.2°C 63.3°F17.4°C 55% Calm Calm -- 30.45 in1031.2 mb 0.00 in0.0 mm 0.00 in/hr0.0 mm/hr 0.00 in0.0 mm
07:14 PM 81.0°F27.2°C 63.3°F17.4°C 55% Calm Calm -- 30.45 in1031.2 mb 0.00 in0.0 mm 0.00 in/hr0.0 mm/hr 0.00 in0.0 mm
07:15 PM 80.8°F27.1°C 63.2°F17.3°C 55% Calm Calm -- 30.45 in1031.2 mb 0.00 in0.0 mm 0.00 in/hr0.0 mm/hr 0.00 in0.0 mm
07:16 PM 80.8°F27.1°C 63.2°F17.3°C 55% Calm Calm -- 30.45 in1031.2 mb 0.00 in0.0 mm 0.00 in/hr0.0 mm/hr 0.00 in0.0 mm
07:17 PM 80.6°F27.0°C 63.0°F17.2°C 55% Calm Calm -- 30.45 in1031.2 mb 0.00 in0.0 mm 0.00 in/hr0.0 mm/hr 0.00 in0.0 mm
07:18 PM 80.4°F26.9°C 63.3°F17.4°C 56% Calm Calm -- 30.45 in1031.2 mb 0.00 in0.0 mm 0.00 in/hr0.0 mm/hr 0.00 in0.0 mm
07:19 PM 80.4°F26.9°C 63.3°F17.4°C 56% Calm Calm -- 30.45 in1031.2 mb 0.00 in0.0 mm 0.00 in/hr0.0 mm/hr 0.00 in0.0 mm
07:20 PM 80.4°F26.9°C 63.3°F17.4°C 56% Calm Calm -- 30.45 in1031.2 mb 0.00 in0.0 mm 0.00 in/hr0.0 mm/hr 0.00 in0.0 mm
07:21 PM 80.2°F26.8°C 63.2°F17.3°C 56% Calm Calm -- 30.46 in1031.5 mb 0.00 in0.0 mm 0.00 in/hr0.0 mm/hr 0.00 in0.0 mm
07:22 PM 80.2°F26.8°C 63.2°F17.3°C 56% Calm Calm -- 30.46 in1031.5 mb 0.00 in0.0 mm 0.00 in/hr0.0 mm/hr 0.00 in0.0 mm
07:23 PM 80.2°F26.8°C 63.2°F17.3°C 56% Calm Calm 0.7 mph1.1 kmh 30.45 in1031.2 mb 0.00 in0.0 mm 0.00 in/hr0.0 mm/hr 0.00 in0.0 mm
07:24 PM 80.2°F26.8°C 63.2°F17.3°C 56% Calm Calm 0.7 mph1.1 kmh 30.45 in1031.2 mb 0.00 in0.0 mm 0.00 in/hr0.0 mm/hr 0.00 in0.0 mm
07:25 PM 80.1°F26.7°C 63.0°F17.2°C 56% Calm Calm 0.7 mph1.1 kmh 30.45 in1031.2 mb 0.00 in0.0 mm 0.00 in/hr0.0 mm/hr 0.00 in0.0 mm
07:26 PM 80.1°F26.7°C 63.0°F17.2°C 56% Calm Calm 0.7 mph1.1 kmh 30.45 in1031.2 mb 0.00 in0.0 mm 0.00 in/hr0.0 mm/hr 0.00 in0.0 mm
07:27 PM 80.1°F26.7°C 63.0°F17.2°C 56% Calm Calm 0.7 mph1.1 kmh 30.45 in1031.2 mb 0.00 in0.0 mm 0.00 in/hr0.0 mm/hr 0.00 in0.0 mm
07:28 PM 79.9°F26.6°C 62.8°F17.1°C 56% Calm Calm 0.7 mph1.1 kmh 30.45 in1031.2 mb 0.00 in0.0 mm 0.00 in/hr0.0 mm/hr 0.00 in0.0 mm
07:29 PM 79.9°F26.6°C 62.8°F17.1°C 56% Calm Calm 0.7 mph1.1 kmh 30.45 in1031.2 mb 0.00 in0.0 mm 0.00 in/hr0.0 mm/hr 0.00 in0.0 mm
07:30 PM 79.7°F26.5°C 62.7°F17.1°C 56% Calm Calm 0.7 mph1.1 kmh 30.46 in1031.5 mb 0.00 in0.0 mm 0.00 in/hr0.0 mm/hr 0.00 in0.0 mm
07:31 PM 79.7°F26.5°C 62.7°F17.1°C 56% Calm Calm 0.7 mph1.1 kmh 30.46 in1031.5 mb 0.00 in0.0 mm 0.00 in/hr0.0 mm/hr 0.00 in0.0 mm
07:32 PM 79.7°F26.5°C 62.7°F17.1°C 56% Calm Calm 0.7 mph1.1 kmh 30.46 in1031.5 mb 0.00 in0.0 mm 0.00 in/hr0.0 mm/hr 0.00 in0.0 mm
07:33 PM 79.5°F26.4°C 63.0°F17.2°C 57% Calm Calm 0.7 mph1.1 kmh 30.46 in1031.5 mb 0.00 in0.0 mm 0.00 in/hr0.0 mm/hr 0.00 in0.0 mm
07:34 PM 79.5°F26.4°C 63.0°F17.2°C 57% Calm Calm -- 30.46 in1031.5 mb 0.00 in0.0 mm 0.00 in/hr0.0 mm/hr 0.00 in0.0 mm
07:35 PM 79.5°F26.4°C 63.0°F17.2°C 57% Calm Calm -- 30.46 in1031.5 mb 0.00 in0.0 mm 0.00 in/hr0.0 mm/hr 0.00 in0.0 mm
07:36 PM 79.5°F26.4°C 63.0°F17.2°C 57% Calm Calm -- 30.46 in1031.5 mb 0.00 in0.0 mm 0.00 in/hr0.0 mm/hr 0.00 in0.0 mm
07:37 PM 79.3°F26.3°C 62.8°F17.1°C 57% Calm Calm -- 30.46 in1031.5 mb 0.00 in0.0 mm 0.00 in/hr0.0 mm/hr 0.00 in0.0 mm